<?xml version="1.0" encoding="UTF-8" standalone="no" ?>
<gpx xmlns="http://www.topografix.com/GPX/1/1" xmlns:xsi="http://www.w3.org/2001/XMLSchema-instance" xsi:schemaLocation="http://www.topografix.com/GPX/1/1 http://www.topografix.com/GPX/1/1/gpx.xsd" version="1.1" creator="VisuGPX - https://www.visugpx.com">
  <metadata>
    <name>Strée Rausa Tihange Ravel Abée</name>
    <desc><![CDATA[Strée Rausa Tihange Ravel Pont de Bonne Abée]]></desc>
  </metadata>
  <trk>
    <name><![CDATA[Strée Rausa Tihange Pont de bonne Abée]]></name>
    <trkseg>
      <trkpt lat="50.44656" lon="5.34811">
        <ele>252.7</ele>
        <time>2013-01-19T12:58:10Z</time>
      </trkpt>
      <trkpt lat="50.44656" lon="5.34811">
        <ele>285.6</ele>
        <time>2013-01-19T12:58:25Z</time>
      </trkpt>
      <trkpt lat="50.44677" lon="5.34776">
        <ele>302.3</ele>
        <time>2013-01-19T12:59:29Z</time>
      </trkpt>
      <trkpt lat="50.44704" lon="5.34765">
        <ele>304.4</ele>
        <time>2013-01-19T12:59:37Z</time>
      </trkpt>
      <trkpt lat="50.44724" lon="5.34758">
        <ele>303.9</ele>
        <time>2013-01-19T12:59:43Z</time>
      </trkpt>
      <trkpt lat="50.44755" lon="5.34747">
        <ele>304.3</ele>
        <time>2013-01-19T12:59:50Z</time>
      </trkpt>
      <trkpt lat="50.44788" lon="5.34737">
        <ele>303.2</ele>
        <time>2013-01-19T12:59:56Z</time>
      </trkpt>
      <trkpt lat="50.4482" lon="5.34726">
        <ele>303.8</ele>
        <time>2013-01-19T13:00:02Z</time>
      </trkpt>
      <trkpt lat="50.44847" lon="5.34718">
        <ele>302.3</ele>
        <time>2013-01-19T13:00:07Z</time>
      </trkpt>
      <trkpt lat="50.44877" lon="5.3471">
        <ele>300.1</ele>
        <time>2013-01-19T13:00:13Z</time>
      </trkpt>
      <trkpt lat="50.44904" lon="5.34704">
        <ele>301.8</ele>
        <time>2013-01-19T13:00:18Z</time>
      </trkpt>
      <trkpt lat="50.44919" lon="5.34701">
        <ele>302</ele>
        <time>2013-01-19T13:00:21Z</time>
      </trkpt>
      <trkpt lat="50.44939" lon="5.34698">
        <ele>301.3</ele>
        <time>2013-01-19T13:00:25Z</time>
      </trkpt>
      <trkpt lat="50.44969" lon="5.34691">
        <ele>300.2</ele>
        <time>2013-01-19T13:00:31Z</time>
      </trkpt>
      <trkpt lat="50.44997" lon="5.34684">
        <ele>299.7</ele>
        <time>2013-01-19T13:00:37Z</time>
      </trkpt>
      <trkpt lat="50.45023" lon="5.3468">
        <ele>300.5</ele>
        <time>2013-01-19T13:00:42Z</time>
      </trkpt>
      <trkpt lat="50.45038" lon="5.34676">
        <ele>299.7</ele>
        <time>2013-01-19T13:00:45Z</time>
      </trkpt>
      <trkpt lat="50.45067" lon="5.34671">
        <ele>299.2</ele>
        <time>2013-01-19T13:00:51Z</time>
      </trkpt>
      <trkpt lat="50.45094" lon="5.34668">
        <ele>300.9</ele>
        <time>2013-01-19T13:00:57Z</time>
      </trkpt>
      <trkpt lat="50.45117" lon="5.34663">
        <ele>301.5</ele>
        <time>2013-01-19T13:01:02Z</time>
      </trkpt>
      <trkpt lat="50.45146" lon="5.34657">
        <ele>300.4</ele>
        <time>2013-01-19T13:01:09Z</time>
      </trkpt>
      <trkpt lat="50.45176" lon="5.34651">
        <ele>298.1</ele>
        <time>2013-01-19T13:01:17Z</time>
      </trkpt>
      <trkpt lat="50.45201" lon="5.34646">
        <ele>297.3</ele>
        <time>2013-01-19T13:01:23Z</time>
      </trkpt>
      <trkpt lat="50.45222" lon="5.34643">
        <ele>299</ele>
        <time>2013-01-19T13:01:29Z</time>
      </trkpt>
      <trkpt lat="50.45238" lon="5.3464">
        <ele>300.1</ele>
        <time>2013-01-19T13:01:34Z</time>
      </trkpt>
      <trkpt lat="50.45262" lon="5.34633">
        <ele>302.1</ele>
        <time>2013-01-19T13:01:41Z</time>
      </trkpt>
      <trkpt lat="50.45285" lon="5.34621">
        <ele>301.3</ele>
        <time>2013-01-19T13:01:48Z</time>
      </trkpt>
      <trkpt lat="50.45304" lon="5.34608">
        <ele>301.4</ele>
        <time>2013-01-19T13:01:53Z</time>
      </trkpt>
      <trkpt lat="50.45335" lon="5.34587">
        <ele>300.7</ele>
        <time>2013-01-19T13:01:59Z</time>
      </trkpt>
      <trkpt lat="50.45362" lon="5.34572">
        <ele>300.3</ele>
        <time>2013-01-19T13:02:04Z</time>
      </trkpt>
      <trkpt lat="50.45394" lon="5.34549">
        <ele>299.5</ele>
        <time>2013-01-19T13:02:09Z</time>
      </trkpt>
      <trkpt lat="50.45416" lon="5.34536">
        <ele>298.8</ele>
        <time>2013-01-19T13:02:12Z</time>
      </trkpt>
      <trkpt lat="50.45438" lon="5.34524">
        <ele>298.6</ele>
        <time>2013-01-19T13:02:15Z</time>
      </trkpt>
      <trkpt lat="50.45483" lon="5.34499">
        <ele>296.5</ele>
        <time>2013-01-19T13:02:21Z</time>
      </trkpt>
      <trkpt lat="50.45511" lon="5.34481">
        <ele>296</ele>
        <time>2013-01-19T13:02:25Z</time>
      </trkpt>
      <trkpt lat="50.4553" lon="5.34471">
        <ele>296.6</ele>
        <time>2013-01-19T13:02:28Z</time>
      </trkpt>
      <trkpt lat="50.45554" lon="5.34459">
        <ele>296</ele>
        <time>2013-01-19T13:02:32Z</time>
      </trkpt>
      <trkpt lat="50.45569" lon="5.34449">
        <ele>296.7</ele>
        <time>2013-01-19T13:02:34Z</time>
      </trkpt>
      <trkpt lat="50.45583" lon="5.34437">
        <ele>296.4</ele>
        <time>2013-01-19T13:02:38Z</time>
      </trkpt>
      <trkpt lat="50.45606" lon="5.3441">
        <ele>296.7</ele>
        <time>2013-01-19T13:02:44Z</time>
      </trkpt>
      <trkpt lat="50.45622" lon="5.34384">
        <ele>296.4</ele>
        <time>2013-01-19T13:02:49Z</time>
      </trkpt>
      <trkpt lat="50.45636" lon="5.34363">
        <ele>296.9</ele>
        <time>2013-01-19T13:02:54Z</time>
      </trkpt>
      <trkpt lat="50.45653" lon="5.34338">
        <ele>297.2</ele>
        <time>2013-01-19T13:03:00Z</time>
      </trkpt>
      <trkpt lat="50.45672" lon="5.34312">
        <ele>297.6</ele>
        <time>2013-01-19T13:03:07Z</time>
      </trkpt>
      <trkpt lat="50.4568" lon="5.34301">
        <ele>299.1</ele>
        <time>2013-01-19T13:03:11Z</time>
      </trkpt>
      <trkpt lat="50.45697" lon="5.3428">
        <ele>299.8</ele>
        <time>2013-01-19T13:03:19Z</time>
      </trkpt>
      <trkpt lat="50.45715" lon="5.34259">
        <ele>302</ele>
        <time>2013-01-19T13:03:28Z</time>
      </trkpt>
      <trkpt lat="50.45733" lon="5.34237">
        <ele>301.7</ele>
        <time>2013-01-19T13:03:37Z</time>
      </trkpt>
      <trkpt lat="50.45746" lon="5.3422">
        <ele>303.2</ele>
        <time>2013-01-19T13:03:45Z</time>
      </trkpt>
      <trkpt lat="50.4576" lon="5.34204">
        <ele>306.4</ele>
        <time>2013-01-19T13:03:53Z</time>
      </trkpt>
      <trkpt lat="50.45771" lon="5.34191">
        <ele>308.2</ele>
        <time>2013-01-19T13:03:59Z</time>
      </trkpt>
      <trkpt lat="50.45782" lon="5.34177">
        <ele>309.2</ele>
        <time>2013-01-19T13:04:06Z</time>
      </trkpt>
      <trkpt lat="50.45797" lon="5.34157">
        <ele>313.2</ele>
        <time>2013-01-19T13:04:16Z</time>
      </trkpt>
      <trkpt lat="50.45817" lon="5.34135">
        <ele>315</ele>
        <time>2013-01-19T13:04:27Z</time>
      </trkpt>
      <trkpt lat="50.45836" lon="5.34114">
        <ele>316.1</ele>
        <time>2013-01-19T13:04:39Z</time>
      </trkpt>
      <trkpt lat="50.45859" lon="5.34089">
        <ele>319.1</ele>
        <time>2013-01-19T13:04:51Z</time>
      </trkpt>
      <trkpt lat="50.45872" lon="5.34073">
        <ele>320.4</ele>
        <time>2013-01-19T13:05:00Z</time>
      </trkpt>
      <trkpt lat="50.45892" lon="5.34046">
        <ele>321.1</ele>
        <time>2013-01-19T13:05:10Z</time>
      </trkpt>
      <trkpt lat="50.45905" lon="5.34024">
        <ele>322.4</ele>
        <time>2013-01-19T13:05:18Z</time>
      </trkpt>
      <trkpt lat="50.45917" lon="5.33998">
        <ele>322.2</ele>
        <time>2013-01-19T13:05:26Z</time>
      </trkpt>
      <trkpt lat="50.45939" lon="5.33972">
        <ele>323</ele>
        <time>2013-01-19T13:05:33Z</time>
      </trkpt>
      <trkpt lat="50.45975" lon="5.33943">
        <ele>323.3</ele>
        <time>2013-01-19T13:05:38Z</time>
      </trkpt>
      <trkpt lat="50.45998" lon="5.33928">
        <ele>323</ele>
        <time>2013-01-19T13:05:43Z</time>
      </trkpt>
      <trkpt lat="50.46046" lon="5.33902">
        <ele>321.4</ele>
        <time>2013-01-19T13:05:48Z</time>
      </trkpt>
      <trkpt lat="50.46073" lon="5.33887">
        <ele>318.3</ele>
        <time>2013-01-19T13:05:52Z</time>
      </trkpt>
      <trkpt lat="50.4611" lon="5.33863">
        <ele>315.5</ele>
        <time>2013-01-19T13:05:56Z</time>
      </trkpt>
      <trkpt lat="50.46166" lon="5.33819">
        <ele>312.8</ele>
        <time>2013-01-19T13:06:02Z</time>
      </trkpt>
      <trkpt lat="50.46212" lon="5.33789">
        <ele>310.8</ele>
        <time>2013-01-19T13:06:07Z</time>
      </trkpt>
      <trkpt lat="50.46262" lon="5.33758">
        <ele>308</ele>
        <time>2013-01-19T13:06:13Z</time>
      </trkpt>
      <trkpt lat="50.46286" lon="5.33741">
        <ele>308.3</ele>
        <time>2013-01-19T13:06:15Z</time>
      </trkpt>
      <trkpt lat="50.46301" lon="5.33731">
        <ele>307.7</ele>
        <time>2013-01-19T13:06:19Z</time>
      </trkpt>
      <trkpt lat="50.46332" lon="5.33711">
        <ele>307.1</ele>
        <time>2013-01-19T13:06:24Z</time>
      </trkpt>
      <trkpt lat="50.46353" lon="5.337">
        <ele>305.9</ele>
        <time>2013-01-19T13:06:30Z</time>
      </trkpt>
      <trkpt lat="50.4637" lon="5.33689">
        <ele>304.5</ele>
        <time>2013-01-19T13:06:37Z</time>
      </trkpt>
      <trkpt lat="50.46393" lon="5.33673">
        <ele>303.6</ele>
        <time>2013-01-19T13:06:46Z</time>
      </trkpt>
      <trkpt lat="50.46409" lon="5.33662">
        <ele>304.2</ele>
        <time>2013-01-19T13:06:51Z</time>
      </trkpt>
      <trkpt lat="50.46429" lon="5.33651">
        <ele>302.5</ele>
        <time>2013-01-19T13:06:58Z</time>
      </trkpt>
      <trkpt lat="50.46444" lon="5.33641">
        <ele>301.9</ele>
        <time>2013-01-19T13:07:07Z</time>
      </trkpt>
      <trkpt lat="50.46444" lon="5.33641">
        <ele>301.9</ele>
        <time>2013-01-19T13:07:15Z</time>
      </trkpt>
      <trkpt lat="50.46444" lon="5.33641">
        <ele>261.1</ele>
        <time>2013-01-19T13:07:15Z</time>
      </trkpt>
      <trkpt lat="50.46457" lon="5.33634">
        <ele>304.2</ele>
        <time>2013-01-19T13:09:12Z</time>
      </trkpt>
      <trkpt lat="50.46457" lon="5.33634">
        <ele>261.9</ele>
        <time>2013-01-19T13:09:12Z</time>
      </trkpt>
      <trkpt lat="50.46483" lon="5.33619">
        <ele>306.1</ele>
        <time>2013-01-19T13:09:19Z</time>
      </trkpt>
      <trkpt lat="50.46507" lon="5.33612">
        <ele>304.4</ele>
        <time>2013-01-19T13:09:24Z</time>
      </trkpt>
      <trkpt lat="50.46531" lon="5.33601">
        <ele>305.1</ele>
        <time>2013-01-19T13:09:32Z</time>
      </trkpt>
      <trkpt lat="50.46554" lon="5.33582">
        <ele>307.4</ele>
        <time>2013-01-19T13:09:39Z</time>
      </trkpt>
      <trkpt lat="50.46575" lon="5.33564">
        <ele>306.4</ele>
        <time>2013-01-19T13:09:45Z</time>
      </trkpt>
      <trkpt lat="50.4659" lon="5.33548">
        <ele>308.1</ele>
        <time>2013-01-19T13:09:50Z</time>
      </trkpt>
      <trkpt lat="50.46606" lon="5.33525">
        <ele>309.1</ele>
        <time>2013-01-19T13:09:58Z</time>
      </trkpt>
      <trkpt lat="50.46615" lon="5.33494">
        <ele>312.1</ele>
        <time>2013-01-19T13:10:07Z</time>
      </trkpt>
      <trkpt lat="50.46621" lon="5.33466">
        <ele>311.1</ele>
        <time>2013-01-19T13:10:15Z</time>
      </trkpt>
      <trkpt lat="50.4663" lon="5.3343">
        <ele>311.6</ele>
        <time>2013-01-19T13:10:24Z</time>
      </trkpt>
      <trkpt lat="50.46641" lon="5.33404">
        <ele>313.6</ele>
        <time>2013-01-19T13:10:33Z</time>
      </trkpt>
      <trkpt lat="50.46653" lon="5.33387">
        <ele>316.3</ele>
        <time>2013-01-19T13:10:41Z</time>
      </trkpt>
      <trkpt lat="50.46671" lon="5.33376">
        <ele>314.2</ele>
        <time>2013-01-19T13:10:48Z</time>
      </trkpt>
      <trkpt lat="50.46682" lon="5.33366">
        <ele>314.8</ele>
        <time>2013-01-19T13:10:53Z</time>
      </trkpt>
      <trkpt lat="50.46698" lon="5.33346">
        <ele>314.9</ele>
        <time>2013-01-19T13:11:02Z</time>
      </trkpt>
      <trkpt lat="50.46718" lon="5.33326">
        <ele>316.6</ele>
        <time>2013-01-19T13:11:12Z</time>
      </trkpt>
      <trkpt lat="50.46745" lon="5.33309">
        <ele>318.8</ele>
        <time>2013-01-19T13:11:19Z</time>
      </trkpt>
      <trkpt lat="50.46784" lon="5.33294">
        <ele>318.6</ele>
        <time>2013-01-19T13:11:24Z</time>
      </trkpt>
      <trkpt lat="50.46834" lon="5.33273">
        <ele>319.6</ele>
        <time>2013-01-19T13:11:30Z</time>
      </trkpt>
      <trkpt lat="50.46894" lon="5.33256">
        <ele>315.8</ele>
        <time>2013-01-19T13:11:36Z</time>
      </trkpt>
      <trkpt lat="50.46936" lon="5.3325">
        <ele>315</ele>
        <time>2013-01-19T13:11:41Z</time>
      </trkpt>
      <trkpt lat="50.46987" lon="5.33238">
        <ele>312.8</ele>
        <time>2013-01-19T13:11:48Z</time>
      </trkpt>
      <trkpt lat="50.47028" lon="5.3323">
        <ele>311.5</ele>
        <time>2013-01-19T13:11:54Z</time>
      </trkpt>
      <trkpt lat="50.47071" lon="5.33219">
        <ele>310.9</ele>
        <time>2013-01-19T13:12:00Z</time>
      </trkpt>
      <trkpt lat="50.47108" lon="5.33212">
        <ele>312.5</ele>
        <time>2013-01-19T13:12:06Z</time>
      </trkpt>
      <trkpt lat="50.47124" lon="5.33209">
        <ele>312.1</ele>
        <time>2013-01-19T13:12:09Z</time>
      </trkpt>
      <trkpt lat="50.47146" lon="5.33206">
        <ele>312.1</ele>
        <time>2013-01-19T13:12:13Z</time>
      </trkpt>
      <trkpt lat="50.47172" lon="5.33197">
        <ele>313.3</ele>
        <time>2013-01-19T13:12:18Z</time>
      </trkpt>
      <trkpt lat="50.47196" lon="5.33185">
        <ele>312.9</ele>
        <time>2013-01-19T13:12:23Z</time>
      </trkpt>
      <trkpt lat="50.47221" lon="5.33174">
        <ele>311.7</ele>
        <time>2013-01-19T13:12:28Z</time>
      </trkpt>
      <trkpt lat="50.47249" lon="5.3316">
        <ele>310.6</ele>
        <time>2013-01-19T13:12:34Z</time>
      </trkpt>
      <trkpt lat="50.47263" lon="5.33153">
        <ele>309.7</ele>
        <time>2013-01-19T13:12:37Z</time>
      </trkpt>
      <trkpt lat="50.47293" lon="5.33142">
        <ele>309.6</ele>
        <time>2013-01-19T13:12:43Z</time>
      </trkpt>
      <trkpt lat="50.47319" lon="5.33131">
        <ele>309.5</ele>
        <time>2013-01-19T13:12:49Z</time>
      </trkpt>
      <trkpt lat="50.4735" lon="5.33121">
        <ele>308.5</ele>
        <time>2013-01-19T13:12:56Z</time>
      </trkpt>
      <trkpt lat="50.47382" lon="5.33111">
        <ele>307.6</ele>
        <time>2013-01-19T13:13:03Z</time>
      </trkpt>
      <trkpt lat="50.47402" lon="5.33105">
        <ele>306.4</ele>
        <time>2013-01-19T13:13:08Z</time>
      </trkpt>
      <trkpt lat="50.47422" lon="5.33099">
        <ele>306.3</ele>
        <time>2013-01-19T13:13:13Z</time>
      </trkpt>
      <trkpt lat="50.47439" lon="5.33094">
        <ele>308.2</ele>
        <time>2013-01-19T13:13:17Z</time>
      </trkpt>
      <trkpt lat="50.47456" lon="5.33091">
        <ele>308.5</ele>
        <time>2013-01-19T13:13:21Z</time>
      </trkpt>
      <trkpt lat="50.4748" lon="5.33083">
        <ele>309.3</ele>
        <time>2013-01-19T13:13:27Z</time>
      </trkpt>
      <trkpt lat="50.47507" lon="5.33075">
        <ele>308.8</ele>
        <time>2013-01-19T13:13:34Z</time>
      </trkpt>
      <trkpt lat="50.47518" lon="5.33071">
        <ele>307.3</ele>
        <time>2013-01-19T13:13:37Z</time>
      </trkpt>
      <trkpt lat="50.47529" lon="5.33067">
        <ele>307.6</ele>
        <time>2013-01-19T13:13:40Z</time>
      </trkpt>
      <trkpt lat="50.47545" lon="5.3306">
        <ele>309.3</ele>
        <time>2013-01-19T13:13:45Z</time>
      </trkpt>
      <trkpt lat="50.47555" lon="5.33056">
        <ele>309.5</ele>
        <time>2013-01-19T13:13:48Z</time>
      </trkpt>
      <trkpt lat="50.47579" lon="5.33043">
        <ele>309.7</ele>
        <time>2013-01-19T13:13:55Z</time>
      </trkpt>
      <trkpt lat="50.47597" lon="5.33034">
        <ele>310</ele>
        <time>2013-01-19T13:14:02Z</time>
      </trkpt>
      <trkpt lat="50.47608" lon="5.33033">
        <ele>309.2</ele>
        <time>2013-01-19T13:14:06Z</time>
      </trkpt>
      <trkpt lat="50.4762" lon="5.33029">
        <ele>309.5</ele>
        <time>2013-01-19T13:14:10Z</time>
      </trkpt>
      <trkpt lat="50.47646" lon="5.33018">
        <ele>310.1</ele>
        <time>2013-01-19T13:14:17Z</time>
      </trkpt>
      <trkpt lat="50.47658" lon="5.33015">
        <ele>310.2</ele>
        <time>2013-01-19T13:14:20Z</time>
      </trkpt>
      <trkpt lat="50.47683" lon="5.33009">
        <ele>309.6</ele>
        <time>2013-01-19T13:14:28Z</time>
      </trkpt>
      <trkpt lat="50.47714" lon="5.33003">
        <ele>310.9</ele>
        <time>2013-01-19T13:14:35Z</time>
      </trkpt>
      <trkpt lat="50.47728" lon="5.32999">
        <ele>311.1</ele>
        <time>2013-01-19T13:14:38Z</time>
      </trkpt>
      <trkpt lat="50.47767" lon="5.32989">
        <ele>312.7</ele>
        <time>2013-01-19T13:14:44Z</time>
      </trkpt>
      <trkpt lat="50.47794" lon="5.32976">
        <ele>312.9</ele>
        <time>2013-01-19T13:14:48Z</time>
      </trkpt>
      <trkpt lat="50.47817" lon="5.32972">
        <ele>312.7</ele>
        <time>2013-01-19T13:14:51Z</time>
      </trkpt>
      <trkpt lat="50.47857" lon="5.32961">
        <ele>312.8</ele>
        <time>2013-01-19T13:14:56Z</time>
      </trkpt>
      <trkpt lat="50.47911" lon="5.3294">
        <ele>311.9</ele>
        <time>2013-01-19T13:15:02Z</time>
      </trkpt>
      <trkpt lat="50.47951" lon="5.32927">
        <ele>308.9</ele>
        <time>2013-01-19T13:15:08Z</time>
      </trkpt>
      <trkpt lat="50.47972" lon="5.3292">
        <ele>308.8</ele>
        <time>2013-01-19T13:15:14Z</time>
      </trkpt>
      <trkpt lat="50.47989" lon="5.32913">
        <ele>308.3</ele>
        <time>2013-01-19T13:15:20Z</time>
      </trkpt>
      <trkpt lat="50.4802" lon="5.32903">
        <ele>307.9</ele>
        <time>2013-01-19T13:15:25Z</time>
      </trkpt>
      <trkpt lat="50.48059" lon="5.32891">
        <ele>304</ele>
        <time>2013-01-19T13:15:31Z</time>
      </trkpt>
      <trkpt lat="50.48102" lon="5.32878">
        <ele>301</ele>
        <time>2013-01-19T13:15:37Z</time>
      </trkpt>
      <trkpt lat="50.48123" lon="5.32871">
        <ele>299.3</ele>
        <time>2013-01-19T13:15:40Z</time>
      </trkpt>
      <trkpt lat="50.48167" lon="5.32855">
        <ele>298.8</ele>
        <time>2013-01-19T13:15:46Z</time>
      </trkpt>
      <trkpt lat="50.48186" lon="5.32849">
        <ele>299.1</ele>
        <time>2013-01-19T13:15:49Z</time>
      </trkpt>
      <trkpt lat="50.48202" lon="5.32841">
        <ele>298.3</ele>
        <time>2013-01-19T13:15:52Z</time>
      </trkpt>
      <trkpt lat="50.48218" lon="5.32837">
        <ele>297.9</ele>
        <time>2013-01-19T13:15:55Z</time>
      </trkpt>
      <trkpt lat="50.48248" lon="5.32826">
        <ele>297.7</ele>
        <time>2013-01-19T13:16:01Z</time>
      </trkpt>
      <trkpt lat="50.48276" lon="5.32817">
        <ele>296.2</ele>
        <time>2013-01-19T13:16:06Z</time>
      </trkpt>
      <trkpt lat="50.48303" lon="5.32809">
        <ele>294.4</ele>
        <time>2013-01-19T13:16:11Z</time>
      </trkpt>
      <trkpt lat="50.4833" lon="5.32799">
        <ele>294.9</ele>
        <time>2013-01-19T13:16:16Z</time>
      </trkpt>
      <trkpt lat="50.48369" lon="5.32786">
        <ele>294.5</ele>
        <time>2013-01-19T13:16:22Z</time>
      </trkpt>
      <trkpt lat="50.48402" lon="5.32776">
        <ele>294.8</ele>
        <time>2013-01-19T13:16:27Z</time>
      </trkpt>
      <trkpt lat="50.48445" lon="5.32763">
        <ele>293.2</ele>
        <time>2013-01-19T13:16:33Z</time>
      </trkpt>
      <trkpt lat="50.48463" lon="5.32753">
        <ele>293.4</ele>
        <time>2013-01-19T13:16:36Z</time>
      </trkpt>
      <trkpt lat="50.48484" lon="5.32749">
        <ele>293.8</ele>
        <time>2013-01-19T13:16:39Z</time>
      </trkpt>
      <trkpt lat="50.4852" lon="5.32737">
        <ele>291.7</ele>
        <time>2013-01-19T13:16:45Z</time>
      </trkpt>
      <trkpt lat="50.48538" lon="5.32732">
        <ele>290.7</ele>
        <time>2013-01-19T13:16:48Z</time>
      </trkpt>
      <trkpt lat="50.48556" lon="5.32725">
        <ele>290.3</ele>
        <time>2013-01-19T13:16:51Z</time>
      </trkpt>
      <trkpt lat="50.48572" lon="5.32719">
        <ele>290.2</ele>
        <time>2013-01-19T13:16:54Z</time>
      </trkpt>
      <trkpt lat="50.48593" lon="5.3271">
        <ele>289.4</ele>
        <time>2013-01-19T13:16:58Z</time>
      </trkpt>
      <trkpt lat="50.48619" lon="5.32702">
        <ele>288.6</ele>
        <time>2013-01-19T13:17:03Z</time>
      </trkpt>
      <trkpt lat="50.48647" lon="5.32694">
        <ele>287.3</ele>
        <time>2013-01-19T13:17:08Z</time>
      </trkpt>
      <trkpt lat="50.48679" lon="5.32682">
        <ele>286.5</ele>
        <time>2013-01-19T13:17:14Z</time>
      </trkpt>
      <trkpt lat="50.48695" lon="5.32677">
        <ele>286.2</ele>
        <time>2013-01-19T13:17:17Z</time>
      </trkpt>
      <trkpt lat="50.48715" lon="5.32673">
        <ele>285.5</ele>
        <time>2013-01-19T13:17:21Z</time>
      </trkpt>
      <trkpt lat="50.48732" lon="5.32665">
        <ele>285.6</ele>
        <time>2013-01-19T13:17:26Z</time>
      </trkpt>
      <trkpt lat="50.48744" lon="5.32666">
        <ele>286.6</ele>
        <time>2013-01-19T13:17:31Z</time>
      </trkpt>
      <trkpt lat="50.48773" lon="5.32661">
        <ele>287.3</ele>
        <time>2013-01-19T13:17:41Z</time>
      </trkpt>
      <trkpt lat="50.48785" lon="5.32655">
        <ele>287.5</ele>
        <time>2013-01-19T13:17:44Z</time>
      </trkpt>
      <trkpt lat="50.48804" lon="5.32642">
        <ele>287.1</ele>
        <time>2013-01-19T13:17:50Z</time>
      </trkpt>
      <trkpt lat="50.48815" lon="5.32637">
        <ele>287.6</ele>
        <time>2013-01-19T13:17:54Z</time>
      </trkpt>
      <trkpt lat="50.48842" lon="5.32628">
        <ele>288.7</ele>
        <time>2013-01-19T13:18:02Z</time>
      </trkpt>
      <trkpt lat="50.48858" lon="5.32624">
        <ele>288.8</ele>
        <time>2013-01-19T13:18:06Z</time>
      </trkpt>
      <trkpt lat="50.4888" lon="5.32619">
        <ele>289.9</ele>
        <time>2013-01-19T13:18:13Z</time>
      </trkpt>
      <trkpt lat="50.48893" lon="5.32617">
        <ele>291.4</ele>
        <time>2013-01-19T13:18:18Z</time>
      </trkpt>
      <trkpt lat="50.48911" lon="5.32606">
        <ele>291.4</ele>
        <time>2013-01-19T13:18:28Z</time>
      </trkpt>
      <trkpt lat="50.48925" lon="5.32601">
        <ele>292.4</ele>
        <time>2013-01-19T13:18:43Z</time>
      </trkpt>
      <trkpt lat="50.48965" lon="5.32606">
        <ele>291.8</ele>
        <time>2013-01-19T13:18:59Z</time>
      </trkpt>
      <trkpt lat="50.48984" lon="5.3262">
        <ele>290.4</ele>
        <time>2013-01-19T13:19:08Z</time>
      </trkpt>
      <trkpt lat="50.49008" lon="5.32633">
        <ele>290.4</ele>
        <time>2013-01-19T13:19:17Z</time>
      </trkpt>
      <trkpt lat="50.49015" lon="5.32658">
        <ele>291.9</ele>
        <time>2013-01-19T13:19:23Z</time>
      </trkpt>
      <trkpt lat="50.49025" lon="5.32667">
        <ele>293.3</ele>
        <time>2013-01-19T13:19:32Z</time>
      </trkpt>
      <trkpt lat="50.49049" lon="5.32639">
        <ele>293.1</ele>
        <time>2013-01-19T13:19:44Z</time>
      </trkpt>
      <trkpt lat="50.49067" lon="5.32624">
        <ele>295.5</ele>
        <time>2013-01-19T13:19:51Z</time>
      </trkpt>
      <trkpt lat="50.4908" lon="5.32606">
        <ele>296.4</ele>
        <time>2013-01-19T13:19:59Z</time>
      </trkpt>
      <trkpt lat="50.49098" lon="5.32584">
        <ele>296.8</ele>
        <time>2013-01-19T13:20:09Z</time>
      </trkpt>
      <trkpt lat="50.49112" lon="5.32568">
        <ele>296.2</ele>
        <time>2013-01-19T13:20:16Z</time>
      </trkpt>
      <trkpt lat="50.49135" lon="5.32555">
        <ele>302.2</ele>
        <time>2013-01-19T13:20:25Z</time>
      </trkpt>
      <trkpt lat="50.49146" lon="5.3254">
        <ele>304.6</ele>
        <time>2013-01-19T13:20:31Z</time>
      </trkpt>
      <trkpt lat="50.49168" lon="5.32526">
        <ele>305.4</ele>
        <time>2013-01-19T13:20:39Z</time>
      </trkpt>
      <trkpt lat="50.49191" lon="5.32517">
        <ele>305</ele>
        <time>2013-01-19T13:20:45Z</time>
      </trkpt>
      <trkpt lat="50.49224" lon="5.325">
        <ele>304.7</ele>
        <time>2013-01-19T13:20:50Z</time>
      </trkpt>
      <trkpt lat="50.49273" lon="5.32472">
        <ele>304.5</ele>
        <time>2013-01-19T13:20:56Z</time>
      </trkpt>
      <trkpt lat="50.49334" lon="5.32466">
        <ele>300.8</ele>
        <time>2013-01-19T13:21:02Z</time>
      </trkpt>
      <trkpt lat="50.49383" lon="5.32481">
        <ele>301.2</ele>
        <time>2013-01-19T13:21:07Z</time>
      </trkpt>
      <trkpt lat="50.49426" lon="5.32491">
        <ele>300.1</ele>
        <time>2013-01-19T13:21:13Z</time>
      </trkpt>
      <trkpt lat="50.49454" lon="5.32494">
        <ele>298.8</ele>
        <time>2013-01-19T13:21:17Z</time>
      </trkpt>
      <trkpt lat="50.49474" lon="5.32499">
        <ele>299.1</ele>
        <time>2013-01-19T13:21:20Z</time>
      </trkpt>
      <trkpt lat="50.49494" lon="5.32502">
        <ele>299</ele>
        <time>2013-01-19T13:21:23Z</time>
      </trkpt>
      <trkpt lat="50.49526" lon="5.32508">
        <ele>299.9</ele>
        <time>2013-01-19T13:21:28Z</time>
      </trkpt>
      <trkpt lat="50.49557" lon="5.32513">
        <ele>298.5</ele>
        <time>2013-01-19T13:21:33Z</time>
      </trkpt>
      <trkpt lat="50.496" lon="5.32519">
        <ele>297.8</ele>
        <time>2013-01-19T13:21:39Z</time>
      </trkpt>
      <trkpt lat="50.4965" lon="5.32526">
        <ele>297.8</ele>
        <time>2013-01-19T13:21:46Z</time>
      </trkpt>
      <trkpt lat="50.49687" lon="5.32525">
        <ele>296.3</ele>
        <time>2013-01-19T13:21:51Z</time>
      </trkpt>
      <trkpt lat="50.4971" lon="5.3253">
        <ele>296</ele>
        <time>2013-01-19T13:21:54Z</time>
      </trkpt>
      <trkpt lat="50.4977" lon="5.32538">
        <ele>294.3</ele>
        <time>2013-01-19T13:22:01Z</time>
      </trkpt>
      <trkpt lat="50.49814" lon="5.32545">
        <ele>293</ele>
        <time>2013-01-19T13:22:06Z</time>
      </trkpt>
      <trkpt lat="50.49839" lon="5.32551">
        <ele>289.9</ele>
        <time>2013-01-19T13:22:09Z</time>
      </trkpt>
      <trkpt lat="50.49882" lon="5.3256">
        <ele>288.6</ele>
        <time>2013-01-19T13:22:14Z</time>
      </trkpt>
      <trkpt lat="50.49928" lon="5.32568">
        <ele>286.4</ele>
        <time>2013-01-19T13:22:20Z</time>
      </trkpt>
      <trkpt lat="50.49968" lon="5.32577">
        <ele>285.6</ele>
        <time>2013-01-19T13:22:26Z</time>
      </trkpt>
      <trkpt lat="50.50001" lon="5.32582">
        <ele>285.7</ele>
        <time>2013-01-19T13:22:32Z</time>
      </trkpt>
      <trkpt lat="50.5003" lon="5.32592">
        <ele>282.6</ele>
        <time>2013-01-19T13:22:38Z</time>
      </trkpt>
      <trkpt lat="50.50057" lon="5.32592">
        <ele>282.2</ele>
        <time>2013-01-19T13:22:45Z</time>
      </trkpt>
      <trkpt lat="50.5008" lon="5.32596">
        <ele>282.7</ele>
        <time>2013-01-19T13:22:51Z</time>
      </trkpt>
      <trkpt lat="50.50092" lon="5.32599">
        <ele>282.6</ele>
        <time>2013-01-19T13:22:54Z</time>
      </trkpt>
      <trkpt lat="50.50113" lon="5.32602">
        <ele>283.1</ele>
        <time>2013-01-19T13:23:00Z</time>
      </trkpt>
      <trkpt lat="50.50135" lon="5.32603">
        <ele>284.7</ele>
        <time>2013-01-19T13:23:06Z</time>
      </trkpt>
      <trkpt lat="50.50159" lon="5.32603">
        <ele>285.4</ele>
        <time>2013-01-19T13:23:12Z</time>
      </trkpt>
      <trkpt lat="50.50189" lon="5.32604">
        <ele>286.9</ele>
        <time>2013-01-19T13:23:19Z</time>
      </trkpt>
      <trkpt lat="50.50216" lon="5.326">
        <ele>286.4</ele>
        <time>2013-01-19T13:23:24Z</time>
      </trkpt>
      <trkpt lat="50.50243" lon="5.32596">
        <ele>285.5</ele>
        <time>2013-01-19T13:23:29Z</time>
      </trkpt>
      <trkpt lat="50.5028" lon="5.32593">
        <ele>284.3</ele>
        <time>2013-01-19T13:23:35Z</time>
      </trkpt>
      <trkpt lat="50.50324" lon="5.32606">
        <ele>282.4</ele>
        <time>2013-01-19T13:23:40Z</time>
      </trkpt>
      <trkpt lat="50.50381" lon="5.32629">
        <ele>281.4</ele>
        <time>2013-01-19T13:23:46Z</time>
      </trkpt>
      <trkpt lat="50.50418" lon="5.32643">
        <ele>280.3</ele>
        <time>2013-01-19T13:23:49Z</time>
      </trkpt>
      <trkpt lat="50.50452" lon="5.32661">
        <ele>277.5</ele>
        <time>2013-01-19T13:23:52Z</time>
      </trkpt>
      <trkpt lat="50.505" lon="5.32683">
        <ele>276.9</ele>
        <time>2013-01-19T13:23:57Z</time>
      </trkpt>
      <trkpt lat="50.5052" lon="5.32663">
        <ele>272.7</ele>
        <time>2013-01-19T13:24:03Z</time>
      </trkpt>
      <trkpt lat="50.50524" lon="5.32633">
        <ele>270</ele>
        <time>2013-01-19T13:24:08Z</time>
      </trkpt>
      <trkpt lat="50.50528" lon="5.326">
        <ele>270.2</ele>
        <time>2013-01-19T13:24:14Z</time>
      </trkpt>
      <trkpt lat="50.50532" lon="5.32563">
        <ele>268.7</ele>
        <time>2013-01-19T13:24:21Z</time>
      </trkpt>
      <trkpt lat="50.50536" lon="5.32533">
        <ele>268.2</ele>
        <time>2013-01-19T13:24:28Z</time>
      </trkpt>
      <trkpt lat="50.50546" lon="5.32502">
        <ele>269.4</ele>
        <time>2013-01-19T13:24:37Z</time>
      </trkpt>
      <trkpt lat="50.50559" lon="5.32479">
        <ele>270.4</ele>
        <time>2013-01-19T13:24:47Z</time>
      </trkpt>
      <trkpt lat="50.50575" lon="5.32491">
        <ele>269.9</ele>
        <time>2013-01-19T13:24:53Z</time>
      </trkpt>
      <trkpt lat="50.50594" lon="5.32534">
        <ele>268.3</ele>
        <time>2013-01-19T13:24:59Z</time>
      </trkpt>
      <trkpt lat="50.50602" lon="5.3256">
        <ele>266.7</ele>
        <time>2013-01-19T13:25:02Z</time>
      </trkpt>
      <trkpt lat="50.5062" lon="5.32602">
        <ele>266.5</ele>
        <time>2013-01-19T13:25:08Z</time>
      </trkpt>
      <trkpt lat="50.50629" lon="5.32627">
        <ele>267.7</ele>
        <time>2013-01-19T13:25:13Z</time>
      </trkpt>
      <trkpt lat="50.50636" lon="5.3265">
        <ele>269.1</ele>
        <time>2013-01-19T13:25:19Z</time>
      </trkpt>
      <trkpt lat="50.50642" lon="5.32669">
        <ele>270.6</ele>
        <time>2013-01-19T13:25:24Z</time>
      </trkpt>
      <trkpt lat="50.50647" lon="5.32687">
        <ele>270.5</ele>
        <time>2013-01-19T13:25:30Z</time>
      </trkpt>
      <trkpt lat="50.50676" lon="5.32686">
        <ele>270.4</ele>
        <time>2013-01-19T13:25:41Z</time>
      </trkpt>
      <trkpt lat="50.50695" lon="5.32684">
        <ele>270.1</ele>
        <time>2013-01-19T13:25:48Z</time>
      </trkpt>
      <trkpt lat="50.50717" lon="5.32683">
        <ele>270.9</ele>
        <time>2013-01-19T13:25:58Z</time>
      </trkpt>
      <trkpt lat="50.50731" lon="5.32679">
        <ele>272</ele>
        <time>2013-01-19T13:26:03Z</time>
      </trkpt>
      <trkpt lat="50.50741" lon="5.32677">
        <ele>274.8</ele>
        <time>2013-01-19T13:26:06Z</time>
      </trkpt>
      <trkpt lat="50.5075" lon="5.32673">
        <ele>274</ele>
        <time>2013-01-19T13:26:09Z</time>
      </trkpt>
      <trkpt lat="50.50775" lon="5.32664">
        <ele>276.8</ele>
        <time>2013-01-19T13:26:17Z</time>
      </trkpt>
      <trkpt lat="50.50791" lon="5.3266">
        <ele>277.9</ele>
        <time>2013-01-19T13:26:23Z</time>
      </trkpt>
      <trkpt lat="50.50815" lon="5.32651">
        <ele>276.4</ele>
        <time>2013-01-19T13:26:32Z</time>
      </trkpt>
      <trkpt lat="50.50844" lon="5.32641">
        <ele>277.9</ele>
        <time>2013-01-19T13:26:41Z</time>
      </trkpt>
      <trkpt lat="50.50869" lon="5.32633">
        <ele>279.4</ele>
        <time>2013-01-19T13:26:48Z</time>
      </trkpt>
      <trkpt lat="50.50891" lon="5.32628">
        <ele>279.2</ele>
        <time>2013-01-19T13:26:54Z</time>
      </trkpt>
      <trkpt lat="50.50913" lon="5.32622">
        <ele>279.8</ele>
        <time>2013-01-19T13:27:00Z</time>
      </trkpt>
      <trkpt lat="50.50923" lon="5.32619">
        <ele>280.5</ele>
        <time>2013-01-19T13:27:03Z</time>
      </trkpt>
      <trkpt lat="50.50946" lon="5.32611">
        <ele>280.8</ele>
        <time>2013-01-19T13:27:10Z</time>
      </trkpt>
      <trkpt lat="50.50964" lon="5.32608">
        <ele>280.4</ele>
        <time>2013-01-19T13:27:16Z</time>
      </trkpt>
      <trkpt lat="50.50972" lon="5.32609">
        <ele>279.7</ele>
        <time>2013-01-19T13:27:19Z</time>
      </trkpt>
      <trkpt lat="50.50996" lon="5.32607">
        <ele>279.1</ele>
        <time>2013-01-19T13:27:28Z</time>
      </trkpt>
      <trkpt lat="50.51021" lon="5.32605">
        <ele>280.3</ele>
        <time>2013-01-19T13:27:36Z</time>
      </trkpt>
      <trkpt lat="50.51043" lon="5.32597">
        <ele>281.8</ele>
        <time>2013-01-19T13:27:43Z</time>
      </trkpt>
      <trkpt lat="50.51066" lon="5.32591">
        <ele>284.6</ele>
        <time>2013-01-19T13:27:50Z</time>
      </trkpt>
      <trkpt lat="50.51088" lon="5.32588">
        <ele>287.9</ele>
        <time>2013-01-19T13:27:56Z</time>
      </trkpt>
      <trkpt lat="50.5111" lon="5.32582">
        <ele>289</ele>
        <time>2013-01-19T13:28:02Z</time>
      </trkpt>
      <trkpt lat="50.51139" lon="5.32575">
        <ele>289.5</ele>
        <time>2013-01-19T13:28:09Z</time>
      </trkpt>
      <trkpt lat="50.51157" lon="5.3257">
        <ele>288.1</ele>
        <time>2013-01-19T13:28:14Z</time>
      </trkpt>
      <trkpt lat="50.51176" lon="5.3256">
        <ele>287.5</ele>
        <time>2013-01-19T13:28:20Z</time>
      </trkpt>
      <trkpt lat="50.51202" lon="5.32548">
        <ele>286.9</ele>
        <time>2013-01-19T13:28:26Z</time>
      </trkpt>
      <trkpt lat="50.51232" lon="5.32535">
        <ele>286.8</ele>
        <time>2013-01-19T13:28:32Z</time>
      </trkpt>
      <trkpt lat="50.51269" lon="5.3253">
        <ele>285.2</ele>
        <time>2013-01-19T13:28:39Z</time>
      </trkpt>
      <trkpt lat="50.51298" lon="5.32522">
        <ele>286</ele>
        <time>2013-01-19T13:28:44Z</time>
      </trkpt>
      <trkpt lat="50.5132" lon="5.32514">
        <ele>286</ele>
        <time>2013-01-19T13:28:49Z</time>
      </trkpt>
      <trkpt lat="50.51349" lon="5.32505">
        <ele>286</ele>
        <time>2013-01-19T13:28:54Z</time>
      </trkpt>
      <trkpt lat="50.51379" lon="5.32495">
        <ele>285.2</ele>
        <time>2013-01-19T13:28:59Z</time>
      </trkpt>
      <trkpt lat="50.51422" lon="5.32477">
        <ele>284.3</ele>
        <time>2013-01-19T13:29:05Z</time>
      </trkpt>
      <trkpt lat="50.51472" lon="5.32467">
        <ele>284.6</ele>
        <time>2013-01-19T13:29:11Z</time>
      </trkpt>
      <trkpt lat="50.51497" lon="5.3246">
        <ele>283.9</ele>
        <time>2013-01-19T13:29:14Z</time>
      </trkpt>
      <trkpt lat="50.51538" lon="5.32446">
        <ele>281.6</ele>
        <time>2013-01-19T13:29:19Z</time>
      </trkpt>
      <trkpt lat="50.51586" lon="5.32427">
        <ele>280.1</ele>
        <time>2013-01-19T13:29:25Z</time>
      </trkpt>
      <trkpt lat="50.51626" lon="5.32411">
        <ele>280.9</ele>
        <time>2013-01-19T13:29:31Z</time>
      </trkpt>
      <trkpt lat="50.51658" lon="5.32397">
        <ele>280.3</ele>
        <time>2013-01-19T13:29:36Z</time>
      </trkpt>
      <trkpt lat="50.51686" lon="5.32383">
        <ele>280.4</ele>
        <time>2013-01-19T13:29:41Z</time>
      </trkpt>
      <trkpt lat="50.51704" lon="5.32343">
        <ele>280.1</ele>
        <time>2013-01-19T13:29:47Z</time>
      </trkpt>
      <trkpt lat="50.51703" lon="5.32314">
        <ele>279.7</ele>
        <time>2013-01-19T13:29:52Z</time>
      </trkpt>
      <trkpt lat="50.51705" lon="5.32278">
        <ele>279.5</ele>
        <time>2013-01-19T13:29:58Z</time>
      </trkpt>
      <trkpt lat="50.51707" lon="5.32238">
        <ele>279.3</ele>
        <time>2013-01-19T13:30:04Z</time>
      </trkpt>
      <trkpt lat="50.51706" lon="5.32191">
        <ele>277.9</ele>
        <time>2013-01-19T13:30:10Z</time>
      </trkpt>
      <trkpt lat="50.51703" lon="5.3215">
        <ele>277.5</ele>
        <time>2013-01-19T13:30:16Z</time>
      </trkpt>
      <trkpt lat="50.51696" lon="5.32096">
        <ele>276.2</ele>
        <time>2013-01-19T13:30:23Z</time>
      </trkpt>
      <trkpt lat="50.5169" lon="5.3205">
        <ele>275.6</ele>
        <time>2013-01-19T13:30:28Z</time>
      </trkpt>
      <trkpt lat="50.51685" lon="5.31972">
        <ele>275.9</ele>
        <time>2013-01-19T13:30:35Z</time>
      </trkpt>
      <trkpt lat="50.51676" lon="5.319">
        <ele>276.9</ele>
        <time>2013-01-19T13:30:41Z</time>
      </trkpt>
      <trkpt lat="50.51667" lon="5.31846">
        <ele>276.3</ele>
        <time>2013-01-19T13:30:47Z</time>
      </trkpt>
      <trkpt lat="50.51667" lon="5.3178">
        <ele>274.5</ele>
        <time>2013-01-19T13:30:53Z</time>
      </trkpt>
      <trkpt lat="50.51659" lon="5.31683">
        <ele>277.4</ele>
        <time>2013-01-19T13:30:59Z</time>
      </trkpt>
      <trkpt lat="50.51653" lon="5.31615">
        <ele>277.4</ele>
        <time>2013-01-19T13:31:05Z</time>
      </trkpt>
      <trkpt lat="50.51649" lon="5.31584">
        <ele>277</ele>
        <time>2013-01-19T13:31:08Z</time>
      </trkpt>
      <trkpt lat="50.51647" lon="5.31533">
        <ele>276.4</ele>
        <time>2013-01-19T13:31:13Z</time>
      </trkpt>
      <trkpt lat="50.51644" lon="5.31481">
        <ele>275.4</ele>
        <time>2013-01-19T13:31:18Z</time>
      </trkpt>
      <trkpt lat="50.51642" lon="5.31423">
        <ele>274.9</ele>
        <time>2013-01-19T13:31:23Z</time>
      </trkpt>
      <trkpt lat="50.51635" lon="5.31385">
        <ele>272.9</ele>
        <time>2013-01-19T13:31:26Z</time>
      </trkpt>
      <trkpt lat="50.51636" lon="5.3135">
        <ele>272.7</ele>
        <time>2013-01-19T13:31:29Z</time>
      </trkpt>
      <trkpt lat="50.5163" lon="5.31274">
        <ele>272.7</ele>
        <time>2013-01-19T13:31:35Z</time>
      </trkpt>
      <trkpt lat="50.51649" lon="5.31233">
        <ele>272.3</ele>
        <time>2013-01-19T13:31:40Z</time>
      </trkpt>
      <trkpt lat="50.51674" lon="5.3119">
        <ele>273.6</ele>
        <time>2013-01-19T13:31:46Z</time>
      </trkpt>
      <trkpt lat="50.51696" lon="5.31139">
        <ele>273</ele>
        <time>2013-01-19T13:31:52Z</time>
      </trkpt>
      <trkpt lat="50.5172" lon="5.31094">
        <ele>273.9</ele>
        <time>2013-01-19T13:31:58Z</time>
      </trkpt>
      <trkpt lat="50.51739" lon="5.31061">
        <ele>273.5</ele>
        <time>2013-01-19T13:32:03Z</time>
      </trkpt>
      <trkpt lat="50.5177" lon="5.31023">
        <ele>273</ele>
        <time>2013-01-19T13:32:09Z</time>
      </trkpt>
      <trkpt lat="50.51799" lon="5.30987">
        <ele>276.1</ele>
        <time>2013-01-19T13:32:15Z</time>
      </trkpt>
      <trkpt lat="50.51817" lon="5.30968">
        <ele>276.1</ele>
        <time>2013-01-19T13:32:20Z</time>
      </trkpt>
      <trkpt lat="50.51831" lon="5.30946">
        <ele>275.7</ele>
        <time>2013-01-19T13:32:26Z</time>
      </trkpt>
      <trkpt lat="50.5184" lon="5.3093">
        <ele>275.1</ele>
        <time>2013-01-19T13:32:30Z</time>
      </trkpt>
      <trkpt lat="50.51851" lon="5.3091">
        <ele>275.5</ele>
        <time>2013-01-19T13:32:36Z</time>
      </trkpt>
      <trkpt lat="50.51875" lon="5.30885">
        <ele>274.9</ele>
        <time>2013-01-19T13:32:44Z</time>
      </trkpt>
      <trkpt lat="50.51896" lon="5.3087">
        <ele>273.9</ele>
        <time>2013-01-19T13:32:50Z</time>
      </trkpt>
      <trkpt lat="50.51917" lon="5.30852">
        <ele>273.8</ele>
        <time>2013-01-19T13:32:57Z</time>
      </trkpt>
      <trkpt lat="50.51944" lon="5.30829">
        <ele>274.2</ele>
        <time>2013-01-19T13:33:05Z</time>
      </trkpt>
      <trkpt lat="50.51965" lon="5.30801">
        <ele>275.5</ele>
        <time>2013-01-19T13:33:12Z</time>
      </trkpt>
      <trkpt lat="50.51989" lon="5.3076">
        <ele>274.8</ele>
        <time>2013-01-19T13:33:19Z</time>
      </trkpt>
      <trkpt lat="50.52005" lon="5.30738">
        <ele>274.8</ele>
        <time>2013-01-19T13:33:24Z</time>
      </trkpt>
      <trkpt lat="50.52027" lon="5.30712">
        <ele>275.6</ele>
        <time>2013-01-19T13:33:31Z</time>
      </trkpt>
      <trkpt lat="50.52042" lon="5.3069">
        <ele>276.5</ele>
        <time>2013-01-19T13:33:37Z</time>
      </trkpt>
      <trkpt lat="50.52066" lon="5.30673">
        <ele>274.6</ele>
        <time>2013-01-19T13:33:44Z</time>
      </trkpt>
      <trkpt lat="50.52093" lon="5.30647">
        <ele>274.4</ele>
        <time>2013-01-19T13:33:51Z</time>
      </trkpt>
      <trkpt lat="50.52113" lon="5.30629">
        <ele>272.9</ele>
        <time>2013-01-19T13:33:56Z</time>
      </trkpt>
      <trkpt lat="50.5213" lon="5.30613">
        <ele>271.3</ele>
        <time>2013-01-19T13:34:01Z</time>
      </trkpt>
      <trkpt lat="50.52155" lon="5.30591">
        <ele>268.6</ele>
        <time>2013-01-19T13:34:08Z</time>
      </trkpt>
      <trkpt lat="50.52172" lon="5.30575">
        <ele>269.1</ele>
        <time>2013-01-19T13:34:13Z</time>
      </trkpt>
      <trkpt lat="50.52182" lon="5.30544">
        <ele>261.8</ele>
        <time>2013-01-19T13:34:20Z</time>
      </trkpt>
      <trkpt lat="50.52178" lon="5.30522">
        <ele>258.8</ele>
        <time>2013-01-19T13:34:25Z</time>
      </trkpt>
      <trkpt lat="50.52171" lon="5.30502">
        <ele>257</ele>
        <time>2013-01-19T13:34:30Z</time>
      </trkpt>
      <trkpt lat="50.52165" lon="5.30471">
        <ele>255.7</ele>
        <time>2013-01-19T13:34:36Z</time>
      </trkpt>
      <trkpt lat="50.52155" lon="5.30437">
        <ele>254.3</ele>
        <time>2013-01-19T13:34:41Z</time>
      </trkpt>
      <trkpt lat="50.5214" lon="5.30374">
        <ele>253.4</ele>
        <time>2013-01-19T13:34:47Z</time>
      </trkpt>
      <trkpt lat="50.52126" lon="5.30317">
        <ele>252.7</ele>
        <time>2013-01-19T13:34:52Z</time>
      </trkpt>
      <trkpt lat="50.52103" lon="5.30241">
        <ele>250.2</ele>
        <time>2013-01-19T13:34:58Z</time>
      </trkpt>
      <trkpt lat="50.52087" lon="5.30171">
        <ele>247.5</ele>
        <time>2013-01-19T13:35:03Z</time>
      </trkpt>
      <trkpt lat="50.52074" lon="5.30079">
        <ele>241</ele>
        <time>2013-01-19T13:35:09Z</time>
      </trkpt>
      <trkpt lat="50.52076" lon="5.29999">
        <ele>233.1</ele>
        <time>2013-01-19T13:35:15Z</time>
      </trkpt>
      <trkpt lat="50.521" lon="5.29925">
        <ele>227.3</ele>
        <time>2013-01-19T13:35:20Z</time>
      </trkpt>
      <trkpt lat="50.52136" lon="5.2984">
        <ele>223.2</ele>
        <time>2013-01-19T13:35:26Z</time>
      </trkpt>
      <trkpt lat="50.52165" lon="5.29758">
        <ele>220.8</ele>
        <time>2013-01-19T13:35:32Z</time>
      </trkpt>
      <trkpt lat="50.52168" lon="5.29639">
        <ele>219.6</ele>
        <time>2013-01-19T13:35:39Z</time>
      </trkpt>
      <trkpt lat="50.52156" lon="5.29554">
        <ele>218.4</ele>
        <time>2013-01-19T13:35:44Z</time>
      </trkpt>
      <trkpt lat="50.52151" lon="5.29453">
        <ele>215.4</ele>
        <time>2013-01-19T13:35:50Z</time>
      </trkpt>
      <trkpt lat="50.52194" lon="5.2937">
        <ele>209</ele>
        <time>2013-01-19T13:35:56Z</time>
      </trkpt>
      <trkpt lat="50.52241" lon="5.29275">
        <ele>205.2</ele>
        <time>2013-01-19T13:36:03Z</time>
      </trkpt>
      <trkpt lat="50.52274" lon="5.29214">
        <ele>202.1</ele>
        <time>2013-01-19T13:36:08Z</time>
      </trkpt>
      <trkpt lat="50.52302" lon="5.29126">
        <ele>198.2</ele>
        <time>2013-01-19T13:36:14Z</time>
      </trkpt>
      <trkpt lat="50.52324" lon="5.29045">
        <ele>185.2</ele>
        <time>2013-01-19T13:36:20Z</time>
      </trkpt>
      <trkpt lat="50.52346" lon="5.28974">
        <ele>180.8</ele>
        <time>2013-01-19T13:36:25Z</time>
      </trkpt>
      <trkpt lat="50.52374" lon="5.28891">
        <ele>174.9</ele>
        <time>2013-01-19T13:36:31Z</time>
      </trkpt>
      <trkpt lat="50.52405" lon="5.2883">
        <ele>170.6</ele>
        <time>2013-01-19T13:36:36Z</time>
      </trkpt>
      <trkpt lat="50.52424" lon="5.28797">
        <ele>167.9</ele>
        <time>2013-01-19T13:36:39Z</time>
      </trkpt>
      <trkpt lat="50.5245" lon="5.28761">
        <ele>167.4</ele>
        <time>2013-01-19T13:36:43Z</time>
      </trkpt>
      <trkpt lat="50.5249" lon="5.28717">
        <ele>166.3</ele>
        <time>2013-01-19T13:36:49Z</time>
      </trkpt>
      <trkpt lat="50.52526" lon="5.28691">
        <ele>164.4</ele>
        <time>2013-01-19T13:36:54Z</time>
      </trkpt>
      <trkpt lat="50.52569" lon="5.28664">
        <ele>162.1</ele>
        <time>2013-01-19T13:37:00Z</time>
      </trkpt>
      <trkpt lat="50.52613" lon="5.2864">
        <ele>160.7</ele>
        <time>2013-01-19T13:37:06Z</time>
      </trkpt>
      <trkpt lat="50.5266" lon="5.2861">
        <ele>160.2</ele>
        <time>2013-01-19T13:37:12Z</time>
      </trkpt>
      <trkpt lat="50.5271" lon="5.28577">
        <ele>158.7</ele>
        <time>2013-01-19T13:37:18Z</time>
      </trkpt>
      <trkpt lat="50.52756" lon="5.2855">
        <ele>157.7</ele>
        <time>2013-01-19T13:37:23Z</time>
      </trkpt>
      <trkpt lat="50.528" lon="5.2852">
        <ele>154.9</ele>
        <time>2013-01-19T13:37:28Z</time>
      </trkpt>
      <trkpt lat="50.52857" lon="5.28497">
        <ele>151.8</ele>
        <time>2013-01-19T13:37:34Z</time>
      </trkpt>
      <trkpt lat="50.52909" lon="5.28482">
        <ele>149.2</ele>
        <time>2013-01-19T13:37:39Z</time>
      </trkpt>
      <trkpt lat="50.52947" lon="5.28468">
        <ele>146.7</ele>
        <time>2013-01-19T13:37:43Z</time>
      </trkpt>
      <trkpt lat="50.52975" lon="5.28456">
        <ele>146.6</ele>
        <time>2013-01-19T13:37:46Z</time>
      </trkpt>
      <trkpt lat="50.53006" lon="5.28447">
        <ele>145.1</ele>
        <time>2013-01-19T13:37:49Z</time>
      </trkpt>
      <trkpt lat="50.53028" lon="5.28424">
        <ele>142.1</ele>
        <time>2013-01-19T13:37:52Z</time>
      </trkpt>
      <trkpt lat="50.5306" lon="5.28346">
        <ele>136.2</ele>
        <time>2013-01-19T13:37:58Z</time>
      </trkpt>
      <trkpt lat="50.53066" lon="5.28305">
        <ele>133.8</ele>
        <time>2013-01-19T13:38:01Z</time>
      </trkpt>
      <trkpt lat="50.53079" lon="5.28247">
        <ele>131.6</ele>
        <time>2013-01-19T13:38:06Z</time>
      </trkpt>
      <trkpt lat="50.53089" lon="5.28226">
        <ele>130.4</ele>
        <time>2013-01-19T13:38:12Z</time>
      </trkpt>
      <trkpt lat="50.53086" lon="5.28216">
        <ele>127.5</ele>
        <time>2013-01-19T13:38:20Z</time>
      </trkpt>
      <trkpt lat="50.53099" lon="5.28197">
        <ele>126.8</ele>
        <time>2013-01-19T13:38:38Z</time>
      </trkpt>
      <trkpt lat="50.53117" lon="5.28166">
        <ele>124.5</ele>
        <time>2013-01-19T13:38:45Z</time>
      </trkpt>
      <trkpt lat="50.53121" lon="5.28134">
        <ele>124.4</ele>
        <time>2013-01-19T13:38:51Z</time>
      </trkpt>
      <trkpt lat="50.53124" lon="5.28113">
        <ele>124.5</ele>
        <time>2013-01-19T13:38:57Z</time>
      </trkpt>
      <trkpt lat="50.53138" lon="5.28072">
        <ele>124.2</ele>
        <time>2013-01-19T13:39:07Z</time>
      </trkpt>
      <trkpt lat="50.53135" lon="5.28045">
        <ele>124.5</ele>
        <time>2013-01-19T13:39:12Z</time>
      </trkpt>
      <trkpt lat="50.53132" lon="5.28007">
        <ele>127.7</ele>
        <time>2013-01-19T13:39:19Z</time>
      </trkpt>
      <trkpt lat="50.53131" lon="5.27975">
        <ele>127.3</ele>
        <time>2013-01-19T13:39:25Z</time>
      </trkpt>
      <trkpt lat="50.53125" lon="5.27941">
        <ele>125.7</ele>
        <time>2013-01-19T13:39:32Z</time>
      </trkpt>
      <trkpt lat="50.53119" lon="5.27911">
        <ele>125.8</ele>
        <time>2013-01-19T13:39:38Z</time>
      </trkpt>
      <trkpt lat="50.53113" lon="5.27877">
        <ele>125.8</ele>
        <time>2013-01-19T13:39:45Z</time>
      </trkpt>
      <trkpt lat="50.53108" lon="5.27836">
        <ele>125.3</ele>
        <time>2013-01-19T13:39:53Z</time>
      </trkpt>
      <trkpt lat="50.53102" lon="5.27793">
        <ele>125.7</ele>
        <time>2013-01-19T13:40:01Z</time>
      </trkpt>
      <trkpt lat="50.53096" lon="5.27756">
        <ele>125.4</ele>
        <time>2013-01-19T13:40:07Z</time>
      </trkpt>
      <trkpt lat="50.53089" lon="5.27721">
        <ele>126</ele>
        <time>2013-01-19T13:40:12Z</time>
      </trkpt>
      <trkpt lat="50.53081" lon="5.27675">
        <ele>127.1</ele>
        <time>2013-01-19T13:40:19Z</time>
      </trkpt>
      <trkpt lat="50.53077" lon="5.27646">
        <ele>127</ele>
        <time>2013-01-19T13:40:24Z</time>
      </trkpt>
      <trkpt lat="50.53074" lon="5.27621">
        <ele>126.8</ele>
        <time>2013-01-19T13:40:29Z</time>
      </trkpt>
      <trkpt lat="50.53072" lon="5.27575">
        <ele>127.2</ele>
        <time>2013-01-19T13:40:39Z</time>
      </trkpt>
      <trkpt lat="50.53062" lon="5.27523">
        <ele>127.4</ele>
        <time>2013-01-19T13:40:46Z</time>
      </trkpt>
      <trkpt lat="50.53058" lon="5.27489">
        <ele>128.4</ele>
        <time>2013-01-19T13:40:51Z</time>
      </trkpt>
      <trkpt lat="50.53052" lon="5.27452">
        <ele>129.7</ele>
        <time>2013-01-19T13:40:57Z</time>
      </trkpt>
      <trkpt lat="50.53047" lon="5.27401">
        <ele>131.2</ele>
        <time>2013-01-19T13:41:03Z</time>
      </trkpt>
      <trkpt lat="50.53046" lon="5.27371">
        <ele>131.6</ele>
        <time>2013-01-19T13:41:07Z</time>
      </trkpt>
      <trkpt lat="50.53047" lon="5.2735">
        <ele>131</ele>
        <time>2013-01-19T13:41:10Z</time>
      </trkpt>
      <trkpt lat="50.53049" lon="5.27306">
        <ele>130.3</ele>
        <time>2013-01-19T13:41:16Z</time>
      </trkpt>
      <trkpt lat="50.53053" lon="5.27273">
        <ele>130</ele>
        <time>2013-01-19T13:41:21Z</time>
      </trkpt>
      <trkpt lat="50.53056" lon="5.27226">
        <ele>130.6</ele>
        <time>2013-01-19T13:41:27Z</time>
      </trkpt>
      <trkpt lat="50.53057" lon="5.27191">
        <ele>130.5</ele>
        <time>2013-01-19T13:41:31Z</time>
      </trkpt>
      <trkpt lat="50.53059" lon="5.27146">
        <ele>130.9</ele>
        <time>2013-01-19T13:41:37Z</time>
      </trkpt>
      <trkpt lat="50.53065" lon="5.27093">
        <ele>131.4</ele>
        <time>2013-01-19T13:41:43Z</time>
      </trkpt>
      <trkpt lat="50.53068" lon="5.2705">
        <ele>131.3</ele>
        <time>2013-01-19T13:41:48Z</time>
      </trkpt>
      <trkpt lat="50.53078" lon="5.2699">
        <ele>131.4</ele>
        <time>2013-01-19T13:41:54Z</time>
      </trkpt>
      <trkpt lat="50.53082" lon="5.26963">
        <ele>131.3</ele>
        <time>2013-01-19T13:41:57Z</time>
      </trkpt>
      <trkpt lat="50.53099" lon="5.26901">
        <ele>130.6</ele>
        <time>2013-01-19T13:42:03Z</time>
      </trkpt>
      <trkpt lat="50.53108" lon="5.26855">
        <ele>129</ele>
        <time>2013-01-19T13:42:07Z</time>
      </trkpt>
      <trkpt lat="50.53122" lon="5.26791">
        <ele>128</ele>
        <time>2013-01-19T13:42:12Z</time>
      </trkpt>
      <trkpt lat="50.53131" lon="5.26759">
        <ele>127.1</ele>
        <time>2013-01-19T13:42:15Z</time>
      </trkpt>
      <trkpt lat="50.53143" lon="5.26707">
        <ele>126.4</ele>
        <time>2013-01-19T13:42:21Z</time>
      </trkpt>
      <trkpt lat="50.53152" lon="5.26673">
        <ele>125.2</ele>
        <time>2013-01-19T13:42:26Z</time>
      </trkpt>
      <trkpt lat="50.53161" lon="5.26629">
        <ele>125.4</ele>
        <time>2013-01-19T13:42:32Z</time>
      </trkpt>
      <trkpt lat="50.53142" lon="5.26614">
        <ele>119.9</ele>
        <time>2013-01-19T13:42:39Z</time>
      </trkpt>
      <trkpt lat="50.53127" lon="5.26593">
        <ele>119.6</ele>
        <time>2013-01-19T13:42:46Z</time>
      </trkpt>
      <trkpt lat="50.53121" lon="5.26554">
        <ele>119.5</ele>
        <time>2013-01-19T13:42:52Z</time>
      </trkpt>
      <trkpt lat="50.53109" lon="5.26504">
        <ele>119</ele>
        <time>2013-01-19T13:42:59Z</time>
      </trkpt>
      <trkpt lat="50.53089" lon="5.26459">
        <ele>119.2</ele>
        <time>2013-01-19T13:43:05Z</time>
      </trkpt>
      <trkpt lat="50.5307" lon="5.26411">
        <ele>118.6</ele>
        <time>2013-01-19T13:43:11Z</time>
      </trkpt>
      <trkpt lat="50.5305" lon="5.2636">
        <ele>118.7</ele>
        <time>2013-01-19T13:43:17Z</time>
      </trkpt>
      <trkpt lat="50.53031" lon="5.26318">
        <ele>118.5</ele>
        <time>2013-01-19T13:43:23Z</time>
      </trkpt>
      <trkpt lat="50.53015" lon="5.26265">
        <ele>118</ele>
        <time>2013-01-19T13:43:29Z</time>
      </trkpt>
      <trkpt lat="50.52994" lon="5.26225">
        <ele>117.6</ele>
        <time>2013-01-19T13:43:35Z</time>
      </trkpt>
      <trkpt lat="50.52979" lon="5.26179">
        <ele>118</ele>
        <time>2013-01-19T13:43:41Z</time>
      </trkpt>
      <trkpt lat="50.52959" lon="5.26132">
        <ele>118</ele>
        <time>2013-01-19T13:43:47Z</time>
      </trkpt>
      <trkpt lat="50.52946" lon="5.26102">
        <ele>118.7</ele>
        <time>2013-01-19T13:43:51Z</time>
      </trkpt>
      <trkpt lat="50.52935" lon="5.26041">
        <ele>118.7</ele>
        <time>2013-01-19T13:43:57Z</time>
      </trkpt>
      <trkpt lat="50.52916" lon="5.25993">
        <ele>118.5</ele>
        <time>2013-01-19T13:44:03Z</time>
      </trkpt>
      <trkpt lat="50.52901" lon="5.25954">
        <ele>119</ele>
        <time>2013-01-19T13:44:08Z</time>
      </trkpt>
      <trkpt lat="50.52892" lon="5.25921">
        <ele>119.4</ele>
        <time>2013-01-19T13:44:13Z</time>
      </trkpt>
      <trkpt lat="50.52871" lon="5.25858">
        <ele>121.8</ele>
        <time>2013-01-19T13:44:20Z</time>
      </trkpt>
      <trkpt lat="50.52858" lon="5.25817">
        <ele>122.2</ele>
        <time>2013-01-19T13:44:26Z</time>
      </trkpt>
      <trkpt lat="50.52847" lon="5.25781">
        <ele>122.6</ele>
        <time>2013-01-19T13:44:31Z</time>
      </trkpt>
      <trkpt lat="50.52833" lon="5.25755">
        <ele>122.3</ele>
        <time>2013-01-19T13:44:36Z</time>
      </trkpt>
      <trkpt lat="50.52809" lon="5.25724">
        <ele>122.6</ele>
        <time>2013-01-19T13:44:43Z</time>
      </trkpt>
      <trkpt lat="50.52794" lon="5.25696">
        <ele>121.5</ele>
        <time>2013-01-19T13:44:49Z</time>
      </trkpt>
      <trkpt lat="50.52817" lon="5.25676">
        <ele>123</ele>
        <time>2013-01-19T13:44:54Z</time>
      </trkpt>
      <trkpt lat="50.52846" lon="5.25637">
        <ele>123.7</ele>
        <time>2013-01-19T13:45:00Z</time>
      </trkpt>
      <trkpt lat="50.52863" lon="5.25616">
        <ele>123.8</ele>
        <time>2013-01-19T13:45:03Z</time>
      </trkpt>
      <trkpt lat="50.52902" lon="5.25561">
        <ele>124.2</ele>
        <time>2013-01-19T13:45:10Z</time>
      </trkpt>
      <trkpt lat="50.52883" lon="5.25515">
        <ele>122</ele>
        <time>2013-01-19T13:45:15Z</time>
      </trkpt>
      <trkpt lat="50.52868" lon="5.25471">
        <ele>121.8</ele>
        <time>2013-01-19T13:45:20Z</time>
      </trkpt>
      <trkpt lat="50.52846" lon="5.25414">
        <ele>122.2</ele>
        <time>2013-01-19T13:45:27Z</time>
      </trkpt>
      <trkpt lat="50.52826" lon="5.25372">
        <ele>121.8</ele>
        <time>2013-01-19T13:45:32Z</time>
      </trkpt>
      <trkpt lat="50.5281" lon="5.25337">
        <ele>121.4</ele>
        <time>2013-01-19T13:45:38Z</time>
      </trkpt>
      <trkpt lat="50.52786" lon="5.25289">
        <ele>121.5</ele>
        <time>2013-01-19T13:45:45Z</time>
      </trkpt>
      <trkpt lat="50.5277" lon="5.25252">
        <ele>120.7</ele>
        <time>2013-01-19T13:45:50Z</time>
      </trkpt>
      <trkpt lat="50.5275" lon="5.25213">
        <ele>121.4</ele>
        <time>2013-01-19T13:45:56Z</time>
      </trkpt>
      <trkpt lat="50.52734" lon="5.25187">
        <ele>122.7</ele>
        <time>2013-01-19T13:46:01Z</time>
      </trkpt>
      <trkpt lat="50.52717" lon="5.25162">
        <ele>122.8</ele>
        <time>2013-01-19T13:46:06Z</time>
      </trkpt>
      <trkpt lat="50.52697" lon="5.25114">
        <ele>122.6</ele>
        <time>2013-01-19T13:46:13Z</time>
      </trkpt>
      <trkpt lat="50.52677" lon="5.25082">
        <ele>122.3</ele>
        <time>2013-01-19T13:46:19Z</time>
      </trkpt>
      <trkpt lat="50.52651" lon="5.25049">
        <ele>121.9</ele>
        <time>2013-01-19T13:46:25Z</time>
      </trkpt>
      <trkpt lat="50.52639" lon="5.25021">
        <ele>121.8</ele>
        <time>2013-01-19T13:46:30Z</time>
      </trkpt>
      <trkpt lat="50.52625" lon="5.24982">
        <ele>121.3</ele>
        <time>2013-01-19T13:46:36Z</time>
      </trkpt>
      <trkpt lat="50.52618" lon="5.24959">
        <ele>121.4</ele>
        <time>2013-01-19T13:46:39Z</time>
      </trkpt>
      <trkpt lat="50.52612" lon="5.24934">
        <ele>120.4</ele>
        <time>2013-01-19T13:46:45Z</time>
      </trkpt>
      <trkpt lat="50.52611" lon="5.24929">
        <ele>121.1</ele>
        <time>2013-01-19T13:46:50Z</time>
      </trkpt>
      <trkpt lat="50.52611" lon="5.24929">
        <ele>72.4</ele>
        <time>2013-01-19T13:46:57Z</time>
      </trkpt>
      <trkpt lat="50.52611" lon="5.24929">
        <ele>72.4</ele>
        <time>2013-01-19T13:47:01Z</time>
      </trkpt>
      <trkpt lat="50.52606" lon="5.24917">
        <ele>121.2</ele>
        <time>2013-01-19T13:47:01Z</time>
      </trkpt>
      <trkpt lat="50.52561" lon="5.24824">
        <ele>120.4</ele>
        <time>2013-01-19T13:47:14Z</time>
      </trkpt>
      <trkpt lat="50.52545" lon="5.24786">
        <ele>120.3</ele>
        <time>2013-01-19T13:47:20Z</time>
      </trkpt>
      <trkpt lat="50.52523" lon="5.24739">
        <ele>123.5</ele>
        <time>2013-01-19T13:47:27Z</time>
      </trkpt>
      <trkpt lat="50.52507" lon="5.24699">
        <ele>122.2</ele>
        <time>2013-01-19T13:47:33Z</time>
      </trkpt>
      <trkpt lat="50.52495" lon="5.24677">
        <ele>121.9</ele>
        <time>2013-01-19T13:47:37Z</time>
      </trkpt>
      <trkpt lat="50.52497" lon="5.24633">
        <ele>120.1</ele>
        <time>2013-01-19T13:47:43Z</time>
      </trkpt>
      <trkpt lat="50.52495" lon="5.24612">
        <ele>120.1</ele>
        <time>2013-01-19T13:47:48Z</time>
      </trkpt>
      <trkpt lat="50.52474" lon="5.24575">
        <ele>121</ele>
        <time>2013-01-19T13:47:57Z</time>
      </trkpt>
      <trkpt lat="50.5246" lon="5.2455">
        <ele>121.3</ele>
        <time>2013-01-19T13:48:02Z</time>
      </trkpt>
      <trkpt lat="50.52439" lon="5.24517">
        <ele>121</ele>
        <time>2013-01-19T13:48:09Z</time>
      </trkpt>
      <trkpt lat="50.52419" lon="5.24505">
        <ele>121.8</ele>
        <time>2013-01-19T13:48:15Z</time>
      </trkpt>
      <trkpt lat="50.52403" lon="5.24496">
        <ele>122.1</ele>
        <time>2013-01-19T13:48:21Z</time>
      </trkpt>
      <trkpt lat="50.52394" lon="5.24486">
        <ele>124.5</ele>
        <time>2013-01-19T13:48:29Z</time>
      </trkpt>
      <trkpt lat="50.52371" lon="5.24459">
        <ele>124.9</ele>
        <time>2013-01-19T13:48:44Z</time>
      </trkpt>
      <trkpt lat="50.52341" lon="5.24432">
        <ele>122.4</ele>
        <time>2013-01-19T13:48:50Z</time>
      </trkpt>
      <trkpt lat="50.52313" lon="5.2441">
        <ele>123</ele>
        <time>2013-01-19T13:48:56Z</time>
      </trkpt>
      <trkpt lat="50.52292" lon="5.24389">
        <ele>123</ele>
        <time>2013-01-19T13:49:02Z</time>
      </trkpt>
      <trkpt lat="50.52268" lon="5.24367">
        <ele>123.6</ele>
        <time>2013-01-19T13:49:08Z</time>
      </trkpt>
      <trkpt lat="50.52246" lon="5.24341">
        <ele>122.8</ele>
        <time>2013-01-19T13:49:14Z</time>
      </trkpt>
      <trkpt lat="50.52223" lon="5.24313">
        <ele>123</ele>
        <time>2013-01-19T13:49:21Z</time>
      </trkpt>
      <trkpt lat="50.52158" lon="5.24251">
        <ele>122.4</ele>
        <time>2013-01-19T13:49:36Z</time>
      </trkpt>
      <trkpt lat="50.52133" lon="5.24224">
        <ele>122.9</ele>
        <time>2013-01-19T13:49:41Z</time>
      </trkpt>
      <trkpt lat="50.52045" lon="5.24163">
        <ele>124.3</ele>
        <time>2013-01-19T13:49:59Z</time>
      </trkpt>
      <trkpt lat="50.52027" lon="5.24152">
        <ele>125.9</ele>
        <time>2013-01-19T13:50:03Z</time>
      </trkpt>
      <trkpt lat="50.52007" lon="5.24138">
        <ele>123.7</ele>
        <time>2013-01-19T13:50:09Z</time>
      </trkpt>
      <trkpt lat="50.51987" lon="5.24127">
        <ele>123.9</ele>
        <time>2013-01-19T13:50:16Z</time>
      </trkpt>
      <trkpt lat="50.51972" lon="5.24121">
        <ele>123.8</ele>
        <time>2013-01-19T13:50:21Z</time>
      </trkpt>
      <trkpt lat="50.519" lon="5.24057">
        <ele>123.9</ele>
        <time>2013-01-19T13:50:44Z</time>
      </trkpt>
      <trkpt lat="50.51815" lon="5.24076">
        <ele>125.1</ele>
        <time>2013-01-19T13:51:05Z</time>
      </trkpt>
      <trkpt lat="50.51794" lon="5.24072">
        <ele>126.2</ele>
        <time>2013-01-19T13:51:12Z</time>
      </trkpt>
      <trkpt lat="50.51766" lon="5.24064">
        <ele>121.6</ele>
        <time>2013-01-19T13:51:19Z</time>
      </trkpt>
      <trkpt lat="50.51741" lon="5.24063">
        <ele>121.4</ele>
        <time>2013-01-19T13:51:25Z</time>
      </trkpt>
      <trkpt lat="50.51695" lon="5.24077">
        <ele>121.5</ele>
        <time>2013-01-19T13:51:44Z</time>
      </trkpt>
      <trkpt lat="50.51673" lon="5.24068">
        <ele>120.2</ele>
        <time>2013-01-19T13:51:52Z</time>
      </trkpt>
      <trkpt lat="50.51656" lon="5.24061">
        <ele>121.2</ele>
        <time>2013-01-19T13:51:59Z</time>
      </trkpt>
      <trkpt lat="50.51629" lon="5.24062">
        <ele>121.3</ele>
        <time>2013-01-19T13:52:11Z</time>
      </trkpt>
      <trkpt lat="50.51616" lon="5.24051">
        <ele>121.1</ele>
        <time>2013-01-19T13:52:16Z</time>
      </trkpt>
      <trkpt lat="50.51597" lon="5.24021">
        <ele>121.4</ele>
        <time>2013-01-19T13:52:22Z</time>
      </trkpt>
      <trkpt lat="50.51566" lon="5.23963">
        <ele>121.9</ele>
        <time>2013-01-19T13:52:32Z</time>
      </trkpt>
      <trkpt lat="50.51544" lon="5.23935">
        <ele>123.3</ele>
        <time>2013-01-19T13:52:39Z</time>
      </trkpt>
      <trkpt lat="50.5153" lon="5.23929">
        <ele>122.6</ele>
        <time>2013-01-19T13:52:44Z</time>
      </trkpt>
      <trkpt lat="50.51506" lon="5.23925">
        <ele>123.1</ele>
        <time>2013-01-19T13:52:51Z</time>
      </trkpt>
      <trkpt lat="50.51481" lon="5.23926">
        <ele>123.7</ele>
        <time>2013-01-19T13:52:58Z</time>
      </trkpt>
      <trkpt lat="50.5146" lon="5.23931">
        <ele>123.7</ele>
        <time>2013-01-19T13:53:04Z</time>
      </trkpt>
      <trkpt lat="50.51441" lon="5.23939">
        <ele>123.7</ele>
        <time>2013-01-19T13:53:11Z</time>
      </trkpt>
      <trkpt lat="50.51431" lon="5.23939">
        <ele>123.6</ele>
        <time>2013-01-19T13:53:15Z</time>
      </trkpt>
      <trkpt lat="50.51387" lon="5.23938">
        <ele>114.3</ele>
        <time>2013-01-19T13:53:24Z</time>
      </trkpt>
      <trkpt lat="50.51364" lon="5.23938">
        <ele>112.1</ele>
        <time>2013-01-19T13:53:29Z</time>
      </trkpt>
      <trkpt lat="50.51341" lon="5.23952">
        <ele>109.8</ele>
        <time>2013-01-19T13:53:36Z</time>
      </trkpt>
      <trkpt lat="50.51325" lon="5.23977">
        <ele>111.9</ele>
        <time>2013-01-19T13:53:46Z</time>
      </trkpt>
      <trkpt lat="50.51314" lon="5.23997">
        <ele>112.7</ele>
        <time>2013-01-19T13:53:53Z</time>
      </trkpt>
      <trkpt lat="50.51302" lon="5.23998">
        <ele>111.8</ele>
        <time>2013-01-19T13:53:58Z</time>
      </trkpt>
      <trkpt lat="50.51268" lon="5.23989">
        <ele>113.6</ele>
        <time>2013-01-19T13:54:07Z</time>
      </trkpt>
      <trkpt lat="50.51249" lon="5.23987">
        <ele>114.1</ele>
        <time>2013-01-19T13:54:12Z</time>
      </trkpt>
      <trkpt lat="50.51225" lon="5.23993">
        <ele>114.3</ele>
        <time>2013-01-19T13:54:17Z</time>
      </trkpt>
      <trkpt lat="50.51211" lon="5.23997">
        <ele>115.3</ele>
        <time>2013-01-19T13:54:20Z</time>
      </trkpt>
      <trkpt lat="50.51195" lon="5.23998">
        <ele>114.5</ele>
        <time>2013-01-19T13:54:24Z</time>
      </trkpt>
      <trkpt lat="50.51184" lon="5.23998">
        <ele>114.9</ele>
        <time>2013-01-19T13:54:27Z</time>
      </trkpt>
      <trkpt lat="50.51164" lon="5.24021">
        <ele>114.7</ele>
        <time>2013-01-19T13:54:36Z</time>
      </trkpt>
      <trkpt lat="50.51172" lon="5.24077">
        <ele>114.3</ele>
        <time>2013-01-19T13:54:45Z</time>
      </trkpt>
      <trkpt lat="50.51177" lon="5.24107">
        <ele>113.8</ele>
        <time>2013-01-19T13:54:51Z</time>
      </trkpt>
      <trkpt lat="50.5117" lon="5.24122">
        <ele>116</ele>
        <time>2013-01-19T13:54:58Z</time>
      </trkpt>
      <trkpt lat="50.51141" lon="5.24108">
        <ele>117.6</ele>
        <time>2013-01-19T13:55:07Z</time>
      </trkpt>
      <trkpt lat="50.51118" lon="5.2409">
        <ele>116.8</ele>
        <time>2013-01-19T13:55:12Z</time>
      </trkpt>
      <trkpt lat="50.51087" lon="5.24045">
        <ele>118.3</ele>
        <time>2013-01-19T13:55:19Z</time>
      </trkpt>
      <trkpt lat="50.51064" lon="5.2403">
        <ele>120.4</ele>
        <time>2013-01-19T13:55:24Z</time>
      </trkpt>
      <trkpt lat="50.51039" lon="5.24015">
        <ele>120</ele>
        <time>2013-01-19T13:55:30Z</time>
      </trkpt>
      <trkpt lat="50.5101" lon="5.24013">
        <ele>119.4</ele>
        <time>2013-01-19T13:55:35Z</time>
      </trkpt>
      <trkpt lat="50.50988" lon="5.24024">
        <ele>119.6</ele>
        <time>2013-01-19T13:55:40Z</time>
      </trkpt>
      <trkpt lat="50.50957" lon="5.24026">
        <ele>118</ele>
        <time>2013-01-19T13:55:46Z</time>
      </trkpt>
      <trkpt lat="50.50934" lon="5.24037">
        <ele>117.9</ele>
        <time>2013-01-19T13:55:52Z</time>
      </trkpt>
      <trkpt lat="50.50911" lon="5.24042">
        <ele>117.4</ele>
        <time>2013-01-19T13:55:59Z</time>
      </trkpt>
      <trkpt lat="50.5089" lon="5.24044">
        <ele>117</ele>
        <time>2013-01-19T13:56:06Z</time>
      </trkpt>
      <trkpt lat="50.5087" lon="5.24034">
        <ele>117.3</ele>
        <time>2013-01-19T13:56:12Z</time>
      </trkpt>
      <trkpt lat="50.50866" lon="5.24007">
        <ele>119.2</ele>
        <time>2013-01-19T13:56:18Z</time>
      </trkpt>
      <trkpt lat="50.50854" lon="5.2398">
        <ele>119</ele>
        <time>2013-01-19T13:56:26Z</time>
      </trkpt>
      <trkpt lat="50.50835" lon="5.23965">
        <ele>119</ele>
        <time>2013-01-19T13:56:39Z</time>
      </trkpt>
      <trkpt lat="50.50819" lon="5.23938">
        <ele>118.9</ele>
        <time>2013-01-19T13:56:50Z</time>
      </trkpt>
      <trkpt lat="50.50813" lon="5.23916">
        <ele>119</ele>
        <time>2013-01-19T13:56:59Z</time>
      </trkpt>
      <trkpt lat="50.5081" lon="5.23908">
        <ele>119.1</ele>
        <time>2013-01-19T13:57:02Z</time>
      </trkpt>
      <trkpt lat="50.5081" lon="5.23908">
        <ele>93.2</ele>
        <time>2013-01-19T13:57:09Z</time>
      </trkpt>
      <trkpt lat="50.5081" lon="5.23908">
        <ele>93.2</ele>
        <time>2013-01-19T13:59:10Z</time>
      </trkpt>
      <trkpt lat="50.50589" lon="5.23794">
        <ele>123.4</ele>
        <time>2013-01-19T13:59:10Z</time>
      </trkpt>
      <trkpt lat="50.50571" lon="5.23807">
        <ele>123</ele>
        <time>2013-01-19T13:59:13Z</time>
      </trkpt>
      <trkpt lat="50.50541" lon="5.23814">
        <ele>123</ele>
        <time>2013-01-19T13:59:19Z</time>
      </trkpt>
      <trkpt lat="50.50505" lon="5.23813">
        <ele>124.8</ele>
        <time>2013-01-19T13:59:25Z</time>
      </trkpt>
      <trkpt lat="50.50477" lon="5.23813">
        <ele>125.4</ele>
        <time>2013-01-19T13:59:31Z</time>
      </trkpt>
      <trkpt lat="50.5045" lon="5.23814">
        <ele>125.2</ele>
        <time>2013-01-19T13:59:36Z</time>
      </trkpt>
      <trkpt lat="50.5042" lon="5.23815">
        <ele>123.4</ele>
        <time>2013-01-19T13:59:42Z</time>
      </trkpt>
      <trkpt lat="50.50393" lon="5.23824">
        <ele>124.1</ele>
        <time>2013-01-19T13:59:48Z</time>
      </trkpt>
      <trkpt lat="50.50364" lon="5.23838">
        <ele>122.9</ele>
        <time>2013-01-19T13:59:54Z</time>
      </trkpt>
      <trkpt lat="50.50339" lon="5.23851">
        <ele>123.1</ele>
        <time>2013-01-19T14:00:00Z</time>
      </trkpt>
      <trkpt lat="50.50319" lon="5.23878">
        <ele>123.3</ele>
        <time>2013-01-19T14:00:06Z</time>
      </trkpt>
      <trkpt lat="50.50306" lon="5.23894">
        <ele>124.8</ele>
        <time>2013-01-19T14:00:11Z</time>
      </trkpt>
      <trkpt lat="50.50294" lon="5.23915">
        <ele>124.8</ele>
        <time>2013-01-19T14:00:18Z</time>
      </trkpt>
      <trkpt lat="50.50285" lon="5.23928">
        <ele>125.6</ele>
        <time>2013-01-19T14:00:26Z</time>
      </trkpt>
      <trkpt lat="50.50285" lon="5.23928">
        <ele>125.6</ele>
        <time>2013-01-19T14:00:33Z</time>
      </trkpt>
      <trkpt lat="50.50285" lon="5.23928">
        <ele>92.7</ele>
        <time>2013-01-19T14:00:33Z</time>
      </trkpt>
      <trkpt lat="50.50285" lon="5.23928">
        <ele>92.7</ele>
        <time>2013-01-19T14:00:43Z</time>
      </trkpt>
      <trkpt lat="50.50268" lon="5.2394">
        <ele>122.9</ele>
        <time>2013-01-19T14:00:43Z</time>
      </trkpt>
      <trkpt lat="50.50246" lon="5.23956">
        <ele>123.6</ele>
        <time>2013-01-19T14:00:50Z</time>
      </trkpt>
      <trkpt lat="50.50219" lon="5.23943">
        <ele>128.3</ele>
        <time>2013-01-19T14:00:59Z</time>
      </trkpt>
      <trkpt lat="50.50201" lon="5.23938">
        <ele>127.2</ele>
        <time>2013-01-19T14:01:03Z</time>
      </trkpt>
      <trkpt lat="50.50187" lon="5.23939">
        <ele>126.9</ele>
        <time>2013-01-19T14:01:06Z</time>
      </trkpt>
      <trkpt lat="50.50171" lon="5.23941">
        <ele>126.3</ele>
        <time>2013-01-19T14:01:11Z</time>
      </trkpt>
      <trkpt lat="50.5016" lon="5.23946">
        <ele>127.3</ele>
        <time>2013-01-19T14:01:16Z</time>
      </trkpt>
      <trkpt lat="50.5014" lon="5.23963">
        <ele>126.2</ele>
        <time>2013-01-19T14:01:26Z</time>
      </trkpt>
      <trkpt lat="50.50114" lon="5.23979">
        <ele>124</ele>
        <time>2013-01-19T14:01:34Z</time>
      </trkpt>
      <trkpt lat="50.50101" lon="5.23999">
        <ele>122.4</ele>
        <time>2013-01-19T14:01:42Z</time>
      </trkpt>
      <trkpt lat="50.50103" lon="5.24026">
        <ele>122</ele>
        <time>2013-01-19T14:01:49Z</time>
      </trkpt>
      <trkpt lat="50.50109" lon="5.24052">
        <ele>122.4</ele>
        <time>2013-01-19T14:01:58Z</time>
      </trkpt>
      <trkpt lat="50.50095" lon="5.24095">
        <ele>124</ele>
        <time>2013-01-19T14:02:09Z</time>
      </trkpt>
      <trkpt lat="50.50067" lon="5.24123">
        <ele>123.7</ele>
        <time>2013-01-19T14:02:18Z</time>
      </trkpt>
      <trkpt lat="50.50051" lon="5.24148">
        <ele>123.9</ele>
        <time>2013-01-19T14:02:23Z</time>
      </trkpt>
      <trkpt lat="50.50038" lon="5.24172">
        <ele>123.8</ele>
        <time>2013-01-19T14:02:28Z</time>
      </trkpt>
      <trkpt lat="50.50002" lon="5.24201">
        <ele>121.7</ele>
        <time>2013-01-19T14:02:36Z</time>
      </trkpt>
      <trkpt lat="50.49979" lon="5.24226">
        <ele>121</ele>
        <time>2013-01-19T14:02:42Z</time>
      </trkpt>
      <trkpt lat="50.49947" lon="5.24251">
        <ele>122.5</ele>
        <time>2013-01-19T14:02:48Z</time>
      </trkpt>
      <trkpt lat="50.49922" lon="5.24262">
        <ele>122.8</ele>
        <time>2013-01-19T14:02:54Z</time>
      </trkpt>
      <trkpt lat="50.4991" lon="5.24288">
        <ele>122.8</ele>
        <time>2013-01-19T14:03:03Z</time>
      </trkpt>
      <trkpt lat="50.49901" lon="5.24317">
        <ele>125.9</ele>
        <time>2013-01-19T14:03:13Z</time>
      </trkpt>
      <trkpt lat="50.49893" lon="5.24333">
        <ele>128.2</ele>
        <time>2013-01-19T14:03:19Z</time>
      </trkpt>
      <trkpt lat="50.49882" lon="5.24335">
        <ele>129.7</ele>
        <time>2013-01-19T14:03:26Z</time>
      </trkpt>
      <trkpt lat="50.49862" lon="5.24344">
        <ele>131.7</ele>
        <time>2013-01-19T14:03:39Z</time>
      </trkpt>
      <trkpt lat="50.49848" lon="5.24354">
        <ele>133</ele>
        <time>2013-01-19T14:03:49Z</time>
      </trkpt>
      <trkpt lat="50.49835" lon="5.24357">
        <ele>133</ele>
        <time>2013-01-19T14:04:03Z</time>
      </trkpt>
      <trkpt lat="50.49821" lon="5.24367">
        <ele>135.2</ele>
        <time>2013-01-19T14:04:14Z</time>
      </trkpt>
      <trkpt lat="50.498" lon="5.24382">
        <ele>140.7</ele>
        <time>2013-01-19T14:04:27Z</time>
      </trkpt>
      <trkpt lat="50.49789" lon="5.24385">
        <ele>141.4</ele>
        <time>2013-01-19T14:04:38Z</time>
      </trkpt>
      <trkpt lat="50.49776" lon="5.24392">
        <ele>142.7</ele>
        <time>2013-01-19T14:04:49Z</time>
      </trkpt>
      <trkpt lat="50.49762" lon="5.24397">
        <ele>145.1</ele>
        <time>2013-01-19T14:05:02Z</time>
      </trkpt>
      <trkpt lat="50.49728" lon="5.24393">
        <ele>147.8</ele>
        <time>2013-01-19T14:05:18Z</time>
      </trkpt>
      <trkpt lat="50.49712" lon="5.24394">
        <ele>148.1</ele>
        <time>2013-01-19T14:05:24Z</time>
      </trkpt>
      <trkpt lat="50.49687" lon="5.24385">
        <ele>148.5</ele>
        <time>2013-01-19T14:05:32Z</time>
      </trkpt>
      <trkpt lat="50.49658" lon="5.24362">
        <ele>148.9</ele>
        <time>2013-01-19T14:05:41Z</time>
      </trkpt>
      <trkpt lat="50.4963" lon="5.24332">
        <ele>148.9</ele>
        <time>2013-01-19T14:05:49Z</time>
      </trkpt>
      <trkpt lat="50.49612" lon="5.24323">
        <ele>148.5</ele>
        <time>2013-01-19T14:05:55Z</time>
      </trkpt>
      <trkpt lat="50.49598" lon="5.24321">
        <ele>148.7</ele>
        <time>2013-01-19T14:06:02Z</time>
      </trkpt>
      <trkpt lat="50.49581" lon="5.24305">
        <ele>148.9</ele>
        <time>2013-01-19T14:06:10Z</time>
      </trkpt>
      <trkpt lat="50.49574" lon="5.24291">
        <ele>148.7</ele>
        <time>2013-01-19T14:06:16Z</time>
      </trkpt>
      <trkpt lat="50.49561" lon="5.24267">
        <ele>148.2</ele>
        <time>2013-01-19T14:06:26Z</time>
      </trkpt>
      <trkpt lat="50.49552" lon="5.24245">
        <ele>148.4</ele>
        <time>2013-01-19T14:06:35Z</time>
      </trkpt>
      <trkpt lat="50.49538" lon="5.24224">
        <ele>148</ele>
        <time>2013-01-19T14:06:42Z</time>
      </trkpt>
      <trkpt lat="50.49528" lon="5.24197">
        <ele>148.6</ele>
        <time>2013-01-19T14:06:49Z</time>
      </trkpt>
      <trkpt lat="50.49526" lon="5.24174">
        <ele>149.6</ele>
        <time>2013-01-19T14:06:55Z</time>
      </trkpt>
      <trkpt lat="50.49523" lon="5.24154">
        <ele>149.1</ele>
        <time>2013-01-19T14:07:01Z</time>
      </trkpt>
      <trkpt lat="50.49509" lon="5.24124">
        <ele>149.4</ele>
        <time>2013-01-19T14:07:10Z</time>
      </trkpt>
      <trkpt lat="50.49495" lon="5.24089">
        <ele>149</ele>
        <time>2013-01-19T14:07:21Z</time>
      </trkpt>
      <trkpt lat="50.49486" lon="5.24038">
        <ele>149.6</ele>
        <time>2013-01-19T14:07:39Z</time>
      </trkpt>
      <trkpt lat="50.49478" lon="5.24013">
        <ele>150</ele>
        <time>2013-01-19T14:07:48Z</time>
      </trkpt>
      <trkpt lat="50.49475" lon="5.2398">
        <ele>151</ele>
        <time>2013-01-19T14:07:59Z</time>
      </trkpt>
      <trkpt lat="50.49478" lon="5.23907">
        <ele>150.3</ele>
        <time>2013-01-19T14:08:30Z</time>
      </trkpt>
      <trkpt lat="50.49484" lon="5.23882">
        <ele>150.1</ele>
        <time>2013-01-19T14:08:43Z</time>
      </trkpt>
      <trkpt lat="50.4948" lon="5.2386">
        <ele>149.3</ele>
        <time>2013-01-19T14:08:53Z</time>
      </trkpt>
      <trkpt lat="50.49476" lon="5.2381">
        <ele>148.2</ele>
        <time>2013-01-19T14:09:08Z</time>
      </trkpt>
      <trkpt lat="50.49473" lon="5.23783">
        <ele>147.5</ele>
        <time>2013-01-19T14:09:17Z</time>
      </trkpt>
      <trkpt lat="50.49468" lon="5.23762">
        <ele>146.6</ele>
        <time>2013-01-19T14:09:30Z</time>
      </trkpt>
      <trkpt lat="50.49459" lon="5.23723">
        <ele>160.7</ele>
        <time>2013-01-19T14:09:39Z</time>
      </trkpt>
      <trkpt lat="50.49447" lon="5.23711">
        <ele>161.7</ele>
        <time>2013-01-19T14:09:46Z</time>
      </trkpt>
      <trkpt lat="50.49432" lon="5.23709">
        <ele>166.1</ele>
        <time>2013-01-19T14:09:55Z</time>
      </trkpt>
      <trkpt lat="50.49409" lon="5.23705">
        <ele>167.3</ele>
        <time>2013-01-19T14:10:08Z</time>
      </trkpt>
      <trkpt lat="50.49384" lon="5.23713">
        <ele>168.6</ele>
        <time>2013-01-19T14:10:20Z</time>
      </trkpt>
      <trkpt lat="50.4935" lon="5.23716">
        <ele>166.8</ele>
        <time>2013-01-19T14:10:32Z</time>
      </trkpt>
      <trkpt lat="50.49331" lon="5.23721">
        <ele>168.9</ele>
        <time>2013-01-19T14:10:38Z</time>
      </trkpt>
      <trkpt lat="50.49315" lon="5.23722">
        <ele>169.1</ele>
        <time>2013-01-19T14:10:44Z</time>
      </trkpt>
      <trkpt lat="50.4929" lon="5.23725">
        <ele>170.1</ele>
        <time>2013-01-19T14:10:51Z</time>
      </trkpt>
      <trkpt lat="50.49268" lon="5.23724">
        <ele>167.6</ele>
        <time>2013-01-19T14:10:57Z</time>
      </trkpt>
      <trkpt lat="50.49245" lon="5.23725">
        <ele>166.6</ele>
        <time>2013-01-19T14:11:05Z</time>
      </trkpt>
      <trkpt lat="50.49226" lon="5.23731">
        <ele>163.2</ele>
        <time>2013-01-19T14:11:12Z</time>
      </trkpt>
      <trkpt lat="50.49212" lon="5.23753">
        <ele>162.4</ele>
        <time>2013-01-19T14:11:22Z</time>
      </trkpt>
      <trkpt lat="50.49199" lon="5.23787">
        <ele>162.2</ele>
        <time>2013-01-19T14:11:32Z</time>
      </trkpt>
      <trkpt lat="50.49198" lon="5.23823">
        <ele>162.4</ele>
        <time>2013-01-19T14:11:41Z</time>
      </trkpt>
      <trkpt lat="50.49212" lon="5.23884">
        <ele>160</ele>
        <time>2013-01-19T14:11:50Z</time>
      </trkpt>
      <trkpt lat="50.49218" lon="5.23927">
        <ele>159.7</ele>
        <time>2013-01-19T14:11:56Z</time>
      </trkpt>
      <trkpt lat="50.49218" lon="5.23975">
        <ele>160.2</ele>
        <time>2013-01-19T14:12:03Z</time>
      </trkpt>
      <trkpt lat="50.49227" lon="5.24013">
        <ele>158.8</ele>
        <time>2013-01-19T14:12:10Z</time>
      </trkpt>
      <trkpt lat="50.49232" lon="5.24058">
        <ele>157.1</ele>
        <time>2013-01-19T14:12:16Z</time>
      </trkpt>
      <trkpt lat="50.49243" lon="5.24109">
        <ele>157</ele>
        <time>2013-01-19T14:12:24Z</time>
      </trkpt>
      <trkpt lat="50.49256" lon="5.24147">
        <ele>157.5</ele>
        <time>2013-01-19T14:12:31Z</time>
      </trkpt>
      <trkpt lat="50.49255" lon="5.24194">
        <ele>160</ele>
        <time>2013-01-19T14:12:37Z</time>
      </trkpt>
      <trkpt lat="50.49252" lon="5.24256">
        <ele>162.1</ele>
        <time>2013-01-19T14:12:44Z</time>
      </trkpt>
      <trkpt lat="50.49256" lon="5.24305">
        <ele>160.6</ele>
        <time>2013-01-19T14:12:50Z</time>
      </trkpt>
      <trkpt lat="50.49261" lon="5.24326">
        <ele>158.6</ele>
        <time>2013-01-19T14:12:53Z</time>
      </trkpt>
      <trkpt lat="50.49271" lon="5.24367">
        <ele>158.6</ele>
        <time>2013-01-19T14:12:59Z</time>
      </trkpt>
      <trkpt lat="50.4927" lon="5.24425">
        <ele>155.1</ele>
        <time>2013-01-19T14:13:05Z</time>
      </trkpt>
      <trkpt lat="50.49271" lon="5.24456">
        <ele>154.3</ele>
        <time>2013-01-19T14:13:10Z</time>
      </trkpt>
      <trkpt lat="50.49271" lon="5.24491">
        <ele>153.9</ele>
        <time>2013-01-19T14:13:16Z</time>
      </trkpt>
      <trkpt lat="50.49274" lon="5.24531">
        <ele>154.3</ele>
        <time>2013-01-19T14:13:23Z</time>
      </trkpt>
      <trkpt lat="50.49274" lon="5.24572">
        <ele>153.8</ele>
        <time>2013-01-19T14:13:30Z</time>
      </trkpt>
      <trkpt lat="50.49273" lon="5.24607">
        <ele>155.6</ele>
        <time>2013-01-19T14:13:36Z</time>
      </trkpt>
      <trkpt lat="50.49273" lon="5.24644">
        <ele>155.2</ele>
        <time>2013-01-19T14:13:43Z</time>
      </trkpt>
      <trkpt lat="50.49275" lon="5.24672">
        <ele>155.4</ele>
        <time>2013-01-19T14:13:48Z</time>
      </trkpt>
      <trkpt lat="50.49277" lon="5.24712">
        <ele>157.4</ele>
        <time>2013-01-19T14:13:55Z</time>
      </trkpt>
      <trkpt lat="50.49276" lon="5.24756">
        <ele>157.9</ele>
        <time>2013-01-19T14:14:02Z</time>
      </trkpt>
      <trkpt lat="50.49274" lon="5.24778">
        <ele>159.5</ele>
        <time>2013-01-19T14:14:05Z</time>
      </trkpt>
      <trkpt lat="50.49273" lon="5.24814">
        <ele>158.7</ele>
        <time>2013-01-19T14:14:11Z</time>
      </trkpt>
      <trkpt lat="50.49271" lon="5.24841">
        <ele>158.8</ele>
        <time>2013-01-19T14:14:16Z</time>
      </trkpt>
      <trkpt lat="50.49269" lon="5.24883">
        <ele>164.6</ele>
        <time>2013-01-19T14:14:22Z</time>
      </trkpt>
      <trkpt lat="50.49277" lon="5.24918">
        <ele>164.3</ele>
        <time>2013-01-19T14:14:27Z</time>
      </trkpt>
      <trkpt lat="50.49285" lon="5.24938">
        <ele>164.6</ele>
        <time>2013-01-19T14:14:30Z</time>
      </trkpt>
      <trkpt lat="50.49296" lon="5.24969">
        <ele>164.3</ele>
        <time>2013-01-19T14:14:35Z</time>
      </trkpt>
      <trkpt lat="50.49304" lon="5.25005">
        <ele>163.1</ele>
        <time>2013-01-19T14:14:40Z</time>
      </trkpt>
      <trkpt lat="50.49298" lon="5.25041">
        <ele>161.6</ele>
        <time>2013-01-19T14:14:47Z</time>
      </trkpt>
      <trkpt lat="50.493" lon="5.25072">
        <ele>163</ele>
        <time>2013-01-19T14:14:55Z</time>
      </trkpt>
      <trkpt lat="50.49309" lon="5.2511">
        <ele>163.8</ele>
        <time>2013-01-19T14:15:02Z</time>
      </trkpt>
      <trkpt lat="50.49315" lon="5.25142">
        <ele>163</ele>
        <time>2013-01-19T14:15:08Z</time>
      </trkpt>
      <trkpt lat="50.49321" lon="5.25176">
        <ele>168.1</ele>
        <time>2013-01-19T14:15:15Z</time>
      </trkpt>
      <trkpt lat="50.49319" lon="5.25213">
        <ele>169.8</ele>
        <time>2013-01-19T14:15:22Z</time>
      </trkpt>
      <trkpt lat="50.49318" lon="5.25241">
        <ele>172</ele>
        <time>2013-01-19T14:15:28Z</time>
      </trkpt>
      <trkpt lat="50.49317" lon="5.25269">
        <ele>172.7</ele>
        <time>2013-01-19T14:15:34Z</time>
      </trkpt>
      <trkpt lat="50.49318" lon="5.25298">
        <ele>173</ele>
        <time>2013-01-19T14:15:39Z</time>
      </trkpt>
      <trkpt lat="50.49318" lon="5.25335">
        <ele>171.1</ele>
        <time>2013-01-19T14:15:46Z</time>
      </trkpt>
      <trkpt lat="50.49317" lon="5.25358">
        <ele>169.7</ele>
        <time>2013-01-19T14:15:50Z</time>
      </trkpt>
      <trkpt lat="50.49315" lon="5.25385">
        <ele>167.9</ele>
        <time>2013-01-19T14:15:56Z</time>
      </trkpt>
      <trkpt lat="50.4931" lon="5.25415">
        <ele>166.9</ele>
        <time>2013-01-19T14:16:04Z</time>
      </trkpt>
      <trkpt lat="50.49302" lon="5.25449">
        <ele>163.7</ele>
        <time>2013-01-19T14:16:13Z</time>
      </trkpt>
      <trkpt lat="50.49286" lon="5.25492">
        <ele>164.1</ele>
        <time>2013-01-19T14:16:22Z</time>
      </trkpt>
      <trkpt lat="50.49272" lon="5.2552">
        <ele>163.8</ele>
        <time>2013-01-19T14:16:28Z</time>
      </trkpt>
      <trkpt lat="50.49258" lon="5.25545">
        <ele>163.9</ele>
        <time>2013-01-19T14:16:34Z</time>
      </trkpt>
      <trkpt lat="50.49241" lon="5.25578">
        <ele>164.2</ele>
        <time>2013-01-19T14:16:41Z</time>
      </trkpt>
      <trkpt lat="50.4923" lon="5.25603">
        <ele>163.9</ele>
        <time>2013-01-19T14:16:47Z</time>
      </trkpt>
      <trkpt lat="50.49218" lon="5.25619">
        <ele>163.9</ele>
        <time>2013-01-19T14:16:52Z</time>
      </trkpt>
      <trkpt lat="50.49206" lon="5.25634">
        <ele>164.3</ele>
        <time>2013-01-19T14:16:56Z</time>
      </trkpt>
      <trkpt lat="50.49191" lon="5.25649">
        <ele>165</ele>
        <time>2013-01-19T14:17:01Z</time>
      </trkpt>
      <trkpt lat="50.49179" lon="5.25665">
        <ele>167.2</ele>
        <time>2013-01-19T14:17:06Z</time>
      </trkpt>
      <trkpt lat="50.49179" lon="5.25665">
        <ele>127.8</ele>
        <time>2013-01-19T14:17:12Z</time>
      </trkpt>
      <trkpt lat="50.49179" lon="5.25665">
        <ele>127.8</ele>
        <time>2013-01-19T14:25:57Z</time>
      </trkpt>
      <trkpt lat="50.49147" lon="5.25687">
        <ele>166</ele>
        <time>2013-01-19T14:25:57Z</time>
      </trkpt>
      <trkpt lat="50.49125" lon="5.25709">
        <ele>164.2</ele>
        <time>2013-01-19T14:26:03Z</time>
      </trkpt>
      <trkpt lat="50.49102" lon="5.25731">
        <ele>163.3</ele>
        <time>2013-01-19T14:26:10Z</time>
      </trkpt>
      <trkpt lat="50.49077" lon="5.25746">
        <ele>163.8</ele>
        <time>2013-01-19T14:26:17Z</time>
      </trkpt>
      <trkpt lat="50.49048" lon="5.25756">
        <ele>163.2</ele>
        <time>2013-01-19T14:26:25Z</time>
      </trkpt>
      <trkpt lat="50.49021" lon="5.25764">
        <ele>163.3</ele>
        <time>2013-01-19T14:26:32Z</time>
      </trkpt>
      <trkpt lat="50.49002" lon="5.25769">
        <ele>163.3</ele>
        <time>2013-01-19T14:26:37Z</time>
      </trkpt>
      <trkpt lat="50.48983" lon="5.25771">
        <ele>163.8</ele>
        <time>2013-01-19T14:26:42Z</time>
      </trkpt>
      <trkpt lat="50.48962" lon="5.25773">
        <ele>164.3</ele>
        <time>2013-01-19T14:26:48Z</time>
      </trkpt>
      <trkpt lat="50.48943" lon="5.25778">
        <ele>161.1</ele>
        <time>2013-01-19T14:26:54Z</time>
      </trkpt>
      <trkpt lat="50.4892" lon="5.25787">
        <ele>161.2</ele>
        <time>2013-01-19T14:27:01Z</time>
      </trkpt>
      <trkpt lat="50.48898" lon="5.25796">
        <ele>162.2</ele>
        <time>2013-01-19T14:27:08Z</time>
      </trkpt>
      <trkpt lat="50.48877" lon="5.25806">
        <ele>163.7</ele>
        <time>2013-01-19T14:27:15Z</time>
      </trkpt>
      <trkpt lat="50.48861" lon="5.25811">
        <ele>163.4</ele>
        <time>2013-01-19T14:27:21Z</time>
      </trkpt>
      <trkpt lat="50.48835" lon="5.25821">
        <ele>162.6</ele>
        <time>2013-01-19T14:27:30Z</time>
      </trkpt>
      <trkpt lat="50.48814" lon="5.25828">
        <ele>162.4</ele>
        <time>2013-01-19T14:27:37Z</time>
      </trkpt>
      <trkpt lat="50.4879" lon="5.25836">
        <ele>155.8</ele>
        <time>2013-01-19T14:27:45Z</time>
      </trkpt>
      <trkpt lat="50.48769" lon="5.25849">
        <ele>157.4</ele>
        <time>2013-01-19T14:27:51Z</time>
      </trkpt>
      <trkpt lat="50.48752" lon="5.25843">
        <ele>157.7</ele>
        <time>2013-01-19T14:27:58Z</time>
      </trkpt>
      <trkpt lat="50.48738" lon="5.25841">
        <ele>157.8</ele>
        <time>2013-01-19T14:28:04Z</time>
      </trkpt>
      <trkpt lat="50.48713" lon="5.25847">
        <ele>159.3</ele>
        <time>2013-01-19T14:28:13Z</time>
      </trkpt>
      <trkpt lat="50.48693" lon="5.25849">
        <ele>158</ele>
        <time>2013-01-19T14:28:19Z</time>
      </trkpt>
      <trkpt lat="50.48671" lon="5.25858">
        <ele>157.7</ele>
        <time>2013-01-19T14:28:25Z</time>
      </trkpt>
      <trkpt lat="50.48654" lon="5.25864">
        <ele>155.9</ele>
        <time>2013-01-19T14:28:30Z</time>
      </trkpt>
      <trkpt lat="50.48635" lon="5.25867">
        <ele>156.1</ele>
        <time>2013-01-19T14:28:36Z</time>
      </trkpt>
      <trkpt lat="50.48611" lon="5.25873">
        <ele>158.4</ele>
        <time>2013-01-19T14:28:43Z</time>
      </trkpt>
      <trkpt lat="50.48589" lon="5.25885">
        <ele>160.1</ele>
        <time>2013-01-19T14:28:49Z</time>
      </trkpt>
      <trkpt lat="50.48572" lon="5.25887">
        <ele>160.2</ele>
        <time>2013-01-19T14:28:54Z</time>
      </trkpt>
      <trkpt lat="50.48548" lon="5.25898">
        <ele>160.4</ele>
        <time>2013-01-19T14:29:02Z</time>
      </trkpt>
      <trkpt lat="50.48532" lon="5.25906">
        <ele>160.3</ele>
        <time>2013-01-19T14:29:08Z</time>
      </trkpt>
      <trkpt lat="50.48504" lon="5.25914">
        <ele>160.5</ele>
        <time>2013-01-19T14:29:16Z</time>
      </trkpt>
      <trkpt lat="50.48484" lon="5.2593">
        <ele>160.5</ele>
        <time>2013-01-19T14:29:23Z</time>
      </trkpt>
      <trkpt lat="50.48466" lon="5.25948">
        <ele>159.2</ele>
        <time>2013-01-19T14:29:30Z</time>
      </trkpt>
      <trkpt lat="50.48448" lon="5.25969">
        <ele>162.8</ele>
        <time>2013-01-19T14:29:37Z</time>
      </trkpt>
      <trkpt lat="50.48438" lon="5.2598">
        <ele>162.3</ele>
        <time>2013-01-19T14:29:41Z</time>
      </trkpt>
      <trkpt lat="50.4842" lon="5.25992">
        <ele>162</ele>
        <time>2013-01-19T14:29:47Z</time>
      </trkpt>
      <trkpt lat="50.48402" lon="5.26016">
        <ele>160.2</ele>
        <time>2013-01-19T14:29:55Z</time>
      </trkpt>
      <trkpt lat="50.48387" lon="5.26038">
        <ele>161.3</ele>
        <time>2013-01-19T14:30:01Z</time>
      </trkpt>
      <trkpt lat="50.48365" lon="5.26072">
        <ele>160.6</ele>
        <time>2013-01-19T14:30:07Z</time>
      </trkpt>
      <trkpt lat="50.48356" lon="5.26089">
        <ele>160.9</ele>
        <time>2013-01-19T14:30:12Z</time>
      </trkpt>
      <trkpt lat="50.48347" lon="5.2611">
        <ele>160.4</ele>
        <time>2013-01-19T14:30:16Z</time>
      </trkpt>
      <trkpt lat="50.48333" lon="5.26144">
        <ele>159.7</ele>
        <time>2013-01-19T14:30:22Z</time>
      </trkpt>
      <trkpt lat="50.48318" lon="5.26169">
        <ele>160.5</ele>
        <time>2013-01-19T14:30:27Z</time>
      </trkpt>
      <trkpt lat="50.48303" lon="5.26196">
        <ele>162.3</ele>
        <time>2013-01-19T14:30:33Z</time>
      </trkpt>
      <trkpt lat="50.48297" lon="5.26206">
        <ele>161.9</ele>
        <time>2013-01-19T14:30:36Z</time>
      </trkpt>
      <trkpt lat="50.4828" lon="5.26236">
        <ele>161.7</ele>
        <time>2013-01-19T14:30:44Z</time>
      </trkpt>
      <trkpt lat="50.48263" lon="5.26264">
        <ele>162.1</ele>
        <time>2013-01-19T14:30:51Z</time>
      </trkpt>
      <trkpt lat="50.48244" lon="5.26291">
        <ele>161.8</ele>
        <time>2013-01-19T14:30:59Z</time>
      </trkpt>
      <trkpt lat="50.48228" lon="5.2631">
        <ele>160.8</ele>
        <time>2013-01-19T14:31:06Z</time>
      </trkpt>
      <trkpt lat="50.48216" lon="5.26326">
        <ele>160.5</ele>
        <time>2013-01-19T14:31:11Z</time>
      </trkpt>
      <trkpt lat="50.48201" lon="5.26344">
        <ele>160.8</ele>
        <time>2013-01-19T14:31:16Z</time>
      </trkpt>
      <trkpt lat="50.48186" lon="5.26377">
        <ele>161.4</ele>
        <time>2013-01-19T14:31:23Z</time>
      </trkpt>
      <trkpt lat="50.4817" lon="5.264">
        <ele>164.1</ele>
        <time>2013-01-19T14:31:32Z</time>
      </trkpt>
      <trkpt lat="50.4814" lon="5.26437">
        <ele>164.8</ele>
        <time>2013-01-19T14:31:43Z</time>
      </trkpt>
      <trkpt lat="50.48124" lon="5.26466">
        <ele>166.4</ele>
        <time>2013-01-19T14:31:48Z</time>
      </trkpt>
      <trkpt lat="50.48106" lon="5.26487">
        <ele>165.2</ele>
        <time>2013-01-19T14:31:55Z</time>
      </trkpt>
      <trkpt lat="50.48087" lon="5.26514">
        <ele>166.2</ele>
        <time>2013-01-19T14:32:03Z</time>
      </trkpt>
      <trkpt lat="50.48066" lon="5.26536">
        <ele>168.3</ele>
        <time>2013-01-19T14:32:09Z</time>
      </trkpt>
      <trkpt lat="50.48042" lon="5.26556">
        <ele>169.4</ele>
        <time>2013-01-19T14:32:16Z</time>
      </trkpt>
      <trkpt lat="50.48024" lon="5.26572">
        <ele>169.7</ele>
        <time>2013-01-19T14:32:21Z</time>
      </trkpt>
      <trkpt lat="50.48003" lon="5.26583">
        <ele>170.5</ele>
        <time>2013-01-19T14:32:27Z</time>
      </trkpt>
      <trkpt lat="50.47981" lon="5.26604">
        <ele>171.7</ele>
        <time>2013-01-19T14:32:34Z</time>
      </trkpt>
      <trkpt lat="50.47966" lon="5.26613">
        <ele>159.9</ele>
        <time>2013-01-19T14:32:38Z</time>
      </trkpt>
      <trkpt lat="50.47938" lon="5.2661">
        <ele>143.6</ele>
        <time>2013-01-19T14:32:46Z</time>
      </trkpt>
      <trkpt lat="50.4792" lon="5.2662">
        <ele>140.6</ele>
        <time>2013-01-19T14:32:51Z</time>
      </trkpt>
      <trkpt lat="50.47906" lon="5.26625">
        <ele>140.8</ele>
        <time>2013-01-19T14:32:56Z</time>
      </trkpt>
      <trkpt lat="50.47893" lon="5.26623">
        <ele>141.6</ele>
        <time>2013-01-19T14:33:01Z</time>
      </trkpt>
      <trkpt lat="50.47893" lon="5.26623">
        <ele>145.4</ele>
        <time>2013-01-19T14:33:06Z</time>
      </trkpt>
      <trkpt lat="50.47893" lon="5.26623">
        <ele>145.4</ele>
        <time>2013-01-19T14:33:20Z</time>
      </trkpt>
      <trkpt lat="50.47867" lon="5.26621">
        <ele>148.9</ele>
        <time>2013-01-19T14:33:20Z</time>
      </trkpt>
      <trkpt lat="50.47841" lon="5.26619">
        <ele>152.1</ele>
        <time>2013-01-19T14:33:26Z</time>
      </trkpt>
      <trkpt lat="50.47819" lon="5.26615">
        <ele>155.2</ele>
        <time>2013-01-19T14:33:31Z</time>
      </trkpt>
      <trkpt lat="50.47795" lon="5.26613">
        <ele>156.1</ele>
        <time>2013-01-19T14:33:38Z</time>
      </trkpt>
      <trkpt lat="50.47776" lon="5.26618">
        <ele>156.1</ele>
        <time>2013-01-19T14:33:46Z</time>
      </trkpt>
      <trkpt lat="50.47754" lon="5.2661">
        <ele>158.1</ele>
        <time>2013-01-19T14:33:53Z</time>
      </trkpt>
      <trkpt lat="50.47729" lon="5.26606">
        <ele>158.6</ele>
        <time>2013-01-19T14:33:59Z</time>
      </trkpt>
      <trkpt lat="50.47696" lon="5.26597">
        <ele>157.6</ele>
        <time>2013-01-19T14:34:07Z</time>
      </trkpt>
      <trkpt lat="50.47669" lon="5.26584">
        <ele>155.1</ele>
        <time>2013-01-19T14:34:13Z</time>
      </trkpt>
      <trkpt lat="50.47651" lon="5.26582">
        <ele>155.3</ele>
        <time>2013-01-19T14:34:18Z</time>
      </trkpt>
      <trkpt lat="50.47624" lon="5.26577">
        <ele>155.5</ele>
        <time>2013-01-19T14:34:25Z</time>
      </trkpt>
      <trkpt lat="50.47602" lon="5.26575">
        <ele>157.4</ele>
        <time>2013-01-19T14:34:31Z</time>
      </trkpt>
      <trkpt lat="50.4758" lon="5.26573">
        <ele>156.7</ele>
        <time>2013-01-19T14:34:38Z</time>
      </trkpt>
      <trkpt lat="50.47555" lon="5.26575">
        <ele>158.8</ele>
        <time>2013-01-19T14:34:44Z</time>
      </trkpt>
      <trkpt lat="50.47542" lon="5.26573">
        <ele>159.2</ele>
        <time>2013-01-19T14:34:47Z</time>
      </trkpt>
      <trkpt lat="50.47514" lon="5.26568">
        <ele>159.2</ele>
        <time>2013-01-19T14:34:54Z</time>
      </trkpt>
      <trkpt lat="50.47492" lon="5.26551">
        <ele>156.9</ele>
        <time>2013-01-19T14:35:02Z</time>
      </trkpt>
      <trkpt lat="50.47473" lon="5.26548">
        <ele>155.5</ele>
        <time>2013-01-19T14:35:08Z</time>
      </trkpt>
      <trkpt lat="50.4746" lon="5.26549">
        <ele>155.7</ele>
        <time>2013-01-19T14:35:12Z</time>
      </trkpt>
      <trkpt lat="50.47432" lon="5.2655">
        <ele>158.9</ele>
        <time>2013-01-19T14:35:19Z</time>
      </trkpt>
      <trkpt lat="50.47416" lon="5.26549">
        <ele>160.2</ele>
        <time>2013-01-19T14:35:23Z</time>
      </trkpt>
      <trkpt lat="50.47398" lon="5.26547">
        <ele>160.8</ele>
        <time>2013-01-19T14:35:28Z</time>
      </trkpt>
      <trkpt lat="50.47376" lon="5.26539">
        <ele>160.9</ele>
        <time>2013-01-19T14:35:35Z</time>
      </trkpt>
      <trkpt lat="50.47355" lon="5.26534">
        <ele>160.4</ele>
        <time>2013-01-19T14:35:42Z</time>
      </trkpt>
      <trkpt lat="50.47334" lon="5.26526">
        <ele>161.9</ele>
        <time>2013-01-19T14:35:49Z</time>
      </trkpt>
      <trkpt lat="50.47316" lon="5.26526">
        <ele>161.2</ele>
        <time>2013-01-19T14:35:56Z</time>
      </trkpt>
      <trkpt lat="50.47286" lon="5.26531">
        <ele>160.8</ele>
        <time>2013-01-19T14:36:05Z</time>
      </trkpt>
      <trkpt lat="50.47274" lon="5.26535">
        <ele>160.3</ele>
        <time>2013-01-19T14:36:10Z</time>
      </trkpt>
      <trkpt lat="50.47249" lon="5.26533">
        <ele>160.2</ele>
        <time>2013-01-19T14:36:19Z</time>
      </trkpt>
      <trkpt lat="50.47226" lon="5.26533">
        <ele>160.5</ele>
        <time>2013-01-19T14:36:26Z</time>
      </trkpt>
      <trkpt lat="50.47198" lon="5.26539">
        <ele>166.8</ele>
        <time>2013-01-19T14:36:32Z</time>
      </trkpt>
      <trkpt lat="50.47177" lon="5.26545">
        <ele>169.3</ele>
        <time>2013-01-19T14:36:38Z</time>
      </trkpt>
      <trkpt lat="50.47163" lon="5.2655">
        <ele>169.2</ele>
        <time>2013-01-19T14:36:43Z</time>
      </trkpt>
      <trkpt lat="50.4714" lon="5.26558">
        <ele>170.7</ele>
        <time>2013-01-19T14:36:51Z</time>
      </trkpt>
      <trkpt lat="50.4712" lon="5.26569">
        <ele>169.2</ele>
        <time>2013-01-19T14:36:59Z</time>
      </trkpt>
      <trkpt lat="50.471" lon="5.26581">
        <ele>169.3</ele>
        <time>2013-01-19T14:37:07Z</time>
      </trkpt>
      <trkpt lat="50.4708" lon="5.2659">
        <ele>169.1</ele>
        <time>2013-01-19T14:37:14Z</time>
      </trkpt>
      <trkpt lat="50.47058" lon="5.2661">
        <ele>171.6</ele>
        <time>2013-01-19T14:37:21Z</time>
      </trkpt>
      <trkpt lat="50.47038" lon="5.26625">
        <ele>173.6</ele>
        <time>2013-01-19T14:37:28Z</time>
      </trkpt>
      <trkpt lat="50.47016" lon="5.26638">
        <ele>175.3</ele>
        <time>2013-01-19T14:37:35Z</time>
      </trkpt>
      <trkpt lat="50.47002" lon="5.26648">
        <ele>173.6</ele>
        <time>2013-01-19T14:37:41Z</time>
      </trkpt>
      <trkpt lat="50.46983" lon="5.26665">
        <ele>172.5</ele>
        <time>2013-01-19T14:37:51Z</time>
      </trkpt>
      <trkpt lat="50.46965" lon="5.26686">
        <ele>175.8</ele>
        <time>2013-01-19T14:38:02Z</time>
      </trkpt>
      <trkpt lat="50.46948" lon="5.26693">
        <ele>176.2</ele>
        <time>2013-01-19T14:38:09Z</time>
      </trkpt>
      <trkpt lat="50.46939" lon="5.26705">
        <ele>177.3</ele>
        <time>2013-01-19T14:38:15Z</time>
      </trkpt>
      <trkpt lat="50.46923" lon="5.26725">
        <ele>177.5</ele>
        <time>2013-01-19T14:38:20Z</time>
      </trkpt>
      <trkpt lat="50.4691" lon="5.26747">
        <ele>175.7</ele>
        <time>2013-01-19T14:38:26Z</time>
      </trkpt>
      <trkpt lat="50.46901" lon="5.26764">
        <ele>176.9</ele>
        <time>2013-01-19T14:38:32Z</time>
      </trkpt>
      <trkpt lat="50.46889" lon="5.26786">
        <ele>177.7</ele>
        <time>2013-01-19T14:38:41Z</time>
      </trkpt>
      <trkpt lat="50.46858" lon="5.26825">
        <ele>176</ele>
        <time>2013-01-19T14:38:50Z</time>
      </trkpt>
      <trkpt lat="50.46838" lon="5.26856">
        <ele>175.9</ele>
        <time>2013-01-19T14:38:55Z</time>
      </trkpt>
      <trkpt lat="50.46811" lon="5.26891">
        <ele>179.5</ele>
        <time>2013-01-19T14:39:01Z</time>
      </trkpt>
      <trkpt lat="50.46795" lon="5.26914">
        <ele>179.7</ele>
        <time>2013-01-19T14:39:06Z</time>
      </trkpt>
      <trkpt lat="50.46784" lon="5.26929">
        <ele>180.7</ele>
        <time>2013-01-19T14:39:10Z</time>
      </trkpt>
      <trkpt lat="50.46768" lon="5.26955">
        <ele>184.2</ele>
        <time>2013-01-19T14:39:15Z</time>
      </trkpt>
      <trkpt lat="50.46758" lon="5.2697">
        <ele>184.6</ele>
        <time>2013-01-19T14:39:19Z</time>
      </trkpt>
      <trkpt lat="50.46749" lon="5.26986">
        <ele>185.3</ele>
        <time>2013-01-19T14:39:23Z</time>
      </trkpt>
      <trkpt lat="50.46732" lon="5.27015">
        <ele>185</ele>
        <time>2013-01-19T14:39:30Z</time>
      </trkpt>
      <trkpt lat="50.46715" lon="5.27039">
        <ele>185.5</ele>
        <time>2013-01-19T14:39:35Z</time>
      </trkpt>
      <trkpt lat="50.46696" lon="5.27071">
        <ele>186.7</ele>
        <time>2013-01-19T14:39:41Z</time>
      </trkpt>
      <trkpt lat="50.46679" lon="5.27095">
        <ele>189.1</ele>
        <time>2013-01-19T14:39:47Z</time>
      </trkpt>
      <trkpt lat="50.46665" lon="5.27107">
        <ele>191.3</ele>
        <time>2013-01-19T14:39:53Z</time>
      </trkpt>
      <trkpt lat="50.4665" lon="5.27121">
        <ele>191.5</ele>
        <time>2013-01-19T14:39:59Z</time>
      </trkpt>
      <trkpt lat="50.46634" lon="5.27149">
        <ele>191.6</ele>
        <time>2013-01-19T14:40:06Z</time>
      </trkpt>
      <trkpt lat="50.46614" lon="5.27186">
        <ele>192.4</ele>
        <time>2013-01-19T14:40:13Z</time>
      </trkpt>
      <trkpt lat="50.46604" lon="5.27202">
        <ele>191.9</ele>
        <time>2013-01-19T14:40:18Z</time>
      </trkpt>
      <trkpt lat="50.46586" lon="5.27218">
        <ele>189.3</ele>
        <time>2013-01-19T14:40:26Z</time>
      </trkpt>
      <trkpt lat="50.46567" lon="5.27247">
        <ele>190.9</ele>
        <time>2013-01-19T14:40:34Z</time>
      </trkpt>
      <trkpt lat="50.46551" lon="5.27284">
        <ele>192.3</ele>
        <time>2013-01-19T14:40:43Z</time>
      </trkpt>
      <trkpt lat="50.4654" lon="5.27301">
        <ele>193.7</ele>
        <time>2013-01-19T14:40:48Z</time>
      </trkpt>
      <trkpt lat="50.46525" lon="5.27319">
        <ele>193.4</ele>
        <time>2013-01-19T14:40:55Z</time>
      </trkpt>
      <trkpt lat="50.46505" lon="5.27349">
        <ele>195</ele>
        <time>2013-01-19T14:41:03Z</time>
      </trkpt>
      <trkpt lat="50.46485" lon="5.27371">
        <ele>195.7</ele>
        <time>2013-01-19T14:41:11Z</time>
      </trkpt>
      <trkpt lat="50.46467" lon="5.27388">
        <ele>193.8</ele>
        <time>2013-01-19T14:41:20Z</time>
      </trkpt>
      <trkpt lat="50.46452" lon="5.27403">
        <ele>192.9</ele>
        <time>2013-01-19T14:41:27Z</time>
      </trkpt>
      <trkpt lat="50.46431" lon="5.27425">
        <ele>190.9</ele>
        <time>2013-01-19T14:41:35Z</time>
      </trkpt>
      <trkpt lat="50.46412" lon="5.27453">
        <ele>190.1</ele>
        <time>2013-01-19T14:41:41Z</time>
      </trkpt>
      <trkpt lat="50.46397" lon="5.27484">
        <ele>190.8</ele>
        <time>2013-01-19T14:41:46Z</time>
      </trkpt>
      <trkpt lat="50.46377" lon="5.27515">
        <ele>192</ele>
        <time>2013-01-19T14:41:52Z</time>
      </trkpt>
      <trkpt lat="50.46359" lon="5.27541">
        <ele>195.5</ele>
        <time>2013-01-19T14:41:58Z</time>
      </trkpt>
      <trkpt lat="50.4634" lon="5.27565">
        <ele>195.8</ele>
        <time>2013-01-19T14:42:04Z</time>
      </trkpt>
      <trkpt lat="50.46323" lon="5.27579">
        <ele>195.9</ele>
        <time>2013-01-19T14:42:11Z</time>
      </trkpt>
      <trkpt lat="50.46295" lon="5.27603">
        <ele>194.6</ele>
        <time>2013-01-19T14:42:19Z</time>
      </trkpt>
      <trkpt lat="50.46274" lon="5.27626">
        <ele>194.4</ele>
        <time>2013-01-19T14:42:25Z</time>
      </trkpt>
      <trkpt lat="50.46257" lon="5.27647">
        <ele>194.7</ele>
        <time>2013-01-19T14:42:31Z</time>
      </trkpt>
      <trkpt lat="50.46239" lon="5.27663">
        <ele>194.6</ele>
        <time>2013-01-19T14:42:38Z</time>
      </trkpt>
      <trkpt lat="50.46219" lon="5.27686">
        <ele>195.3</ele>
        <time>2013-01-19T14:42:46Z</time>
      </trkpt>
      <trkpt lat="50.46203" lon="5.2772">
        <ele>192.2</ele>
        <time>2013-01-19T14:42:54Z</time>
      </trkpt>
      <trkpt lat="50.46189" lon="5.2775">
        <ele>192.7</ele>
        <time>2013-01-19T14:43:01Z</time>
      </trkpt>
      <trkpt lat="50.4618" lon="5.27778">
        <ele>191.5</ele>
        <time>2013-01-19T14:43:06Z</time>
      </trkpt>
      <trkpt lat="50.46171" lon="5.27804">
        <ele>191.7</ele>
        <time>2013-01-19T14:43:12Z</time>
      </trkpt>
      <trkpt lat="50.46163" lon="5.2784">
        <ele>196.3</ele>
        <time>2013-01-19T14:43:21Z</time>
      </trkpt>
      <trkpt lat="50.4616" lon="5.27868">
        <ele>194.8</ele>
        <time>2013-01-19T14:43:28Z</time>
      </trkpt>
      <trkpt lat="50.46157" lon="5.27886">
        <ele>195.8</ele>
        <time>2013-01-19T14:43:33Z</time>
      </trkpt>
      <trkpt lat="50.46147" lon="5.27914">
        <ele>196.6</ele>
        <time>2013-01-19T14:43:41Z</time>
      </trkpt>
      <trkpt lat="50.46136" lon="5.27948">
        <ele>194.7</ele>
        <time>2013-01-19T14:43:50Z</time>
      </trkpt>
      <trkpt lat="50.46124" lon="5.27971">
        <ele>193.6</ele>
        <time>2013-01-19T14:43:58Z</time>
      </trkpt>
      <trkpt lat="50.46109" lon="5.28001">
        <ele>195.1</ele>
        <time>2013-01-19T14:44:07Z</time>
      </trkpt>
      <trkpt lat="50.4609" lon="5.28035">
        <ele>196.7</ele>
        <time>2013-01-19T14:44:13Z</time>
      </trkpt>
      <trkpt lat="50.46076" lon="5.28058">
        <ele>195.6</ele>
        <time>2013-01-19T14:44:18Z</time>
      </trkpt>
      <trkpt lat="50.46062" lon="5.2808">
        <ele>199.1</ele>
        <time>2013-01-19T14:44:23Z</time>
      </trkpt>
      <trkpt lat="50.46047" lon="5.28106">
        <ele>201</ele>
        <time>2013-01-19T14:44:29Z</time>
      </trkpt>
      <trkpt lat="50.46035" lon="5.28131">
        <ele>202.1</ele>
        <time>2013-01-19T14:44:34Z</time>
      </trkpt>
      <trkpt lat="50.46023" lon="5.28156">
        <ele>202.7</ele>
        <time>2013-01-19T14:44:39Z</time>
      </trkpt>
      <trkpt lat="50.46008" lon="5.28184">
        <ele>204.5</ele>
        <time>2013-01-19T14:44:46Z</time>
      </trkpt>
      <trkpt lat="50.45985" lon="5.28218">
        <ele>205.7</ele>
        <time>2013-01-19T14:44:57Z</time>
      </trkpt>
      <trkpt lat="50.45978" lon="5.28243">
        <ele>209</ele>
        <time>2013-01-19T14:45:05Z</time>
      </trkpt>
      <trkpt lat="50.4596" lon="5.28262">
        <ele>209</ele>
        <time>2013-01-19T14:45:13Z</time>
      </trkpt>
      <trkpt lat="50.45943" lon="5.28276">
        <ele>208.9</ele>
        <time>2013-01-19T14:45:19Z</time>
      </trkpt>
      <trkpt lat="50.45924" lon="5.28292">
        <ele>208.3</ele>
        <time>2013-01-19T14:45:25Z</time>
      </trkpt>
      <trkpt lat="50.45902" lon="5.28314">
        <ele>206.5</ele>
        <time>2013-01-19T14:45:31Z</time>
      </trkpt>
      <trkpt lat="50.4588" lon="5.28332">
        <ele>198.6</ele>
        <time>2013-01-19T14:45:37Z</time>
      </trkpt>
      <trkpt lat="50.4586" lon="5.28353">
        <ele>196.1</ele>
        <time>2013-01-19T14:45:43Z</time>
      </trkpt>
      <trkpt lat="50.45838" lon="5.28365">
        <ele>182.1</ele>
        <time>2013-01-19T14:45:49Z</time>
      </trkpt>
      <trkpt lat="50.45811" lon="5.28368">
        <ele>170</ele>
        <time>2013-01-19T14:45:57Z</time>
      </trkpt>
      <trkpt lat="50.4579" lon="5.28363">
        <ele>170.1</ele>
        <time>2013-01-19T14:46:04Z</time>
      </trkpt>
      <trkpt lat="50.45772" lon="5.2836">
        <ele>168</ele>
        <time>2013-01-19T14:46:11Z</time>
      </trkpt>
      <trkpt lat="50.45757" lon="5.28358">
        <ele>167.6</ele>
        <time>2013-01-19T14:46:17Z</time>
      </trkpt>
      <trkpt lat="50.45733" lon="5.28352">
        <ele>166.5</ele>
        <time>2013-01-19T14:46:24Z</time>
      </trkpt>
      <trkpt lat="50.45711" lon="5.28351">
        <ele>165.6</ele>
        <time>2013-01-19T14:46:31Z</time>
      </trkpt>
      <trkpt lat="50.45692" lon="5.28342">
        <ele>165.7</ele>
        <time>2013-01-19T14:46:38Z</time>
      </trkpt>
      <trkpt lat="50.45668" lon="5.28328">
        <ele>167.3</ele>
        <time>2013-01-19T14:46:49Z</time>
      </trkpt>
      <trkpt lat="50.45654" lon="5.28317">
        <ele>168</ele>
        <time>2013-01-19T14:46:56Z</time>
      </trkpt>
      <trkpt lat="50.4564" lon="5.28298">
        <ele>167.7</ele>
        <time>2013-01-19T14:47:05Z</time>
      </trkpt>
      <trkpt lat="50.45629" lon="5.2828">
        <ele>167.9</ele>
        <time>2013-01-19T14:47:13Z</time>
      </trkpt>
      <trkpt lat="50.45619" lon="5.28261">
        <ele>168.1</ele>
        <time>2013-01-19T14:47:21Z</time>
      </trkpt>
      <trkpt lat="50.45606" lon="5.28246">
        <ele>169.2</ele>
        <time>2013-01-19T14:47:26Z</time>
      </trkpt>
      <trkpt lat="50.45591" lon="5.28228">
        <ele>169.1</ele>
        <time>2013-01-19T14:47:31Z</time>
      </trkpt>
      <trkpt lat="50.45575" lon="5.28204">
        <ele>168.3</ele>
        <time>2013-01-19T14:47:37Z</time>
      </trkpt>
      <trkpt lat="50.45561" lon="5.2817">
        <ele>168.5</ele>
        <time>2013-01-19T14:47:43Z</time>
      </trkpt>
      <trkpt lat="50.4555" lon="5.28139">
        <ele>168.6</ele>
        <time>2013-01-19T14:47:50Z</time>
      </trkpt>
      <trkpt lat="50.45544" lon="5.28123">
        <ele>169</ele>
        <time>2013-01-19T14:47:54Z</time>
      </trkpt>
      <trkpt lat="50.45533" lon="5.28109">
        <ele>168.5</ele>
        <time>2013-01-19T14:48:00Z</time>
      </trkpt>
      <trkpt lat="50.4552" lon="5.2809">
        <ele>168.3</ele>
        <time>2013-01-19T14:48:04Z</time>
      </trkpt>
      <trkpt lat="50.45511" lon="5.28053">
        <ele>168.9</ele>
        <time>2013-01-19T14:48:12Z</time>
      </trkpt>
      <trkpt lat="50.45508" lon="5.28011">
        <ele>169.4</ele>
        <time>2013-01-19T14:48:20Z</time>
      </trkpt>
      <trkpt lat="50.45499" lon="5.27972">
        <ele>170.4</ele>
        <time>2013-01-19T14:48:28Z</time>
      </trkpt>
      <trkpt lat="50.45488" lon="5.27936">
        <ele>170.1</ele>
        <time>2013-01-19T14:48:36Z</time>
      </trkpt>
      <trkpt lat="50.45478" lon="5.27906">
        <ele>170.4</ele>
        <time>2013-01-19T14:48:44Z</time>
      </trkpt>
      <trkpt lat="50.45442" lon="5.27857">
        <ele>167.8</ele>
        <time>2013-01-19T14:49:04Z</time>
      </trkpt>
      <trkpt lat="50.4541" lon="5.27826">
        <ele>162.9</ele>
        <time>2013-01-19T14:49:13Z</time>
      </trkpt>
      <trkpt lat="50.45387" lon="5.27811">
        <ele>163.9</ele>
        <time>2013-01-19T14:49:19Z</time>
      </trkpt>
      <trkpt lat="50.45365" lon="5.27801">
        <ele>166.2</ele>
        <time>2013-01-19T14:49:24Z</time>
      </trkpt>
      <trkpt lat="50.4534" lon="5.27795">
        <ele>169.5</ele>
        <time>2013-01-19T14:49:30Z</time>
      </trkpt>
      <trkpt lat="50.45328" lon="5.27793">
        <ele>169.5</ele>
        <time>2013-01-19T14:49:33Z</time>
      </trkpt>
      <trkpt lat="50.45313" lon="5.27787">
        <ele>169.2</ele>
        <time>2013-01-19T14:49:37Z</time>
      </trkpt>
      <trkpt lat="50.45299" lon="5.27786">
        <ele>170.5</ele>
        <time>2013-01-19T14:49:41Z</time>
      </trkpt>
      <trkpt lat="50.45276" lon="5.27777">
        <ele>171.6</ele>
        <time>2013-01-19T14:49:47Z</time>
      </trkpt>
      <trkpt lat="50.45255" lon="5.27772">
        <ele>171.2</ele>
        <time>2013-01-19T14:49:53Z</time>
      </trkpt>
      <trkpt lat="50.45237" lon="5.27768">
        <ele>173.9</ele>
        <time>2013-01-19T14:50:00Z</time>
      </trkpt>
      <trkpt lat="50.45212" lon="5.27767">
        <ele>175.1</ele>
        <time>2013-01-19T14:50:09Z</time>
      </trkpt>
      <trkpt lat="50.45196" lon="5.27772">
        <ele>175.6</ele>
        <time>2013-01-19T14:50:15Z</time>
      </trkpt>
      <trkpt lat="50.45172" lon="5.27784">
        <ele>174.7</ele>
        <time>2013-01-19T14:50:23Z</time>
      </trkpt>
      <trkpt lat="50.45158" lon="5.27793">
        <ele>175.6</ele>
        <time>2013-01-19T14:50:28Z</time>
      </trkpt>
      <trkpt lat="50.45132" lon="5.27821">
        <ele>179</ele>
        <time>2013-01-19T14:50:37Z</time>
      </trkpt>
      <trkpt lat="50.45118" lon="5.27836">
        <ele>178.6</ele>
        <time>2013-01-19T14:50:43Z</time>
      </trkpt>
      <trkpt lat="50.45103" lon="5.27856">
        <ele>178.5</ele>
        <time>2013-01-19T14:50:51Z</time>
      </trkpt>
      <trkpt lat="50.45086" lon="5.27871">
        <ele>178.9</ele>
        <time>2013-01-19T14:50:59Z</time>
      </trkpt>
      <trkpt lat="50.45068" lon="5.27897">
        <ele>185</ele>
        <time>2013-01-19T14:51:06Z</time>
      </trkpt>
      <trkpt lat="50.45053" lon="5.27915">
        <ele>184</ele>
        <time>2013-01-19T14:51:13Z</time>
      </trkpt>
      <trkpt lat="50.45037" lon="5.27946">
        <ele>183.9</ele>
        <time>2013-01-19T14:51:20Z</time>
      </trkpt>
      <trkpt lat="50.45024" lon="5.27978">
        <ele>187.6</ele>
        <time>2013-01-19T14:51:27Z</time>
      </trkpt>
      <trkpt lat="50.45018" lon="5.28001">
        <ele>188.7</ele>
        <time>2013-01-19T14:51:33Z</time>
      </trkpt>
      <trkpt lat="50.4501" lon="5.28038">
        <ele>188.9</ele>
        <time>2013-01-19T14:51:42Z</time>
      </trkpt>
      <trkpt lat="50.45003" lon="5.28079">
        <ele>188.5</ele>
        <time>2013-01-19T14:51:51Z</time>
      </trkpt>
      <trkpt lat="50.45" lon="5.28097">
        <ele>188.4</ele>
        <time>2013-01-19T14:51:57Z</time>
      </trkpt>
      <trkpt lat="50.45002" lon="5.28126">
        <ele>185.9</ele>
        <time>2013-01-19T14:52:04Z</time>
      </trkpt>
      <trkpt lat="50.45007" lon="5.28165">
        <ele>192.1</ele>
        <time>2013-01-19T14:52:11Z</time>
      </trkpt>
      <trkpt lat="50.45007" lon="5.28196">
        <ele>191.9</ele>
        <time>2013-01-19T14:52:17Z</time>
      </trkpt>
      <trkpt lat="50.45012" lon="5.28224">
        <ele>195.7</ele>
        <time>2013-01-19T14:52:24Z</time>
      </trkpt>
      <trkpt lat="50.45015" lon="5.28244">
        <ele>197</ele>
        <time>2013-01-19T14:52:29Z</time>
      </trkpt>
      <trkpt lat="50.45019" lon="5.28293">
        <ele>202.7</ele>
        <time>2013-01-19T14:52:37Z</time>
      </trkpt>
      <trkpt lat="50.45018" lon="5.28331">
        <ele>205.8</ele>
        <time>2013-01-19T14:52:43Z</time>
      </trkpt>
      <trkpt lat="50.4502" lon="5.28363">
        <ele>206.6</ele>
        <time>2013-01-19T14:52:50Z</time>
      </trkpt>
      <trkpt lat="50.4503" lon="5.2839">
        <ele>205.6</ele>
        <time>2013-01-19T14:52:56Z</time>
      </trkpt>
      <trkpt lat="50.45038" lon="5.28426">
        <ele>205.7</ele>
        <time>2013-01-19T14:53:04Z</time>
      </trkpt>
      <trkpt lat="50.4505" lon="5.28461">
        <ele>209.5</ele>
        <time>2013-01-19T14:53:12Z</time>
      </trkpt>
      <trkpt lat="50.45051" lon="5.28493">
        <ele>212.2</ele>
        <time>2013-01-19T14:53:17Z</time>
      </trkpt>
      <trkpt lat="50.45057" lon="5.28525">
        <ele>211.7</ele>
        <time>2013-01-19T14:53:24Z</time>
      </trkpt>
      <trkpt lat="50.45062" lon="5.28555">
        <ele>213.2</ele>
        <time>2013-01-19T14:53:31Z</time>
      </trkpt>
      <trkpt lat="50.45067" lon="5.28586">
        <ele>212.2</ele>
        <time>2013-01-19T14:53:37Z</time>
      </trkpt>
      <trkpt lat="50.45067" lon="5.2861">
        <ele>212.8</ele>
        <time>2013-01-19T14:53:45Z</time>
      </trkpt>
      <trkpt lat="50.45103" lon="5.286">
        <ele>215.6</ele>
        <time>2013-01-19T14:53:55Z</time>
      </trkpt>
      <trkpt lat="50.45108" lon="5.28608">
        <ele>223.5</ele>
        <time>2013-01-19T14:54:04Z</time>
      </trkpt>
      <trkpt lat="50.45108" lon="5.28608">
        <ele>223.5</ele>
        <time>2013-01-19T14:56:06Z</time>
      </trkpt>
      <trkpt lat="50.45117" lon="5.28603">
        <ele>226</ele>
        <time>2013-01-19T14:56:11Z</time>
      </trkpt>
      <trkpt lat="50.45117" lon="5.28603">
        <ele>226</ele>
        <time>2013-01-19T14:56:18Z</time>
      </trkpt>
      <trkpt lat="50.45117" lon="5.28603">
        <ele>183.5</ele>
        <time>2013-01-19T14:56:18Z</time>
      </trkpt>
      <trkpt lat="50.45117" lon="5.28603">
        <ele>183.5</ele>
        <time>2013-01-19T14:57:42Z</time>
      </trkpt>
      <trkpt lat="50.45126" lon="5.28588">
        <ele>225.5</ele>
        <time>2013-01-19T14:57:42Z</time>
      </trkpt>
      <trkpt lat="50.45135" lon="5.2854">
        <ele>225.1</ele>
        <time>2013-01-19T14:57:55Z</time>
      </trkpt>
      <trkpt lat="50.45143" lon="5.28517">
        <ele>221.6</ele>
        <time>2013-01-19T14:58:03Z</time>
      </trkpt>
      <trkpt lat="50.45144" lon="5.2851">
        <ele>219.7</ele>
        <time>2013-01-19T14:58:09Z</time>
      </trkpt>
      <trkpt lat="50.45144" lon="5.2851">
        <ele>183</ele>
        <time>2013-01-19T14:58:17Z</time>
      </trkpt>
      <trkpt lat="50.45144" lon="5.2851">
        <ele>183</ele>
        <time>2013-01-19T14:59:09Z</time>
      </trkpt>
      <trkpt lat="50.45165" lon="5.28508">
        <ele>218.8</ele>
        <time>2013-01-19T14:59:09Z</time>
      </trkpt>
      <trkpt lat="50.45183" lon="5.28525">
        <ele>224.8</ele>
        <time>2013-01-19T14:59:21Z</time>
      </trkpt>
      <trkpt lat="50.45196" lon="5.2854">
        <ele>224.9</ele>
        <time>2013-01-19T14:59:32Z</time>
      </trkpt>
      <trkpt lat="50.4521" lon="5.28555">
        <ele>223.4</ele>
        <time>2013-01-19T14:59:41Z</time>
      </trkpt>
      <trkpt lat="50.45223" lon="5.28573">
        <ele>223.7</ele>
        <time>2013-01-19T14:59:50Z</time>
      </trkpt>
      <trkpt lat="50.45243" lon="5.28595">
        <ele>222.4</ele>
        <time>2013-01-19T15:00:02Z</time>
      </trkpt>
      <trkpt lat="50.4525" lon="5.28607">
        <ele>222.2</ele>
        <time>2013-01-19T15:00:09Z</time>
      </trkpt>
      <trkpt lat="50.45269" lon="5.2862">
        <ele>226.1</ele>
        <time>2013-01-19T15:00:20Z</time>
      </trkpt>
      <trkpt lat="50.45289" lon="5.28626">
        <ele>226.6</ele>
        <time>2013-01-19T15:00:29Z</time>
      </trkpt>
      <trkpt lat="50.45295" lon="5.28628">
        <ele>227.5</ele>
        <time>2013-01-19T15:00:32Z</time>
      </trkpt>
      <trkpt lat="50.45295" lon="5.28628">
        <ele>201.1</ele>
        <time>2013-01-19T15:00:37Z</time>
      </trkpt>
      <trkpt lat="50.45295" lon="5.28628">
        <ele>201.1</ele>
        <time>2013-01-19T15:00:53Z</time>
      </trkpt>
      <trkpt lat="50.4531" lon="5.28645">
        <ele>227.4</ele>
        <time>2013-01-19T15:00:53Z</time>
      </trkpt>
      <trkpt lat="50.45341" lon="5.28659">
        <ele>229.6</ele>
        <time>2013-01-19T15:01:12Z</time>
      </trkpt>
      <trkpt lat="50.4536" lon="5.28668">
        <ele>231.5</ele>
        <time>2013-01-19T15:01:19Z</time>
      </trkpt>
      <trkpt lat="50.45373" lon="5.28677">
        <ele>234.1</ele>
        <time>2013-01-19T15:01:24Z</time>
      </trkpt>
      <trkpt lat="50.4539" lon="5.2869">
        <ele>235.7</ele>
        <time>2013-01-19T15:01:32Z</time>
      </trkpt>
      <trkpt lat="50.45394" lon="5.28703">
        <ele>237.8</ele>
        <time>2013-01-19T15:01:40Z</time>
      </trkpt>
      <trkpt lat="50.45406" lon="5.28724">
        <ele>239.5</ele>
        <time>2013-01-19T15:01:52Z</time>
      </trkpt>
      <trkpt lat="50.45424" lon="5.28748">
        <ele>239.2</ele>
        <time>2013-01-19T15:02:07Z</time>
      </trkpt>
      <trkpt lat="50.45435" lon="5.28769">
        <ele>238.3</ele>
        <time>2013-01-19T15:02:20Z</time>
      </trkpt>
      <trkpt lat="50.45452" lon="5.28779">
        <ele>236.8</ele>
        <time>2013-01-19T15:02:30Z</time>
      </trkpt>
      <trkpt lat="50.45467" lon="5.28793">
        <ele>240</ele>
        <time>2013-01-19T15:02:42Z</time>
      </trkpt>
      <trkpt lat="50.45477" lon="5.28818">
        <ele>242.2</ele>
        <time>2013-01-19T15:02:57Z</time>
      </trkpt>
      <trkpt lat="50.45477" lon="5.28818">
        <ele>242.2</ele>
        <time>2013-01-19T15:03:04Z</time>
      </trkpt>
      <trkpt lat="50.45477" lon="5.28818">
        <ele>218.7</ele>
        <time>2013-01-19T15:03:04Z</time>
      </trkpt>
      <trkpt lat="50.45477" lon="5.28818">
        <ele>218.7</ele>
        <time>2013-01-19T15:03:20Z</time>
      </trkpt>
      <trkpt lat="50.45492" lon="5.28834">
        <ele>246</ele>
        <time>2013-01-19T15:03:20Z</time>
      </trkpt>
      <trkpt lat="50.45504" lon="5.28844">
        <ele>248.9</ele>
        <time>2013-01-19T15:03:32Z</time>
      </trkpt>
      <trkpt lat="50.45533" lon="5.28902">
        <ele>251.6</ele>
        <time>2013-01-19T15:03:48Z</time>
      </trkpt>
      <trkpt lat="50.4554" lon="5.28932">
        <ele>249</ele>
        <time>2013-01-19T15:03:57Z</time>
      </trkpt>
      <trkpt lat="50.45546" lon="5.28956">
        <ele>246.4</ele>
        <time>2013-01-19T15:04:05Z</time>
      </trkpt>
      <trkpt lat="50.45557" lon="5.28968">
        <ele>244.4</ele>
        <time>2013-01-19T15:04:12Z</time>
      </trkpt>
      <trkpt lat="50.45559" lon="5.29009">
        <ele>248.5</ele>
        <time>2013-01-19T15:04:23Z</time>
      </trkpt>
      <trkpt lat="50.45561" lon="5.29038">
        <ele>251.1</ele>
        <time>2013-01-19T15:04:31Z</time>
      </trkpt>
      <trkpt lat="50.45569" lon="5.29058">
        <ele>251.1</ele>
        <time>2013-01-19T15:04:38Z</time>
      </trkpt>
      <trkpt lat="50.45577" lon="5.29077">
        <ele>252.5</ele>
        <time>2013-01-19T15:04:45Z</time>
      </trkpt>
      <trkpt lat="50.45576" lon="5.29114">
        <ele>251</ele>
        <time>2013-01-19T15:04:54Z</time>
      </trkpt>
      <trkpt lat="50.45576" lon="5.29156">
        <ele>253.4</ele>
        <time>2013-01-19T15:05:05Z</time>
      </trkpt>
      <trkpt lat="50.45578" lon="5.29179">
        <ele>255.4</ele>
        <time>2013-01-19T15:05:12Z</time>
      </trkpt>
      <trkpt lat="50.45585" lon="5.29219">
        <ele>255</ele>
        <time>2013-01-19T15:05:21Z</time>
      </trkpt>
      <trkpt lat="50.45586" lon="5.29246">
        <ele>260.9</ele>
        <time>2013-01-19T15:05:26Z</time>
      </trkpt>
      <trkpt lat="50.45589" lon="5.29281">
        <ele>261.1</ele>
        <time>2013-01-19T15:05:32Z</time>
      </trkpt>
      <trkpt lat="50.45592" lon="5.29312">
        <ele>260.9</ele>
        <time>2013-01-19T15:05:38Z</time>
      </trkpt>
      <trkpt lat="50.45597" lon="5.29339">
        <ele>264.9</ele>
        <time>2013-01-19T15:05:44Z</time>
      </trkpt>
      <trkpt lat="50.45597" lon="5.29376">
        <ele>264.7</ele>
        <time>2013-01-19T15:05:54Z</time>
      </trkpt>
      <trkpt lat="50.4559" lon="5.2941">
        <ele>265.4</ele>
        <time>2013-01-19T15:06:09Z</time>
      </trkpt>
      <trkpt lat="50.45581" lon="5.29447">
        <ele>262.9</ele>
        <time>2013-01-19T15:06:22Z</time>
      </trkpt>
      <trkpt lat="50.45574" lon="5.29477">
        <ele>259.7</ele>
        <time>2013-01-19T15:06:32Z</time>
      </trkpt>
      <trkpt lat="50.45567" lon="5.29511">
        <ele>260.2</ele>
        <time>2013-01-19T15:06:44Z</time>
      </trkpt>
      <trkpt lat="50.45564" lon="5.29535">
        <ele>261</ele>
        <time>2013-01-19T15:06:54Z</time>
      </trkpt>
      <trkpt lat="50.45558" lon="5.29574">
        <ele>261.8</ele>
        <time>2013-01-19T15:07:07Z</time>
      </trkpt>
      <trkpt lat="50.45556" lon="5.29594">
        <ele>263</ele>
        <time>2013-01-19T15:07:17Z</time>
      </trkpt>
      <trkpt lat="50.45546" lon="5.29631">
        <ele>267.3</ele>
        <time>2013-01-19T15:07:32Z</time>
      </trkpt>
      <trkpt lat="50.45541" lon="5.29652">
        <ele>268.2</ele>
        <time>2013-01-19T15:07:41Z</time>
      </trkpt>
      <trkpt lat="50.45536" lon="5.29678">
        <ele>270</ele>
        <time>2013-01-19T15:07:51Z</time>
      </trkpt>
      <trkpt lat="50.45533" lon="5.29698">
        <ele>274.2</ele>
        <time>2013-01-19T15:08:01Z</time>
      </trkpt>
      <trkpt lat="50.45536" lon="5.29724">
        <ele>278.9</ele>
        <time>2013-01-19T15:08:13Z</time>
      </trkpt>
      <trkpt lat="50.45546" lon="5.29764">
        <ele>279.7</ele>
        <time>2013-01-19T15:08:28Z</time>
      </trkpt>
      <trkpt lat="50.45555" lon="5.29794">
        <ele>280.6</ele>
        <time>2013-01-19T15:08:37Z</time>
      </trkpt>
      <trkpt lat="50.45563" lon="5.29817">
        <ele>283.4</ele>
        <time>2013-01-19T15:08:47Z</time>
      </trkpt>
      <trkpt lat="50.45568" lon="5.29834">
        <ele>285.1</ele>
        <time>2013-01-19T15:08:53Z</time>
      </trkpt>
      <trkpt lat="50.45577" lon="5.29867">
        <ele>283.7</ele>
        <time>2013-01-19T15:09:06Z</time>
      </trkpt>
      <trkpt lat="50.45585" lon="5.29885">
        <ele>283.2</ele>
        <time>2013-01-19T15:09:15Z</time>
      </trkpt>
      <trkpt lat="50.45596" lon="5.29915">
        <ele>282</ele>
        <time>2013-01-19T15:09:27Z</time>
      </trkpt>
      <trkpt lat="50.45599" lon="5.29954">
        <ele>285.3</ele>
        <time>2013-01-19T15:09:36Z</time>
      </trkpt>
      <trkpt lat="50.456" lon="5.29983">
        <ele>288.1</ele>
        <time>2013-01-19T15:09:42Z</time>
      </trkpt>
      <trkpt lat="50.45604" lon="5.3002">
        <ele>289</ele>
        <time>2013-01-19T15:09:50Z</time>
      </trkpt>
      <trkpt lat="50.45607" lon="5.30043">
        <ele>288.1</ele>
        <time>2013-01-19T15:09:55Z</time>
      </trkpt>
      <trkpt lat="50.45614" lon="5.30066">
        <ele>287.7</ele>
        <time>2013-01-19T15:10:01Z</time>
      </trkpt>
      <trkpt lat="50.4562" lon="5.30089">
        <ele>286.3</ele>
        <time>2013-01-19T15:10:08Z</time>
      </trkpt>
      <trkpt lat="50.45633" lon="5.30122">
        <ele>288</ele>
        <time>2013-01-19T15:10:18Z</time>
      </trkpt>
      <trkpt lat="50.45641" lon="5.30149">
        <ele>289</ele>
        <time>2013-01-19T15:10:25Z</time>
      </trkpt>
      <trkpt lat="50.45652" lon="5.30181">
        <ele>289.9</ele>
        <time>2013-01-19T15:10:34Z</time>
      </trkpt>
      <trkpt lat="50.4566" lon="5.30193">
        <ele>289.4</ele>
        <time>2013-01-19T15:10:39Z</time>
      </trkpt>
      <trkpt lat="50.45664" lon="5.30223">
        <ele>291.8</ele>
        <time>2013-01-19T15:10:46Z</time>
      </trkpt>
      <trkpt lat="50.45666" lon="5.30255">
        <ele>295.1</ele>
        <time>2013-01-19T15:10:53Z</time>
      </trkpt>
      <trkpt lat="50.45675" lon="5.30279">
        <ele>296.2</ele>
        <time>2013-01-19T15:11:01Z</time>
      </trkpt>
      <trkpt lat="50.45685" lon="5.30311">
        <ele>297.3</ele>
        <time>2013-01-19T15:11:11Z</time>
      </trkpt>
      <trkpt lat="50.45692" lon="5.30329">
        <ele>298.8</ele>
        <time>2013-01-19T15:11:18Z</time>
      </trkpt>
      <trkpt lat="50.45702" lon="5.30363">
        <ele>297.7</ele>
        <time>2013-01-19T15:11:28Z</time>
      </trkpt>
      <trkpt lat="50.45705" lon="5.30383">
        <ele>297.2</ele>
        <time>2013-01-19T15:11:33Z</time>
      </trkpt>
      <trkpt lat="50.45712" lon="5.30415">
        <ele>294.8</ele>
        <time>2013-01-19T15:11:42Z</time>
      </trkpt>
      <trkpt lat="50.45717" lon="5.30429">
        <ele>292.3</ele>
        <time>2013-01-19T15:11:47Z</time>
      </trkpt>
      <trkpt lat="50.45729" lon="5.30459">
        <ele>290.9</ele>
        <time>2013-01-19T15:11:58Z</time>
      </trkpt>
      <trkpt lat="50.45738" lon="5.305">
        <ele>290.7</ele>
        <time>2013-01-19T15:12:07Z</time>
      </trkpt>
      <trkpt lat="50.45739" lon="5.30535">
        <ele>291.9</ele>
        <time>2013-01-19T15:12:14Z</time>
      </trkpt>
      <trkpt lat="50.45741" lon="5.30565">
        <ele>292.3</ele>
        <time>2013-01-19T15:12:19Z</time>
      </trkpt>
      <trkpt lat="50.45751" lon="5.30585">
        <ele>292.7</ele>
        <time>2013-01-19T15:12:26Z</time>
      </trkpt>
      <trkpt lat="50.45753" lon="5.30623">
        <ele>293.1</ele>
        <time>2013-01-19T15:12:35Z</time>
      </trkpt>
      <trkpt lat="50.45761" lon="5.30662">
        <ele>293.7</ele>
        <time>2013-01-19T15:12:45Z</time>
      </trkpt>
      <trkpt lat="50.45764" lon="5.30712">
        <ele>295.7</ele>
        <time>2013-01-19T15:12:53Z</time>
      </trkpt>
      <trkpt lat="50.45768" lon="5.30742">
        <ele>293.4</ele>
        <time>2013-01-19T15:12:58Z</time>
      </trkpt>
      <trkpt lat="50.45775" lon="5.3077">
        <ele>292.7</ele>
        <time>2013-01-19T15:13:04Z</time>
      </trkpt>
      <trkpt lat="50.45783" lon="5.3079">
        <ele>290.7</ele>
        <time>2013-01-19T15:13:13Z</time>
      </trkpt>
      <trkpt lat="50.45793" lon="5.30837">
        <ele>292</ele>
        <time>2013-01-19T15:13:23Z</time>
      </trkpt>
      <trkpt lat="50.45799" lon="5.30867">
        <ele>293.1</ele>
        <time>2013-01-19T15:13:29Z</time>
      </trkpt>
      <trkpt lat="50.45802" lon="5.30914">
        <ele>294.9</ele>
        <time>2013-01-19T15:13:36Z</time>
      </trkpt>
      <trkpt lat="50.45809" lon="5.30948">
        <ele>298.8</ele>
        <time>2013-01-19T15:13:42Z</time>
      </trkpt>
      <trkpt lat="50.45821" lon="5.30979">
        <ele>301</ele>
        <time>2013-01-19T15:13:49Z</time>
      </trkpt>
      <trkpt lat="50.4583" lon="5.31015">
        <ele>304.2</ele>
        <time>2013-01-19T15:13:57Z</time>
      </trkpt>
      <trkpt lat="50.45847" lon="5.31038">
        <ele>301.8</ele>
        <time>2013-01-19T15:14:05Z</time>
      </trkpt>
      <trkpt lat="50.45868" lon="5.31049">
        <ele>300.9</ele>
        <time>2013-01-19T15:14:14Z</time>
      </trkpt>
      <trkpt lat="50.45888" lon="5.31062">
        <ele>300.6</ele>
        <time>2013-01-19T15:14:21Z</time>
      </trkpt>
      <trkpt lat="50.45898" lon="5.31095">
        <ele>298.7</ele>
        <time>2013-01-19T15:14:29Z</time>
      </trkpt>
      <trkpt lat="50.45906" lon="5.31128">
        <ele>297.4</ele>
        <time>2013-01-19T15:14:36Z</time>
      </trkpt>
      <trkpt lat="50.45911" lon="5.31153">
        <ele>297</ele>
        <time>2013-01-19T15:14:41Z</time>
      </trkpt>
      <trkpt lat="50.45922" lon="5.31178">
        <ele>297.4</ele>
        <time>2013-01-19T15:14:48Z</time>
      </trkpt>
      <trkpt lat="50.45904" lon="5.3121">
        <ele>299.3</ele>
        <time>2013-01-19T15:15:49Z</time>
      </trkpt>
      <trkpt lat="50.45881" lon="5.31228">
        <ele>297</ele>
        <time>2013-01-19T15:15:55Z</time>
      </trkpt>
      <trkpt lat="50.45864" lon="5.31235">
        <ele>298.5</ele>
        <time>2013-01-19T15:16:02Z</time>
      </trkpt>
      <trkpt lat="50.45844" lon="5.3123">
        <ele>300.7</ele>
        <time>2013-01-19T15:16:10Z</time>
      </trkpt>
      <trkpt lat="50.45822" lon="5.31227">
        <ele>300.2</ele>
        <time>2013-01-19T15:16:18Z</time>
      </trkpt>
      <trkpt lat="50.45806" lon="5.31221">
        <ele>299.5</ele>
        <time>2013-01-19T15:16:24Z</time>
      </trkpt>
      <trkpt lat="50.45791" lon="5.31218">
        <ele>300</ele>
        <time>2013-01-19T15:16:29Z</time>
      </trkpt>
      <trkpt lat="50.45773" lon="5.31222">
        <ele>302.8</ele>
        <time>2013-01-19T15:16:42Z</time>
      </trkpt>
      <trkpt lat="50.45753" lon="5.31216">
        <ele>300.8</ele>
        <time>2013-01-19T15:16:50Z</time>
      </trkpt>
      <trkpt lat="50.45736" lon="5.31212">
        <ele>302.5</ele>
        <time>2013-01-19T15:16:57Z</time>
      </trkpt>
      <trkpt lat="50.45712" lon="5.31208">
        <ele>301.7</ele>
        <time>2013-01-19T15:17:04Z</time>
      </trkpt>
      <trkpt lat="50.45695" lon="5.31205">
        <ele>302.1</ele>
        <time>2013-01-19T15:17:10Z</time>
      </trkpt>
      <trkpt lat="50.45669" lon="5.31189">
        <ele>302.3</ele>
        <time>2013-01-19T15:17:19Z</time>
      </trkpt>
      <trkpt lat="50.45642" lon="5.31182">
        <ele>299.8</ele>
        <time>2013-01-19T15:17:27Z</time>
      </trkpt>
      <trkpt lat="50.45614" lon="5.31177">
        <ele>299.6</ele>
        <time>2013-01-19T15:17:34Z</time>
      </trkpt>
      <trkpt lat="50.45587" lon="5.31172">
        <ele>298.3</ele>
        <time>2013-01-19T15:17:40Z</time>
      </trkpt>
      <trkpt lat="50.45563" lon="5.31172">
        <ele>296.6</ele>
        <time>2013-01-19T15:17:46Z</time>
      </trkpt>
      <trkpt lat="50.4554" lon="5.3117">
        <ele>295.7</ele>
        <time>2013-01-19T15:17:51Z</time>
      </trkpt>
      <trkpt lat="50.45528" lon="5.31166">
        <ele>296</ele>
        <time>2013-01-19T15:17:54Z</time>
      </trkpt>
      <trkpt lat="50.45518" lon="5.31162">
        <ele>297.3</ele>
        <time>2013-01-19T15:17:57Z</time>
      </trkpt>
      <trkpt lat="50.45491" lon="5.31154">
        <ele>298.2</ele>
        <time>2013-01-19T15:18:05Z</time>
      </trkpt>
      <trkpt lat="50.45467" lon="5.31151">
        <ele>297.1</ele>
        <time>2013-01-19T15:18:12Z</time>
      </trkpt>
      <trkpt lat="50.45459" lon="5.3115">
        <ele>296.6</ele>
        <time>2013-01-19T15:18:15Z</time>
      </trkpt>
      <trkpt lat="50.45442" lon="5.31147">
        <ele>297.8</ele>
        <time>2013-01-19T15:18:24Z</time>
      </trkpt>
      <trkpt lat="50.45439" lon="5.31148">
        <ele>296.7</ele>
        <time>2013-01-19T15:18:26Z</time>
      </trkpt>
      <trkpt lat="50.45439" lon="5.31148">
        <ele>250.9</ele>
        <time>2013-01-19T15:18:31Z</time>
      </trkpt>
      <trkpt lat="50.45439" lon="5.31148">
        <ele>250.9</ele>
        <time>2013-01-19T15:20:15Z</time>
      </trkpt>
      <trkpt lat="50.4545" lon="5.31171">
        <ele>292</ele>
        <time>2013-01-19T15:20:15Z</time>
      </trkpt>
      <trkpt lat="50.4548" lon="5.31165">
        <ele>293.8</ele>
        <time>2013-01-19T15:20:23Z</time>
      </trkpt>
      <trkpt lat="50.455" lon="5.31167">
        <ele>293.8</ele>
        <time>2013-01-19T15:20:31Z</time>
      </trkpt>
      <trkpt lat="50.45517" lon="5.31167">
        <ele>294.9</ele>
        <time>2013-01-19T15:20:36Z</time>
      </trkpt>
      <trkpt lat="50.45533" lon="5.31164">
        <ele>294.5</ele>
        <time>2013-01-19T15:20:41Z</time>
      </trkpt>
      <trkpt lat="50.45548" lon="5.31164">
        <ele>294.7</ele>
        <time>2013-01-19T15:20:46Z</time>
      </trkpt>
      <trkpt lat="50.45564" lon="5.31168">
        <ele>294.7</ele>
        <time>2013-01-19T15:20:52Z</time>
      </trkpt>
      <trkpt lat="50.45587" lon="5.31169">
        <ele>294.1</ele>
        <time>2013-01-19T15:20:59Z</time>
      </trkpt>
      <trkpt lat="50.456" lon="5.31173">
        <ele>295.3</ele>
        <time>2013-01-19T15:21:03Z</time>
      </trkpt>
      <trkpt lat="50.45606" lon="5.31175">
        <ele>295.8</ele>
        <time>2013-01-19T15:21:06Z</time>
      </trkpt>
      <trkpt lat="50.45616" lon="5.31177">
        <ele>295.4</ele>
        <time>2013-01-19T15:21:10Z</time>
      </trkpt>
      <trkpt lat="50.45632" lon="5.3118">
        <ele>297.3</ele>
        <time>2013-01-19T15:21:17Z</time>
      </trkpt>
      <trkpt lat="50.45657" lon="5.31185">
        <ele>298.5</ele>
        <time>2013-01-19T15:21:28Z</time>
      </trkpt>
      <trkpt lat="50.45676" lon="5.31196">
        <ele>298.9</ele>
        <time>2013-01-19T15:21:40Z</time>
      </trkpt>
      <trkpt lat="50.45693" lon="5.31197">
        <ele>300.9</ele>
        <time>2013-01-19T15:21:48Z</time>
      </trkpt>
      <trkpt lat="50.45705" lon="5.31202">
        <ele>300.3</ele>
        <time>2013-01-19T15:21:58Z</time>
      </trkpt>
      <trkpt lat="50.45733" lon="5.31202">
        <ele>301.6</ele>
        <time>2013-01-19T15:22:14Z</time>
      </trkpt>
      <trkpt lat="50.45754" lon="5.31203">
        <ele>302</ele>
        <time>2013-01-19T15:22:25Z</time>
      </trkpt>
      <trkpt lat="50.45766" lon="5.31203">
        <ele>303.6</ele>
        <time>2013-01-19T15:22:31Z</time>
      </trkpt>
      <trkpt lat="50.45784" lon="5.31208">
        <ele>307.6</ele>
        <time>2013-01-19T15:22:43Z</time>
      </trkpt>
      <trkpt lat="50.45817" lon="5.31219">
        <ele>312.2</ele>
        <time>2013-01-19T15:23:00Z</time>
      </trkpt>
      <trkpt lat="50.45836" lon="5.31224">
        <ele>313.7</ele>
        <time>2013-01-19T15:23:11Z</time>
      </trkpt>
      <trkpt lat="50.45849" lon="5.31224">
        <ele>312.4</ele>
        <time>2013-01-19T15:23:18Z</time>
      </trkpt>
      <trkpt lat="50.45868" lon="5.31224">
        <ele>311.4</ele>
        <time>2013-01-19T15:23:26Z</time>
      </trkpt>
      <trkpt lat="50.45894" lon="5.31226">
        <ele>312.5</ele>
        <time>2013-01-19T15:23:35Z</time>
      </trkpt>
      <trkpt lat="50.45916" lon="5.31229">
        <ele>310.7</ele>
        <time>2013-01-19T15:23:44Z</time>
      </trkpt>
      <trkpt lat="50.45936" lon="5.31264">
        <ele>315.4</ele>
        <time>2013-01-19T15:23:55Z</time>
      </trkpt>
      <trkpt lat="50.45949" lon="5.31298">
        <ele>315.4</ele>
        <time>2013-01-19T15:24:02Z</time>
      </trkpt>
      <trkpt lat="50.45961" lon="5.31333">
        <ele>315.3</ele>
        <time>2013-01-19T15:24:09Z</time>
      </trkpt>
      <trkpt lat="50.4597" lon="5.31357">
        <ele>316</ele>
        <time>2013-01-19T15:24:15Z</time>
      </trkpt>
      <trkpt lat="50.45982" lon="5.31385">
        <ele>316.3</ele>
        <time>2013-01-19T15:24:21Z</time>
      </trkpt>
      <trkpt lat="50.45992" lon="5.31411">
        <ele>317</ele>
        <time>2013-01-19T15:24:26Z</time>
      </trkpt>
      <trkpt lat="50.46" lon="5.31454">
        <ele>316.9</ele>
        <time>2013-01-19T15:24:33Z</time>
      </trkpt>
      <trkpt lat="50.4601" lon="5.31482">
        <ele>316.1</ele>
        <time>2013-01-19T15:24:39Z</time>
      </trkpt>
      <trkpt lat="50.46025" lon="5.31519">
        <ele>316.4</ele>
        <time>2013-01-19T15:24:48Z</time>
      </trkpt>
      <trkpt lat="50.46039" lon="5.3155">
        <ele>319.7</ele>
        <time>2013-01-19T15:24:56Z</time>
      </trkpt>
      <trkpt lat="50.46048" lon="5.31582">
        <ele>319.1</ele>
        <time>2013-01-19T15:25:02Z</time>
      </trkpt>
      <trkpt lat="50.46058" lon="5.31623">
        <ele>319.9</ele>
        <time>2013-01-19T15:25:10Z</time>
      </trkpt>
      <trkpt lat="50.46071" lon="5.31656">
        <ele>321.7</ele>
        <time>2013-01-19T15:25:17Z</time>
      </trkpt>
      <trkpt lat="50.46088" lon="5.31685">
        <ele>321.3</ele>
        <time>2013-01-19T15:25:24Z</time>
      </trkpt>
      <trkpt lat="50.46097" lon="5.3172">
        <ele>322.4</ele>
        <time>2013-01-19T15:25:30Z</time>
      </trkpt>
      <trkpt lat="50.46107" lon="5.31746">
        <ele>323</ele>
        <time>2013-01-19T15:25:35Z</time>
      </trkpt>
      <trkpt lat="50.4612" lon="5.31776">
        <ele>323.7</ele>
        <time>2013-01-19T15:25:41Z</time>
      </trkpt>
      <trkpt lat="50.46137" lon="5.31818">
        <ele>323.7</ele>
        <time>2013-01-19T15:25:49Z</time>
      </trkpt>
      <trkpt lat="50.4615" lon="5.31845">
        <ele>323.1</ele>
        <time>2013-01-19T15:25:54Z</time>
      </trkpt>
      <trkpt lat="50.46161" lon="5.3188">
        <ele>321.6</ele>
        <time>2013-01-19T15:26:00Z</time>
      </trkpt>
      <trkpt lat="50.46172" lon="5.31916">
        <ele>322.9</ele>
        <time>2013-01-19T15:26:06Z</time>
      </trkpt>
      <trkpt lat="50.46181" lon="5.31945">
        <ele>321.7</ele>
        <time>2013-01-19T15:26:11Z</time>
      </trkpt>
      <trkpt lat="50.46191" lon="5.31982">
        <ele>323.5</ele>
        <time>2013-01-19T15:26:17Z</time>
      </trkpt>
      <trkpt lat="50.46201" lon="5.32014">
        <ele>324.3</ele>
        <time>2013-01-19T15:26:23Z</time>
      </trkpt>
      <trkpt lat="50.46217" lon="5.32055">
        <ele>323.5</ele>
        <time>2013-01-19T15:26:31Z</time>
      </trkpt>
      <trkpt lat="50.46229" lon="5.32083">
        <ele>324.1</ele>
        <time>2013-01-19T15:26:37Z</time>
      </trkpt>
      <trkpt lat="50.46248" lon="5.32116">
        <ele>324.5</ele>
        <time>2013-01-19T15:26:45Z</time>
      </trkpt>
      <trkpt lat="50.46262" lon="5.32146">
        <ele>323.4</ele>
        <time>2013-01-19T15:26:51Z</time>
      </trkpt>
      <trkpt lat="50.46276" lon="5.32176">
        <ele>322.5</ele>
        <time>2013-01-19T15:26:57Z</time>
      </trkpt>
      <trkpt lat="50.46291" lon="5.32194">
        <ele>323.6</ele>
        <time>2013-01-19T15:27:02Z</time>
      </trkpt>
      <trkpt lat="50.46303" lon="5.32232">
        <ele>323.7</ele>
        <time>2013-01-19T15:27:09Z</time>
      </trkpt>
      <trkpt lat="50.46311" lon="5.32267">
        <ele>323.9</ele>
        <time>2013-01-19T15:27:15Z</time>
      </trkpt>
      <trkpt lat="50.46319" lon="5.32304">
        <ele>325.9</ele>
        <time>2013-01-19T15:27:21Z</time>
      </trkpt>
      <trkpt lat="50.46326" lon="5.32325">
        <ele>328.7</ele>
        <time>2013-01-19T15:27:26Z</time>
      </trkpt>
      <trkpt lat="50.46336" lon="5.3236">
        <ele>327.9</ele>
        <time>2013-01-19T15:27:33Z</time>
      </trkpt>
      <trkpt lat="50.46349" lon="5.324">
        <ele>328.5</ele>
        <time>2013-01-19T15:27:41Z</time>
      </trkpt>
      <trkpt lat="50.4636" lon="5.32421">
        <ele>329.3</ele>
        <time>2013-01-19T15:27:46Z</time>
      </trkpt>
      <trkpt lat="50.46375" lon="5.32445">
        <ele>327.6</ele>
        <time>2013-01-19T15:27:52Z</time>
      </trkpt>
      <trkpt lat="50.46387" lon="5.32478">
        <ele>326.2</ele>
        <time>2013-01-19T15:28:00Z</time>
      </trkpt>
      <trkpt lat="50.4637" lon="5.3251">
        <ele>324.7</ele>
        <time>2013-01-19T15:28:08Z</time>
      </trkpt>
      <trkpt lat="50.46353" lon="5.3253">
        <ele>323.5</ele>
        <time>2013-01-19T15:28:13Z</time>
      </trkpt>
      <trkpt lat="50.46335" lon="5.32556">
        <ele>323</ele>
        <time>2013-01-19T15:28:18Z</time>
      </trkpt>
      <trkpt lat="50.46311" lon="5.32598">
        <ele>322</ele>
        <time>2013-01-19T15:28:24Z</time>
      </trkpt>
      <trkpt lat="50.46301" lon="5.3263">
        <ele>322.1</ele>
        <time>2013-01-19T15:28:29Z</time>
      </trkpt>
      <trkpt lat="50.46316" lon="5.3267">
        <ele>322</ele>
        <time>2013-01-19T15:28:36Z</time>
      </trkpt>
      <trkpt lat="50.46327" lon="5.32695">
        <ele>321.3</ele>
        <time>2013-01-19T15:28:41Z</time>
      </trkpt>
      <trkpt lat="50.46339" lon="5.32715">
        <ele>321.2</ele>
        <time>2013-01-19T15:28:46Z</time>
      </trkpt>
      <trkpt lat="50.46357" lon="5.32737">
        <ele>321.1</ele>
        <time>2013-01-19T15:28:52Z</time>
      </trkpt>
      <trkpt lat="50.46374" lon="5.32755">
        <ele>319.9</ele>
        <time>2013-01-19T15:28:57Z</time>
      </trkpt>
      <trkpt lat="50.46395" lon="5.32775">
        <ele>319.4</ele>
        <time>2013-01-19T15:29:03Z</time>
      </trkpt>
      <trkpt lat="50.46409" lon="5.32786">
        <ele>318.6</ele>
        <time>2013-01-19T15:29:07Z</time>
      </trkpt>
      <trkpt lat="50.46425" lon="5.32802">
        <ele>317.6</ele>
        <time>2013-01-19T15:29:12Z</time>
      </trkpt>
      <trkpt lat="50.46442" lon="5.32829">
        <ele>316.9</ele>
        <time>2013-01-19T15:29:18Z</time>
      </trkpt>
      <trkpt lat="50.46458" lon="5.32857">
        <ele>318</ele>
        <time>2013-01-19T15:29:24Z</time>
      </trkpt>
      <trkpt lat="50.46469" lon="5.32872">
        <ele>316.4</ele>
        <time>2013-01-19T15:29:28Z</time>
      </trkpt>
      <trkpt lat="50.46491" lon="5.32906">
        <ele>317.8</ele>
        <time>2013-01-19T15:29:36Z</time>
      </trkpt>
      <trkpt lat="50.46504" lon="5.32939">
        <ele>318.8</ele>
        <time>2013-01-19T15:29:42Z</time>
      </trkpt>
      <trkpt lat="50.46521" lon="5.32965">
        <ele>320.5</ele>
        <time>2013-01-19T15:29:48Z</time>
      </trkpt>
      <trkpt lat="50.46535" lon="5.32987">
        <ele>320.3</ele>
        <time>2013-01-19T15:29:53Z</time>
      </trkpt>
      <trkpt lat="50.46547" lon="5.33007">
        <ele>320.2</ele>
        <time>2013-01-19T15:29:57Z</time>
      </trkpt>
      <trkpt lat="50.46554" lon="5.33024">
        <ele>320.2</ele>
        <time>2013-01-19T15:30:00Z</time>
      </trkpt>
      <trkpt lat="50.46564" lon="5.33054">
        <ele>321.1</ele>
        <time>2013-01-19T15:30:04Z</time>
      </trkpt>
      <trkpt lat="50.46575" lon="5.3308">
        <ele>320.6</ele>
        <time>2013-01-19T15:30:09Z</time>
      </trkpt>
      <trkpt lat="50.46594" lon="5.33119">
        <ele>320.2</ele>
        <time>2013-01-19T15:30:17Z</time>
      </trkpt>
      <trkpt lat="50.46608" lon="5.33151">
        <ele>320</ele>
        <time>2013-01-19T15:30:23Z</time>
      </trkpt>
      <trkpt lat="50.46624" lon="5.33183">
        <ele>320.3</ele>
        <time>2013-01-19T15:30:29Z</time>
      </trkpt>
      <trkpt lat="50.46632" lon="5.33219">
        <ele>322.9</ele>
        <time>2013-01-19T15:30:34Z</time>
      </trkpt>
      <trkpt lat="50.46645" lon="5.33258">
        <ele>324.3</ele>
        <time>2013-01-19T15:30:40Z</time>
      </trkpt>
      <trkpt lat="50.46663" lon="5.33286">
        <ele>324</ele>
        <time>2013-01-19T15:30:46Z</time>
      </trkpt>
      <trkpt lat="50.46678" lon="5.3331">
        <ele>322.3</ele>
        <time>2013-01-19T15:30:51Z</time>
      </trkpt>
      <trkpt lat="50.46693" lon="5.33333">
        <ele>321.9</ele>
        <time>2013-01-19T15:30:57Z</time>
      </trkpt>
      <trkpt lat="50.46708" lon="5.33332">
        <ele>323.4</ele>
        <time>2013-01-19T15:31:04Z</time>
      </trkpt>
      <trkpt lat="50.46723" lon="5.33334">
        <ele>321.1</ele>
        <time>2013-01-19T15:31:12Z</time>
      </trkpt>
      <trkpt lat="50.46732" lon="5.33358">
        <ele>320.9</ele>
        <time>2013-01-19T15:31:17Z</time>
      </trkpt>
      <trkpt lat="50.46742" lon="5.33391">
        <ele>321.2</ele>
        <time>2013-01-19T15:31:23Z</time>
      </trkpt>
      <trkpt lat="50.46756" lon="5.33423">
        <ele>322.5</ele>
        <time>2013-01-19T15:31:29Z</time>
      </trkpt>
      <trkpt lat="50.4677" lon="5.33466">
        <ele>320.6</ele>
        <time>2013-01-19T15:31:38Z</time>
      </trkpt>
      <trkpt lat="50.46781" lon="5.33492">
        <ele>320.9</ele>
        <time>2013-01-19T15:31:43Z</time>
      </trkpt>
      <trkpt lat="50.46797" lon="5.33535">
        <ele>320.4</ele>
        <time>2013-01-19T15:31:50Z</time>
      </trkpt>
      <trkpt lat="50.46813" lon="5.33569">
        <ele>321.7</ele>
        <time>2013-01-19T15:31:57Z</time>
      </trkpt>
      <trkpt lat="50.46825" lon="5.33609">
        <ele>322.9</ele>
        <time>2013-01-19T15:32:04Z</time>
      </trkpt>
      <trkpt lat="50.46841" lon="5.33638">
        <ele>323</ele>
        <time>2013-01-19T15:32:10Z</time>
      </trkpt>
      <trkpt lat="50.46851" lon="5.33667">
        <ele>321.7</ele>
        <time>2013-01-19T15:32:15Z</time>
      </trkpt>
      <trkpt lat="50.46858" lon="5.33685">
        <ele>322.4</ele>
        <time>2013-01-19T15:32:18Z</time>
      </trkpt>
      <trkpt lat="50.46869" lon="5.33727">
        <ele>323.9</ele>
        <time>2013-01-19T15:32:24Z</time>
      </trkpt>
      <trkpt lat="50.46876" lon="5.33746">
        <ele>323.8</ele>
        <time>2013-01-19T15:32:27Z</time>
      </trkpt>
      <trkpt lat="50.46888" lon="5.33784">
        <ele>324.8</ele>
        <time>2013-01-19T15:32:33Z</time>
      </trkpt>
      <trkpt lat="50.46894" lon="5.33804">
        <ele>326.3</ele>
        <time>2013-01-19T15:32:36Z</time>
      </trkpt>
      <trkpt lat="50.46897" lon="5.33841">
        <ele>327.9</ele>
        <time>2013-01-19T15:32:41Z</time>
      </trkpt>
      <trkpt lat="50.46907" lon="5.33873">
        <ele>327.1</ele>
        <time>2013-01-19T15:32:46Z</time>
      </trkpt>
      <trkpt lat="50.46916" lon="5.33918">
        <ele>327.8</ele>
        <time>2013-01-19T15:32:53Z</time>
      </trkpt>
      <trkpt lat="50.46925" lon="5.33949">
        <ele>327.1</ele>
        <time>2013-01-19T15:32:58Z</time>
      </trkpt>
      <trkpt lat="50.46938" lon="5.33999">
        <ele>326</ele>
        <time>2013-01-19T15:33:05Z</time>
      </trkpt>
      <trkpt lat="50.46949" lon="5.34035">
        <ele>325.5</ele>
        <time>2013-01-19T15:33:10Z</time>
      </trkpt>
      <trkpt lat="50.46958" lon="5.34087">
        <ele>324.1</ele>
        <time>2013-01-19T15:33:16Z</time>
      </trkpt>
      <trkpt lat="50.46958" lon="5.34135">
        <ele>323.2</ele>
        <time>2013-01-19T15:33:21Z</time>
      </trkpt>
      <trkpt lat="50.46961" lon="5.34182">
        <ele>321.5</ele>
        <time>2013-01-19T15:33:26Z</time>
      </trkpt>
      <trkpt lat="50.46963" lon="5.34209">
        <ele>322.2</ele>
        <time>2013-01-19T15:33:29Z</time>
      </trkpt>
      <trkpt lat="50.46966" lon="5.34262">
        <ele>322.2</ele>
        <time>2013-01-19T15:33:35Z</time>
      </trkpt>
      <trkpt lat="50.46968" lon="5.34329">
        <ele>320.5</ele>
        <time>2013-01-19T15:33:41Z</time>
      </trkpt>
      <trkpt lat="50.46968" lon="5.34377">
        <ele>321</ele>
        <time>2013-01-19T15:33:46Z</time>
      </trkpt>
      <trkpt lat="50.4697" lon="5.34425">
        <ele>319.5</ele>
        <time>2013-01-19T15:33:51Z</time>
      </trkpt>
      <trkpt lat="50.46972" lon="5.34462">
        <ele>319.4</ele>
        <time>2013-01-19T15:33:55Z</time>
      </trkpt>
      <trkpt lat="50.46975" lon="5.34507">
        <ele>318.3</ele>
        <time>2013-01-19T15:34:00Z</time>
      </trkpt>
      <trkpt lat="50.46976" lon="5.34559">
        <ele>318.6</ele>
        <time>2013-01-19T15:34:06Z</time>
      </trkpt>
      <trkpt lat="50.46978" lon="5.34597">
        <ele>318</ele>
        <time>2013-01-19T15:34:11Z</time>
      </trkpt>
      <trkpt lat="50.46982" lon="5.34623">
        <ele>318.5</ele>
        <time>2013-01-19T15:34:15Z</time>
      </trkpt>
      <trkpt lat="50.46991" lon="5.34678">
        <ele>317.3</ele>
        <time>2013-01-19T15:34:22Z</time>
      </trkpt>
      <trkpt lat="50.46998" lon="5.34725">
        <ele>317.3</ele>
        <time>2013-01-19T15:34:27Z</time>
      </trkpt>
      <trkpt lat="50.47009" lon="5.34751">
        <ele>316.7</ele>
        <time>2013-01-19T15:34:32Z</time>
      </trkpt>
      <trkpt lat="50.47018" lon="5.34785">
        <ele>318.4</ele>
        <time>2013-01-19T15:34:38Z</time>
      </trkpt>
      <trkpt lat="50.4703" lon="5.3483">
        <ele>318.6</ele>
        <time>2013-01-19T15:34:44Z</time>
      </trkpt>
      <trkpt lat="50.4704" lon="5.34857">
        <ele>318.1</ele>
        <time>2013-01-19T15:34:49Z</time>
      </trkpt>
      <trkpt lat="50.47051" lon="5.34897">
        <ele>317.7</ele>
        <time>2013-01-19T15:34:56Z</time>
      </trkpt>
      <trkpt lat="50.47068" lon="5.34937">
        <ele>317.2</ele>
        <time>2013-01-19T15:35:02Z</time>
      </trkpt>
      <trkpt lat="50.47081" lon="5.34969">
        <ele>316.1</ele>
        <time>2013-01-19T15:35:08Z</time>
      </trkpt>
      <trkpt lat="50.47096" lon="5.35009">
        <ele>314.6</ele>
        <time>2013-01-19T15:35:15Z</time>
      </trkpt>
      <trkpt lat="50.47106" lon="5.35029">
        <ele>314.6</ele>
        <time>2013-01-19T15:35:19Z</time>
      </trkpt>
      <trkpt lat="50.47119" lon="5.35056">
        <ele>312.3</ele>
        <time>2013-01-19T15:35:24Z</time>
      </trkpt>
      <trkpt lat="50.47131" lon="5.35084">
        <ele>312.8</ele>
        <time>2013-01-19T15:35:29Z</time>
      </trkpt>
      <trkpt lat="50.47143" lon="5.35121">
        <ele>316.6</ele>
        <time>2013-01-19T15:35:35Z</time>
      </trkpt>
      <trkpt lat="50.47159" lon="5.35163">
        <ele>317.5</ele>
        <time>2013-01-19T15:35:42Z</time>
      </trkpt>
      <trkpt lat="50.47175" lon="5.35194">
        <ele>317.4</ele>
        <time>2013-01-19T15:35:47Z</time>
      </trkpt>
      <trkpt lat="50.47193" lon="5.35238">
        <ele>316</ele>
        <time>2013-01-19T15:35:54Z</time>
      </trkpt>
      <trkpt lat="50.47197" lon="5.35285">
        <ele>315.8</ele>
        <time>2013-01-19T15:35:59Z</time>
      </trkpt>
      <trkpt lat="50.47184" lon="5.35318">
        <ele>315.5</ele>
        <time>2013-01-19T15:36:04Z</time>
      </trkpt>
      <trkpt lat="50.47159" lon="5.35347">
        <ele>314.4</ele>
        <time>2013-01-19T15:36:13Z</time>
      </trkpt>
      <trkpt lat="50.47149" lon="5.35371">
        <ele>314.4</ele>
        <time>2013-01-19T15:36:18Z</time>
      </trkpt>
      <trkpt lat="50.4716" lon="5.35414">
        <ele>313.2</ele>
        <time>2013-01-19T15:36:26Z</time>
      </trkpt>
      <trkpt lat="50.47175" lon="5.35438">
        <ele>312.3</ele>
        <time>2013-01-19T15:36:31Z</time>
      </trkpt>
      <trkpt lat="50.4719" lon="5.3546">
        <ele>313</ele>
        <time>2013-01-19T15:36:36Z</time>
      </trkpt>
      <trkpt lat="50.47214" lon="5.35481">
        <ele>314.4</ele>
        <time>2013-01-19T15:36:43Z</time>
      </trkpt>
      <trkpt lat="50.47226" lon="5.355">
        <ele>316.5</ele>
        <time>2013-01-19T15:36:49Z</time>
      </trkpt>
      <trkpt lat="50.47214" lon="5.3552">
        <ele>314.9</ele>
        <time>2013-01-19T15:36:56Z</time>
      </trkpt>
      <trkpt lat="50.47182" lon="5.35537">
        <ele>319.5</ele>
        <time>2013-01-19T15:37:02Z</time>
      </trkpt>
      <trkpt lat="50.47157" lon="5.35549">
        <ele>319.1</ele>
        <time>2013-01-19T15:37:08Z</time>
      </trkpt>
      <trkpt lat="50.47143" lon="5.35554">
        <ele>318.4</ele>
        <time>2013-01-19T15:37:11Z</time>
      </trkpt>
      <trkpt lat="50.47131" lon="5.35558">
        <ele>318.4</ele>
        <time>2013-01-19T15:37:14Z</time>
      </trkpt>
      <trkpt lat="50.47119" lon="5.3556">
        <ele>317.9</ele>
        <time>2013-01-19T15:37:17Z</time>
      </trkpt>
      <trkpt lat="50.47104" lon="5.35559">
        <ele>318.7</ele>
        <time>2013-01-19T15:37:20Z</time>
      </trkpt>
      <trkpt lat="50.47077" lon="5.35554">
        <ele>318.7</ele>
        <time>2013-01-19T15:37:25Z</time>
      </trkpt>
      <trkpt lat="50.47045" lon="5.35555">
        <ele>316.8</ele>
        <time>2013-01-19T15:37:31Z</time>
      </trkpt>
      <trkpt lat="50.47028" lon="5.35553">
        <ele>316.6</ele>
        <time>2013-01-19T15:37:34Z</time>
      </trkpt>
      <trkpt lat="50.4701" lon="5.35553">
        <ele>316.6</ele>
        <time>2013-01-19T15:37:37Z</time>
      </trkpt>
      <trkpt lat="50.46987" lon="5.35555">
        <ele>315.1</ele>
        <time>2013-01-19T15:37:42Z</time>
      </trkpt>
      <trkpt lat="50.46958" lon="5.35567">
        <ele>317.2</ele>
        <time>2013-01-19T15:37:47Z</time>
      </trkpt>
      <trkpt lat="50.46942" lon="5.35571">
        <ele>317.8</ele>
        <time>2013-01-19T15:37:50Z</time>
      </trkpt>
      <trkpt lat="50.46912" lon="5.35583">
        <ele>318.3</ele>
        <time>2013-01-19T15:37:56Z</time>
      </trkpt>
      <trkpt lat="50.46897" lon="5.35588">
        <ele>318.7</ele>
        <time>2013-01-19T15:37:59Z</time>
      </trkpt>
      <trkpt lat="50.46871" lon="5.35604">
        <ele>319.8</ele>
        <time>2013-01-19T15:38:04Z</time>
      </trkpt>
      <trkpt lat="50.46846" lon="5.35613">
        <ele>320.4</ele>
        <time>2013-01-19T15:38:09Z</time>
      </trkpt>
      <trkpt lat="50.46823" lon="5.35624">
        <ele>320.7</ele>
        <time>2013-01-19T15:38:14Z</time>
      </trkpt>
      <trkpt lat="50.46796" lon="5.35635">
        <ele>321.3</ele>
        <time>2013-01-19T15:38:20Z</time>
      </trkpt>
      <trkpt lat="50.46772" lon="5.35643">
        <ele>320.8</ele>
        <time>2013-01-19T15:38:25Z</time>
      </trkpt>
      <trkpt lat="50.46749" lon="5.35655">
        <ele>322.6</ele>
        <time>2013-01-19T15:38:31Z</time>
      </trkpt>
      <trkpt lat="50.46726" lon="5.35653">
        <ele>325.2</ele>
        <time>2013-01-19T15:38:38Z</time>
      </trkpt>
      <trkpt lat="50.46728" lon="5.35645">
        <ele>326.6</ele>
        <time>2013-01-19T15:38:42Z</time>
      </trkpt>
      <trkpt lat="50.46728" lon="5.35645">
        <ele>266.2</ele>
        <time>2013-01-19T15:38:48Z</time>
      </trkpt>
      <trkpt lat="50.46728" lon="5.35645">
        <ele>266.2</ele>
        <time>2013-01-19T15:40:28Z</time>
      </trkpt>
      <trkpt lat="50.46719" lon="5.35618">
        <ele>326.8</ele>
        <time>2013-01-19T15:40:28Z</time>
      </trkpt>
      <trkpt lat="50.4671" lon="5.35592">
        <ele>323</ele>
        <time>2013-01-19T15:40:36Z</time>
      </trkpt>
      <trkpt lat="50.46701" lon="5.35555">
        <ele>318.8</ele>
        <time>2013-01-19T15:40:46Z</time>
      </trkpt>
      <trkpt lat="50.46686" lon="5.35523">
        <ele>316.5</ele>
        <time>2013-01-19T15:40:57Z</time>
      </trkpt>
      <trkpt lat="50.46677" lon="5.35499">
        <ele>317</ele>
        <time>2013-01-19T15:41:05Z</time>
      </trkpt>
      <trkpt lat="50.46664" lon="5.35466">
        <ele>315.8</ele>
        <time>2013-01-19T15:41:14Z</time>
      </trkpt>
      <trkpt lat="50.4666" lon="5.35457">
        <ele>314.7</ele>
        <time>2013-01-19T15:41:19Z</time>
      </trkpt>
      <trkpt lat="50.4666" lon="5.35457">
        <ele>267.6</ele>
        <time>2013-01-19T15:41:25Z</time>
      </trkpt>
      <trkpt lat="50.4666" lon="5.35457">
        <ele>267.6</ele>
        <time>2013-01-19T15:41:44Z</time>
      </trkpt>
      <trkpt lat="50.4667" lon="5.35474">
        <ele>309.8</ele>
        <time>2013-01-19T15:41:44Z</time>
      </trkpt>
      <trkpt lat="50.4668" lon="5.35483">
        <ele>307.7</ele>
        <time>2013-01-19T15:41:48Z</time>
      </trkpt>
      <trkpt lat="50.4668" lon="5.35483">
        <ele>268.1</ele>
        <time>2013-01-19T15:41:55Z</time>
      </trkpt>
      <trkpt lat="50.4668" lon="5.35483">
        <ele>268.1</ele>
        <time>2013-01-19T15:42:22Z</time>
      </trkpt>
      <trkpt lat="50.46651" lon="5.35439">
        <ele>311.2</ele>
        <time>2013-01-19T15:42:22Z</time>
      </trkpt>
      <trkpt lat="50.46639" lon="5.3541">
        <ele>310</ele>
        <time>2013-01-19T15:42:28Z</time>
      </trkpt>
      <trkpt lat="50.46627" lon="5.35386">
        <ele>308.6</ele>
        <time>2013-01-19T15:42:33Z</time>
      </trkpt>
      <trkpt lat="50.46613" lon="5.35354">
        <ele>308.8</ele>
        <time>2013-01-19T15:42:39Z</time>
      </trkpt>
      <trkpt lat="50.466" lon="5.35326">
        <ele>308.1</ele>
        <time>2013-01-19T15:42:45Z</time>
      </trkpt>
      <trkpt lat="50.46584" lon="5.35288">
        <ele>309.9</ele>
        <time>2013-01-19T15:42:51Z</time>
      </trkpt>
      <trkpt lat="50.46566" lon="5.35254">
        <ele>307.9</ele>
        <time>2013-01-19T15:42:57Z</time>
      </trkpt>
      <trkpt lat="50.4655" lon="5.35221">
        <ele>306.2</ele>
        <time>2013-01-19T15:43:03Z</time>
      </trkpt>
      <trkpt lat="50.46537" lon="5.35196">
        <ele>304.9</ele>
        <time>2013-01-19T15:43:08Z</time>
      </trkpt>
      <trkpt lat="50.46523" lon="5.35171">
        <ele>302.2</ele>
        <time>2013-01-19T15:43:13Z</time>
      </trkpt>
      <trkpt lat="50.46508" lon="5.35146">
        <ele>301.9</ele>
        <time>2013-01-19T15:43:18Z</time>
      </trkpt>
      <trkpt lat="50.46488" lon="5.35109">
        <ele>302.9</ele>
        <time>2013-01-19T15:43:25Z</time>
      </trkpt>
      <trkpt lat="50.46472" lon="5.35074">
        <ele>304.7</ele>
        <time>2013-01-19T15:43:31Z</time>
      </trkpt>
      <trkpt lat="50.46458" lon="5.35046">
        <ele>305.5</ele>
        <time>2013-01-19T15:43:36Z</time>
      </trkpt>
      <trkpt lat="50.4644" lon="5.35013">
        <ele>306.7</ele>
        <time>2013-01-19T15:43:42Z</time>
      </trkpt>
      <trkpt lat="50.46427" lon="5.3499">
        <ele>306.4</ele>
        <time>2013-01-19T15:43:47Z</time>
      </trkpt>
      <trkpt lat="50.46409" lon="5.34962">
        <ele>306</ele>
        <time>2013-01-19T15:43:53Z</time>
      </trkpt>
      <trkpt lat="50.46397" lon="5.34944">
        <ele>308</ele>
        <time>2013-01-19T15:44:01Z</time>
      </trkpt>
      <trkpt lat="50.46382" lon="5.34962">
        <ele>309.5</ele>
        <time>2013-01-19T15:44:11Z</time>
      </trkpt>
      <trkpt lat="50.46359" lon="5.34995">
        <ele>308.4</ele>
        <time>2013-01-19T15:44:18Z</time>
      </trkpt>
      <trkpt lat="50.46333" lon="5.35025">
        <ele>307.1</ele>
        <time>2013-01-19T15:44:24Z</time>
      </trkpt>
      <trkpt lat="50.46317" lon="5.35049">
        <ele>307.1</ele>
        <time>2013-01-19T15:44:30Z</time>
      </trkpt>
      <trkpt lat="50.46299" lon="5.35072">
        <ele>306.8</ele>
        <time>2013-01-19T15:44:36Z</time>
      </trkpt>
      <trkpt lat="50.46279" lon="5.35098">
        <ele>308.2</ele>
        <time>2013-01-19T15:44:43Z</time>
      </trkpt>
      <trkpt lat="50.4626" lon="5.35121">
        <ele>308.9</ele>
        <time>2013-01-19T15:44:49Z</time>
      </trkpt>
      <trkpt lat="50.46238" lon="5.35151">
        <ele>308.4</ele>
        <time>2013-01-19T15:44:55Z</time>
      </trkpt>
      <trkpt lat="50.46228" lon="5.35164">
        <ele>308.9</ele>
        <time>2013-01-19T15:44:58Z</time>
      </trkpt>
      <trkpt lat="50.46214" lon="5.35186">
        <ele>308.6</ele>
        <time>2013-01-19T15:45:03Z</time>
      </trkpt>
      <trkpt lat="50.46194" lon="5.35213">
        <ele>307.7</ele>
        <time>2013-01-19T15:45:10Z</time>
      </trkpt>
      <trkpt lat="50.46177" lon="5.35231">
        <ele>307.6</ele>
        <time>2013-01-19T15:45:15Z</time>
      </trkpt>
      <trkpt lat="50.4616" lon="5.35253">
        <ele>307.5</ele>
        <time>2013-01-19T15:45:20Z</time>
      </trkpt>
      <trkpt lat="50.46139" lon="5.3528">
        <ele>307.2</ele>
        <time>2013-01-19T15:45:26Z</time>
      </trkpt>
      <trkpt lat="50.46121" lon="5.35306">
        <ele>305.1</ele>
        <time>2013-01-19T15:45:32Z</time>
      </trkpt>
      <trkpt lat="50.46104" lon="5.35327">
        <ele>304.5</ele>
        <time>2013-01-19T15:45:38Z</time>
      </trkpt>
      <trkpt lat="50.46086" lon="5.3535">
        <ele>302.6</ele>
        <time>2013-01-19T15:45:44Z</time>
      </trkpt>
      <trkpt lat="50.46077" lon="5.35362">
        <ele>300.5</ele>
        <time>2013-01-19T15:45:47Z</time>
      </trkpt>
      <trkpt lat="50.46068" lon="5.35374">
        <ele>299.9</ele>
        <time>2013-01-19T15:45:50Z</time>
      </trkpt>
      <trkpt lat="50.46048" lon="5.35398">
        <ele>300.9</ele>
        <time>2013-01-19T15:45:56Z</time>
      </trkpt>
      <trkpt lat="50.46038" lon="5.3541">
        <ele>301.2</ele>
        <time>2013-01-19T15:45:59Z</time>
      </trkpt>
      <trkpt lat="50.46016" lon="5.35432">
        <ele>301.2</ele>
        <time>2013-01-19T15:46:05Z</time>
      </trkpt>
      <trkpt lat="50.45995" lon="5.35455">
        <ele>299.5</ele>
        <time>2013-01-19T15:46:11Z</time>
      </trkpt>
      <trkpt lat="50.45981" lon="5.35471">
        <ele>298.2</ele>
        <time>2013-01-19T15:46:14Z</time>
      </trkpt>
      <trkpt lat="50.45956" lon="5.355">
        <ele>297.3</ele>
        <time>2013-01-19T15:46:20Z</time>
      </trkpt>
      <trkpt lat="50.45942" lon="5.35515">
        <ele>298.6</ele>
        <time>2013-01-19T15:46:23Z</time>
      </trkpt>
      <trkpt lat="50.45918" lon="5.35543">
        <ele>296.8</ele>
        <time>2013-01-19T15:46:29Z</time>
      </trkpt>
      <trkpt lat="50.45889" lon="5.35577">
        <ele>296</ele>
        <time>2013-01-19T15:46:36Z</time>
      </trkpt>
      <trkpt lat="50.45863" lon="5.35605">
        <ele>293.6</ele>
        <time>2013-01-19T15:46:43Z</time>
      </trkpt>
      <trkpt lat="50.45845" lon="5.35626">
        <ele>293.8</ele>
        <time>2013-01-19T15:46:48Z</time>
      </trkpt>
      <trkpt lat="50.45828" lon="5.35649">
        <ele>295.1</ele>
        <time>2013-01-19T15:46:55Z</time>
      </trkpt>
      <trkpt lat="50.45804" lon="5.35673">
        <ele>294.4</ele>
        <time>2013-01-19T15:47:02Z</time>
      </trkpt>
      <trkpt lat="50.45791" lon="5.35691">
        <ele>295</ele>
        <time>2013-01-19T15:47:07Z</time>
      </trkpt>
      <trkpt lat="50.4577" lon="5.35718">
        <ele>293.1</ele>
        <time>2013-01-19T15:47:14Z</time>
      </trkpt>
      <trkpt lat="50.45752" lon="5.35737">
        <ele>293.5</ele>
        <time>2013-01-19T15:47:19Z</time>
      </trkpt>
      <trkpt lat="50.45731" lon="5.35761">
        <ele>293.2</ele>
        <time>2013-01-19T15:47:25Z</time>
      </trkpt>
      <trkpt lat="50.45713" lon="5.35778">
        <ele>293.7</ele>
        <time>2013-01-19T15:47:30Z</time>
      </trkpt>
      <trkpt lat="50.45686" lon="5.35808">
        <ele>292.7</ele>
        <time>2013-01-19T15:47:39Z</time>
      </trkpt>
      <trkpt lat="50.45667" lon="5.35828">
        <ele>291.9</ele>
        <time>2013-01-19T15:47:46Z</time>
      </trkpt>
      <trkpt lat="50.45639" lon="5.35844">
        <ele>290</ele>
        <time>2013-01-19T15:47:54Z</time>
      </trkpt>
      <trkpt lat="50.45616" lon="5.35833">
        <ele>288.3</ele>
        <time>2013-01-19T15:48:00Z</time>
      </trkpt>
      <trkpt lat="50.45599" lon="5.35818">
        <ele>288.8</ele>
        <time>2013-01-19T15:48:04Z</time>
      </trkpt>
      <trkpt lat="50.45576" lon="5.358">
        <ele>287.1</ele>
        <time>2013-01-19T15:48:10Z</time>
      </trkpt>
      <trkpt lat="50.45554" lon="5.35782">
        <ele>289.6</ele>
        <time>2013-01-19T15:48:16Z</time>
      </trkpt>
      <trkpt lat="50.45529" lon="5.35759">
        <ele>287.2</ele>
        <time>2013-01-19T15:48:23Z</time>
      </trkpt>
      <trkpt lat="50.45509" lon="5.35741">
        <ele>286.2</ele>
        <time>2013-01-19T15:48:28Z</time>
      </trkpt>
      <trkpt lat="50.45485" lon="5.35718">
        <ele>287.4</ele>
        <time>2013-01-19T15:48:34Z</time>
      </trkpt>
      <trkpt lat="50.45458" lon="5.35698">
        <ele>287.5</ele>
        <time>2013-01-19T15:48:40Z</time>
      </trkpt>
      <trkpt lat="50.45433" lon="5.35678">
        <ele>286.8</ele>
        <time>2013-01-19T15:48:46Z</time>
      </trkpt>
      <trkpt lat="50.45412" lon="5.35671">
        <ele>286.9</ele>
        <time>2013-01-19T15:48:52Z</time>
      </trkpt>
      <trkpt lat="50.45388" lon="5.3566">
        <ele>286.2</ele>
        <time>2013-01-19T15:49:01Z</time>
      </trkpt>
      <trkpt lat="50.45374" lon="5.35646">
        <ele>287.2</ele>
        <time>2013-01-19T15:49:07Z</time>
      </trkpt>
      <trkpt lat="50.45363" lon="5.35636">
        <ele>288.5</ele>
        <time>2013-01-19T15:49:11Z</time>
      </trkpt>
      <trkpt lat="50.45348" lon="5.35623">
        <ele>285</ele>
        <time>2013-01-19T15:49:16Z</time>
      </trkpt>
      <trkpt lat="50.45339" lon="5.35615">
        <ele>286.9</ele>
        <time>2013-01-19T15:49:19Z</time>
      </trkpt>
      <trkpt lat="50.45318" lon="5.35597">
        <ele>288.7</ele>
        <time>2013-01-19T15:49:26Z</time>
      </trkpt>
      <trkpt lat="50.45294" lon="5.35574">
        <ele>288.3</ele>
        <time>2013-01-19T15:49:34Z</time>
      </trkpt>
      <trkpt lat="50.45275" lon="5.35563">
        <ele>288.4</ele>
        <time>2013-01-19T15:49:40Z</time>
      </trkpt>
      <trkpt lat="50.45247" lon="5.35572">
        <ele>289.6</ele>
        <time>2013-01-19T15:49:48Z</time>
      </trkpt>
      <trkpt lat="50.45223" lon="5.35544">
        <ele>289.4</ele>
        <time>2013-01-19T15:49:56Z</time>
      </trkpt>
      <trkpt lat="50.45201" lon="5.35495">
        <ele>290.6</ele>
        <time>2013-01-19T15:50:02Z</time>
      </trkpt>
      <trkpt lat="50.45172" lon="5.35461">
        <ele>291</ele>
        <time>2013-01-19T15:50:08Z</time>
      </trkpt>
      <trkpt lat="50.45134" lon="5.3543">
        <ele>289.3</ele>
        <time>2013-01-19T15:50:14Z</time>
      </trkpt>
      <trkpt lat="50.45099" lon="5.35393">
        <ele>288.8</ele>
        <time>2013-01-19T15:50:20Z</time>
      </trkpt>
      <trkpt lat="50.45068" lon="5.35366">
        <ele>288.4</ele>
        <time>2013-01-19T15:50:25Z</time>
      </trkpt>
      <trkpt lat="50.45031" lon="5.3533">
        <ele>288.5</ele>
        <time>2013-01-19T15:50:32Z</time>
      </trkpt>
      <trkpt lat="50.45001" lon="5.35301">
        <ele>289.4</ele>
        <time>2013-01-19T15:50:38Z</time>
      </trkpt>
      <trkpt lat="50.44981" lon="5.3528">
        <ele>290.2</ele>
        <time>2013-01-19T15:50:43Z</time>
      </trkpt>
      <trkpt lat="50.44946" lon="5.35254">
        <ele>288.3</ele>
        <time>2013-01-19T15:50:49Z</time>
      </trkpt>
      <trkpt lat="50.44917" lon="5.3523">
        <ele>289.1</ele>
        <time>2013-01-19T15:50:55Z</time>
      </trkpt>
      <trkpt lat="50.44895" lon="5.35217">
        <ele>289</ele>
        <time>2013-01-19T15:51:00Z</time>
      </trkpt>
      <trkpt lat="50.44857" lon="5.35238">
        <ele>288.2</ele>
        <time>2013-01-19T15:51:07Z</time>
      </trkpt>
      <trkpt lat="50.44811" lon="5.35268">
        <ele>288.5</ele>
        <time>2013-01-19T15:51:13Z</time>
      </trkpt>
      <trkpt lat="50.44778" lon="5.3528">
        <ele>288.3</ele>
        <time>2013-01-19T15:51:19Z</time>
      </trkpt>
      <trkpt lat="50.44759" lon="5.35285">
        <ele>291.4</ele>
        <time>2013-01-19T15:51:22Z</time>
      </trkpt>
      <trkpt lat="50.44738" lon="5.35283">
        <ele>291.6</ele>
        <time>2013-01-19T15:51:27Z</time>
      </trkpt>
      <trkpt lat="50.44709" lon="5.3527">
        <ele>289.9</ele>
        <time>2013-01-19T15:51:34Z</time>
      </trkpt>
      <trkpt lat="50.44688" lon="5.35256">
        <ele>288.1</ele>
        <time>2013-01-19T15:51:40Z</time>
      </trkpt>
      <trkpt lat="50.44654" lon="5.35234">
        <ele>291.9</ele>
        <time>2013-01-19T15:51:46Z</time>
      </trkpt>
      <trkpt lat="50.44631" lon="5.35214">
        <ele>290.3</ele>
        <time>2013-01-19T15:51:52Z</time>
      </trkpt>
      <trkpt lat="50.4461" lon="5.35194">
        <ele>290.2</ele>
        <time>2013-01-19T15:51:57Z</time>
      </trkpt>
      <trkpt lat="50.44576" lon="5.35176">
        <ele>290.4</ele>
        <time>2013-01-19T15:52:04Z</time>
      </trkpt>
      <trkpt lat="50.44554" lon="5.3517">
        <ele>289.4</ele>
        <time>2013-01-19T15:52:11Z</time>
      </trkpt>
      <trkpt lat="50.44544" lon="5.35133">
        <ele>289</ele>
        <time>2013-01-19T15:52:19Z</time>
      </trkpt>
      <trkpt lat="50.44536" lon="5.35099">
        <ele>289.3</ele>
        <time>2013-01-19T15:52:25Z</time>
      </trkpt>
      <trkpt lat="50.44526" lon="5.35067">
        <ele>287.6</ele>
        <time>2013-01-19T15:52:32Z</time>
      </trkpt>
      <trkpt lat="50.4452" lon="5.35032">
        <ele>286</ele>
        <time>2013-01-19T15:52:39Z</time>
      </trkpt>
      <trkpt lat="50.44509" lon="5.34989">
        <ele>288.2</ele>
        <time>2013-01-19T15:52:47Z</time>
      </trkpt>
      <trkpt lat="50.44497" lon="5.34962">
        <ele>285.9</ele>
        <time>2013-01-19T15:52:52Z</time>
      </trkpt>
      <trkpt lat="50.44485" lon="5.34939">
        <ele>286.3</ele>
        <time>2013-01-19T15:52:56Z</time>
      </trkpt>
      <trkpt lat="50.44473" lon="5.34911">
        <ele>286.9</ele>
        <time>2013-01-19T15:52:59Z</time>
      </trkpt>
      <trkpt lat="50.44462" lon="5.3489">
        <ele>288.3</ele>
        <time>2013-01-19T15:53:02Z</time>
      </trkpt>
      <trkpt lat="50.44439" lon="5.34853">
        <ele>288.3</ele>
        <time>2013-01-19T15:53:09Z</time>
      </trkpt>
      <trkpt lat="50.44439" lon="5.3483">
        <ele>288.3</ele>
        <time>2013-01-19T15:53:14Z</time>
      </trkpt>
      <trkpt lat="50.44457" lon="5.34829">
        <ele>289</ele>
        <time>2013-01-19T15:53:24Z</time>
      </trkpt>
      <trkpt lat="50.44479" lon="5.34841">
        <ele>286.7</ele>
        <time>2013-01-19T15:53:32Z</time>
      </trkpt>
      <trkpt lat="50.44501" lon="5.34836">
        <ele>288.6</ele>
        <time>2013-01-19T15:53:40Z</time>
      </trkpt>
      <trkpt lat="50.44518" lon="5.34831">
        <ele>290.9</ele>
        <time>2013-01-19T15:53:46Z</time>
      </trkpt>
      <trkpt lat="50.4453" lon="5.34826">
        <ele>290.7</ele>
        <time>2013-01-19T15:53:51Z</time>
      </trkpt>
      <trkpt lat="50.44553" lon="5.34811">
        <ele>295.1</ele>
        <time>2013-01-19T15:54:00Z</time>
      </trkpt>
      <trkpt lat="50.44581" lon="5.34801">
        <ele>305.2</ele>
        <time>2013-01-19T15:54:09Z</time>
      </trkpt>
      <trkpt lat="50.44602" lon="5.34801">
        <ele>305.2</ele>
        <time>2013-01-19T15:54:16Z</time>
      </trkpt>
      <trkpt lat="50.44617" lon="5.34797">
        <ele>305.4</ele>
        <time>2013-01-19T15:54:21Z</time>
      </trkpt>
      <trkpt lat="50.44627" lon="5.34795">
        <ele>307.3</ele>
        <time>2013-01-19T15:54:25Z</time>
      </trkpt>
      <trkpt lat="50.4464" lon="5.34791">
        <ele>308.5</ele>
        <time>2013-01-19T15:54:31Z</time>
      </trkpt>
      <trkpt lat="50.44665" lon="5.34783">
        <ele>302.7</ele>
        <time>2013-01-19T15:54:40Z</time>
      </trkpt>
      <trkpt lat="50.44669" lon="5.34784">
        <ele>302.6</ele>
        <time>2013-01-19T15:54:43Z</time>
      </trkpt>
      <trkpt lat="50.44669" lon="5.34784">
        <ele>253.1</ele>
        <time>2013-01-19T15:54:49Z</time>
      </trkpt>
      <trkpt lat="50.44669" lon="5.34784">
        <ele>253.1</ele>
        <time>2013-01-19T15:56:05Z</time>
      </trkpt>
      <trkpt lat="50.4467" lon="5.34817">
        <ele>295.2</ele>
        <time>2013-01-19T15:56:05Z</time>
      </trkpt>
      <trkpt lat="50.4467" lon="5.34817">
        <ele>295.2</ele>
        <time>2013-01-19T15:56:18Z</time>
      </trkpt>
      <trkpt lat="50.4467" lon="5.34817">
        <ele>253.1</ele>
        <time>2013-01-19T15:56:18Z</time>
      </trkpt>
      <trkpt lat="50.4467" lon="5.34817">
        <ele>253.1</ele>
        <time>2013-01-19T15:58:38Z</time>
      </trkpt>
      <trkpt lat="50.44667" lon="5.34788">
        <ele>296.3</ele>
        <time>2013-01-19T15:58:38Z</time>
      </trkpt>
      <trkpt lat="50.44667" lon="5.34788">
        <ele>253</ele>
        <time>2013-01-19T15:59:13Z</time>
      </trkpt>
      <trkpt lat="50.44667" lon="5.34788">
        <ele>253</ele>
        <time>2013-01-19T15:59:14Z</time>
      </trkpt>
    </trkseg>
  </trk>
</gpx>